PWSweather.com
Personal Weather Stations
Station Observations
HVALPSUND
Hvalpsund, FarsoeDK 9640

HvalpsundFarsoeDK 9640

Lat: 56.705311, Lon: 9.203638

Elevation: 5

Station Type: Vantage Pro2

http://hvalpsundvejr.dk

High Low Average
Temperature 29.6°F-1.3°C 21.9°F-5.6°C 26.2°F-3.2°C
Dew Point 23.0°F-5.0°C 15.8°F-9.0°C 18.6°F-7.4°C
Winds 10.0 mph 16.1 kmh Calm Calm 4.0 mph S6.4 kmh S
Wind Gusts 13.0 mph20.9 kmh 1.0 mph1.6 kmh 6.0 mph9.7 kmh
Humidity 83% 62% 73%
Pressure 30.30 in1026.1 mb 29.95 in1014.2 mb -
Precipitation 0.00 in0.0 mm - -
Hour Temp Dew Point Humidity Winds Wind Gusts Pressure Precip Precip Rate Daily Precip Total
12:00 AM 22.0°F-5.6°C 15.9°F-8.9°C 77% 3.5 mph SE5.6 kmh SE 5.0 mph8.0 kmh 30.30 in1026.1 mb 0.00 in0.0 mm 0.00 in0.0 mm 0.00 in0.0 mm
12:01 AM 21.9°F-5.6°C 15.8°F-9.0°C 77% 4.2 mph SE6.8 kmh SE 5.0 mph8.0 kmh 30.30 in1026.1 mb 0.00 in0.0 mm 0.00 in0.0 mm 0.00 in0.0 mm
12:02 AM 21.9°F-5.6°C 15.8°F-9.0°C 77% 4.3 mph SE6.9 kmh SE 5.0 mph8.0 kmh 30.30 in1026.1 mb 0.00 in0.0 mm 0.00 in0.0 mm 0.00 in0.0 mm
12:03 AM 21.9°F-5.6°C 15.8°F-9.0°C 77% 4.4 mph SE7.1 kmh SE 5.0 mph8.0 kmh 30.30 in1026.1 mb 0.00 in0.0 mm 0.00 in0.0 mm 0.00 in0.0 mm
12:04 AM 21.9°F-5.6°C 16.1°F-8.8°C 78% 4.7 mph SE7.6 kmh SE 5.0 mph8.0 kmh 30.30 in1026.1 mb 0.00 in0.0 mm 0.00 in0.0 mm 0.00 in0.0 mm
12:05 AM 22.0°F-5.6°C 16.2°F-8.8°C 78% 4.3 mph SE6.9 kmh SE 5.0 mph8.0 kmh 30.30 in1026.1 mb 0.00 in0.0 mm 0.00 in0.0 mm 0.00 in0.0 mm
12:06 AM 22.0°F-5.6°C 16.2°F-8.8°C 78% 4.1 mph SE6.6 kmh SE 5.0 mph8.0 kmh 30.30 in1026.1 mb 0.00 in0.0 mm 0.00 in0.0 mm 0.00 in0.0 mm
12:07 AM 22.1°F-5.5°C 16.3°F-8.7°C 78% 4.6 mph SE7.4 kmh SE 7.0 mph11.3 kmh 30.30 in1026.1 mb 0.00 in0.0 mm 0.00 in0.0 mm 0.00 in0.0 mm
12:08 AM 22.0°F-5.6°C 16.2°F-8.8°C 78% 4.4 mph SE7.1 kmh SE 7.0 mph11.3 kmh 30.29 in1025.7 mb 0.00 in0.0 mm 0.00 in0.0 mm 0.00 in0.0 mm
12:09 AM 22.1°F-5.5°C 16.3°F-8.7°C 78% 4.3 mph SE6.9 kmh SE 5.0 mph8.0 kmh 30.29 in1025.7 mb 0.00 in0.0 mm 0.00 in0.0 mm 0.00 in0.0 mm
12:10 AM 22.1°F-5.5°C 16.3°F-8.7°C 78% 4.6 mph SE7.4 kmh SE 5.0 mph8.0 kmh 30.29 in1025.7 mb 0.00 in0.0 mm 0.00 in0.0 mm 0.00 in0.0 mm
12:11 AM 22.1°F-5.5°C 16.3°F-8.7°C 78% 4.1 mph SE6.6 kmh SE 5.0 mph8.0 kmh 30.29 in1025.7 mb 0.00 in0.0 mm 0.00 in0.0 mm 0.00 in0.0 mm
12:12 AM 22.2°F-5.4°C 16.4°F-8.7°C 78% 4.6 mph SE7.4 kmh SE 7.0 mph11.3 kmh 30.29 in1025.7 mb 0.00 in0.0 mm 0.00 in0.0 mm 0.00 in0.0 mm
12:13 AM 22.1°F-5.5°C 16.3°F-8.7°C 78% 4.2 mph SE6.8 kmh SE 7.0 mph11.3 kmh 30.29 in1025.7 mb 0.00 in0.0 mm 0.00 in0.0 mm 0.00 in0.0 mm
12:14 AM 22.1°F-5.5°C 16.3°F-8.7°C 78% 4.2 mph SE6.8 kmh SE 5.0 mph8.0 kmh 30.29 in1025.7 mb 0.00 in0.0 mm 0.00 in0.0 mm 0.00 in0.0 mm
12:15 AM 22.1°F-5.5°C 16.3°F-8.7°C 78% 4.5 mph SE7.2 kmh SE 5.0 mph8.0 kmh 30.29 in1025.7 mb 0.00 in0.0 mm 0.00 in0.0 mm 0.00 in0.0 mm
12:16 AM 22.1°F-5.5°C 16.3°F-8.7°C 78% 4.6 mph SE7.4 kmh SE 5.0 mph8.0 kmh 30.29 in1025.7 mb 0.00 in0.0 mm 0.00 in0.0 mm 0.00 in0.0 mm
12:17 AM 22.2°F-5.4°C 16.4°F-8.7°C 78% 4.5 mph SE7.2 kmh SE 5.0 mph8.0 kmh 30.29 in1025.7 mb 0.00 in0.0 mm 0.00 in0.0 mm 0.00 in0.0 mm
12:18 AM 22.1°F-5.5°C 16.3°F-8.7°C 78% 4.6 mph SE7.4 kmh SE 5.0 mph8.0 kmh 30.29 in1025.7 mb 0.00 in0.0 mm 0.00 in0.0 mm 0.00 in0.0 mm
12:19 AM 22.2°F-5.4°C 16.4°F-8.7°C 78% 4.1 mph SE6.6 kmh SE 5.0 mph8.0 kmh 30.29 in1025.7 mb 0.00 in0.0 mm 0.00 in0.0 mm 0.00 in0.0 mm
12:20 AM 22.2°F-5.4°C 16.4°F-8.7°C 78% 4.1 mph SE6.6 kmh SE 5.0 mph8.0 kmh 30.29 in1025.7 mb 0.00 in0.0 mm 0.00 in0.0 mm 0.00 in0.0 mm
12:21 AM 22.2°F-5.4°C 16.4°F-8.7°C 78% 3.9 mph SE6.3 kmh SE 5.0 mph8.0 kmh 30.29 in1025.7 mb 0.00 in0.0 mm 0.00 in0.0 mm 0.00 in0.0 mm
12:22 AM 22.2°F-5.4°C 16.4°F-8.7°C 78% 3.7 mph SE6.0 kmh SE 5.0 mph8.0 kmh 30.29 in1025.7 mb 0.00 in0.0 mm 0.00 in0.0 mm 0.00 in0.0 mm
12:23 AM 22.2°F-5.4°C 16.4°F-8.7°C 78% 4.0 mph SE6.4 kmh SE 5.0 mph8.0 kmh 30.29 in1025.7 mb 0.00 in0.0 mm 0.00 in0.0 mm 0.00 in0.0 mm
12:24 AM 22.2°F-5.4°C 16.4°F-8.7°C 78% 3.8 mph SE6.1 kmh SE 5.0 mph8.0 kmh 30.29 in1025.7 mb 0.00 in0.0 mm 0.00 in0.0 mm 0.00 in0.0 mm
12:25 AM 22.3°F-5.4°C 16.5°F-8.6°C 78% 4.2 mph SE6.8 kmh SE 5.0 mph8.0 kmh 30.29 in1025.7 mb 0.00 in0.0 mm 0.00 in0.0 mm 0.00 in0.0 mm
12:26 AM 22.3°F-5.4°C 16.5°F-8.6°C 78% 4.5 mph SE7.2 kmh SE 5.0 mph8.0 kmh 30.29 in1025.7 mb 0.00 in0.0 mm 0.00 in0.0 mm 0.00 in0.0 mm
12:27 AM 22.2°F-5.4°C 16.4°F-8.7°C 78% 4.7 mph SE7.6 kmh SE 7.0 mph11.3 kmh 30.28 in1025.4 mb 0.00 in0.0 mm 0.00 in0.0 mm 0.00 in0.0 mm
12:28 AM 22.3°F-5.4°C 16.5°F-8.6°C 78% 4.8 mph SE7.7 kmh SE 7.0 mph11.3 kmh 30.28 in1025.4 mb 0.00 in0.0 mm 0.00 in0.0 mm 0.00 in0.0 mm
12:29 AM 22.3°F-5.4°C 16.5°F-8.6°C 78% 5.3 mph SE8.5 kmh SE 8.0 mph12.9 kmh 30.28 in1025.4 mb 0.00 in0.0 mm 0.00 in0.0 mm 0.00 in0.0 mm
12:30 AM 22.4°F-5.3°C 16.6°F-8.6°C 78% 5.6 mph SE9.0 kmh SE 8.0 mph12.9 kmh 30.28 in1025.4 mb 0.00 in0.0 mm 0.00 in0.0 mm 0.00 in0.0 mm
12:31 AM 22.4°F-5.3°C 16.9°F-8.4°C 79% 6.0 mph SE9.7 kmh SE 8.0 mph12.9 kmh 30.28 in1025.4 mb 0.00 in0.0 mm 0.00 in0.0 mm 0.00 in0.0 mm
12:32 AM 22.4°F-5.3°C 16.9°F-8.4°C 79% 4.6 mph SE7.4 kmh SE 7.0 mph11.3 kmh 30.28 in1025.4 mb 0.00 in0.0 mm 0.00 in0.0 mm 0.00 in0.0 mm
12:33 AM 22.4°F-5.3°C 16.9°F-8.4°C 79% 4.5 mph SE7.2 kmh SE 5.0 mph8.0 kmh 30.28 in1025.4 mb 0.00 in0.0 mm 0.00 in0.0 mm 0.00 in0.0 mm
12:34 AM 22.4°F-5.3°C 16.9°F-8.4°C 79% 5.1 mph SE8.2 kmh SE 7.0 mph11.3 kmh 30.28 in1025.4 mb 0.00 in0.0 mm 0.00 in0.0 mm 0.00 in0.0 mm
12:35 AM 22.4°F-5.3°C 16.9°F-8.4°C 79% 5.4 mph SE8.7 kmh SE 7.0 mph11.3 kmh 30.28 in1025.4 mb 0.00 in0.0 mm 0.00 in0.0 mm 0.00 in0.0 mm
12:36 AM 22.4°F-5.3°C 16.9°F-8.4°C 79% 4.4 mph SE7.1 kmh SE 7.0 mph11.3 kmh 30.28 in1025.4 mb 0.00 in0.0 mm 0.00 in0.0 mm 0.00 in0.0 mm
12:37 AM 22.4°F-5.3°C 16.9°F-8.4°C 79% 4.1 mph SE6.6 kmh SE 6.0 mph9.7 kmh 30.28 in1025.4 mb 0.00 in0.0 mm 0.00 in0.0 mm 0.00 in0.0 mm
12:38 AM 22.4°F-5.3°C 16.9°F-8.4°C 79% 3.6 mph SE5.8 kmh SE 5.0 mph8.0 kmh 30.28 in1025.4 mb 0.00 in0.0 mm 0.00 in0.0 mm 0.00 in0.0 mm
12:39 AM 22.4°F-5.3°C 16.9°F-8.4°C 79% 4.3 mph SE6.9 kmh SE 5.0 mph8.0 kmh 30.28 in1025.4 mb 0.00 in0.0 mm 0.00 in0.0 mm 0.00 in0.0 mm
12:40 AM 22.3°F-5.4°C 16.8°F-8.4°C 79% 4.6 mph SE7.4 kmh SE 5.0 mph8.0 kmh 30.28 in1025.4 mb 0.00 in0.0 mm 0.00 in0.0 mm 0.00 in0.0 mm
12:41 AM 22.3°F-5.4°C 16.8°F-8.4°C 79% 5.3 mph SE8.5 kmh SE 7.0 mph11.3 kmh 30.28 in1025.4 mb 0.00 in0.0 mm 0.00 in0.0 mm 0.00 in0.0 mm
12:42 AM 22.3°F-5.4°C 16.8°F-8.4°C 79% 5.0 mph SE8.0 kmh SE 7.0 mph11.3 kmh 30.28 in1025.4 mb 0.00 in0.0 mm 0.00 in0.0 mm 0.00 in0.0 mm
12:43 AM 22.4°F-5.3°C 16.9°F-8.4°C 79% 4.7 mph SE7.6 kmh SE 7.0 mph11.3 kmh 30.28 in1025.4 mb 0.00 in0.0 mm 0.00 in0.0 mm 0.00 in0.0 mm
12:44 AM 22.4°F-5.3°C 16.9°F-8.4°C 79% 5.3 mph SE8.5 kmh SE 7.0 mph11.3 kmh 30.28 in1025.4 mb 0.00 in0.0 mm 0.00 in0.0 mm 0.00 in0.0 mm
12:45 AM 22.4°F-5.3°C 16.9°F-8.4°C 79% 5.2 mph SE8.4 kmh SE 7.0 mph11.3 kmh 30.28 in1025.4 mb 0.00 in0.0 mm 0.00 in0.0 mm 0.00 in0.0 mm
12:46 AM 22.3°F-5.4°C 16.8°F-8.4°C 79% 5.4 mph SE8.7 kmh SE 7.0 mph11.3 kmh 30.28 in1025.4 mb 0.00 in0.0 mm 0.00 in0.0 mm 0.00 in0.0 mm
12:47 AM 22.4°F-5.3°C 16.9°F-8.4°C 79% 5.1 mph SE8.2 kmh SE 7.0 mph11.3 kmh 30.28 in1025.4 mb 0.00 in0.0 mm 0.00 in0.0 mm 0.00 in0.0 mm
12:48 AM 22.4°F-5.3°C 16.9°F-8.4°C 79% 6.1 mph SE9.8 kmh SE 8.0 mph12.9 kmh 30.28 in1025.4 mb 0.00 in0.0 mm 0.00 in0.0 mm 0.00 in0.0 mm
12:49 AM 22.4°F-5.3°C 16.9°F-8.4°C 79% 6.0 mph SE9.7 kmh SE 8.0 mph12.9 kmh 30.28 in1025.4 mb 0.00 in0.0 mm 0.00 in0.0 mm 0.00 in0.0 mm
12:50 AM 22.4°F-5.3°C 17.2°F-8.2°C 80% 5.2 mph SE8.4 kmh SE 7.0 mph11.3 kmh 30.28 in1025.4 mb 0.00 in0.0 mm 0.00 in0.0 mm 0.00 in0.0 mm
12:51 AM 22.4°F-5.3°C 17.2°F-8.2°C 80% 4.5 mph SE7.2 kmh SE 7.0 mph11.3 kmh 30.28 in1025.4 mb 0.00 in0.0 mm 0.00 in0.0 mm 0.00 in0.0 mm
12:52 AM 22.4°F-5.3°C 17.2°F-8.2°C 80% 5.0 mph SE8.0 kmh SE 7.0 mph11.3 kmh 30.28 in1025.4 mb 0.00 in0.0 mm 0.00 in0.0 mm 0.00 in0.0 mm
12:53 AM 22.4°F-5.3°C 17.2°F-8.2°C 80% 5.1 mph SE8.2 kmh SE 7.0 mph11.3 kmh 30.28 in1025.4 mb 0.00 in0.0 mm 0.00 in0.0 mm 0.00 in0.0 mm
12:54 AM 22.5°F-5.3°C 17.3°F-8.2°C 80% 3.8 mph SE6.1 kmh SE 7.0 mph11.3 kmh 30.28 in1025.4 mb 0.00 in0.0 mm 0.00 in0.0 mm 0.00 in0.0 mm
12:55 AM 22.5°F-5.3°C 17.3°F-8.2°C 80% 3.6 mph SE5.8 kmh SE 5.0 mph8.0 kmh 30.28 in1025.4 mb 0.00 in0.0 mm 0.00 in0.0 mm 0.00 in0.0 mm
12:56 AM 22.5°F-5.3°C 17.0°F-8.3°C 79% 3.7 mph SE6.0 kmh SE 5.0 mph8.0 kmh 30.28 in1025.4 mb 0.00 in0.0 mm 0.00 in0.0 mm 0.00 in0.0 mm
12:57 AM 22.5°F-5.3°C 17.3°F-8.2°C 80% 3.0 mph ESE4.8 kmh ESE 5.0 mph8.0 kmh 30.28 in1025.4 mb 0.00 in0.0 mm 0.00 in0.0 mm 0.00 in0.0 mm
12:58 AM 22.6°F-5.2°C 17.4°F-8.1°C 80% 5.9 mph SE9.5 kmh SE 7.0 mph11.3 kmh 30.28 in1025.4 mb 0.00 in0.0 mm 0.00 in0.0 mm 0.00 in0.0 mm
12:59 AM 22.6°F-5.2°C 17.4°F-8.1°C 80% 4.6 mph SE7.4 kmh SE 7.0 mph11.3 kmh 30.28 in1025.4 mb 0.00 in0.0 mm 0.00 in0.0 mm 0.00 in0.0 mm
01:00 AM 22.6°F-5.2°C 17.4°F-8.1°C 80% 6.0 mph SE9.7 kmh SE 7.0 mph11.3 kmh 30.28 in1025.4 mb 0.00 in0.0 mm 0.00 in0.0 mm 0.00 in0.0 mm
01:01 AM 22.6°F-5.2°C 17.4°F-8.1°C 80% 5.3 mph SE8.5 kmh SE 7.0 mph11.3 kmh 30.28 in1025.4 mb 0.00 in0.0 mm 0.00 in0.0 mm 0.00 in0.0 mm
01:02 AM 22.6°F-5.2°C 17.4°F-8.1°C 80% 6.1 mph SE9.8 kmh SE 8.0 mph12.9 kmh 30.28 in1025.4 mb 0.00 in0.0 mm 0.00 in0.0 mm 0.00 in0.0 mm
01:03 AM 22.7°F-5.2°C 17.5°F-8.1°C 80% 5.7 mph SE9.2 kmh SE 8.0 mph12.9 kmh 30.28 in1025.4 mb 0.00 in0.0 mm 0.00 in0.0 mm 0.00 in0.0 mm
01:04 AM 22.7°F-5.2°C 17.5°F-8.1°C 80% 5.6 mph SE9.0 kmh SE 8.0 mph12.9 kmh 30.28 in1025.4 mb 0.00 in0.0 mm 0.00 in0.0 mm 0.00 in0.0 mm
01:05 AM 22.7°F-5.2°C 17.5°F-8.1°C 80% 6.5 mph SE10.5 kmh SE 8.0 mph12.9 kmh 30.28 in1025.4 mb 0.00 in0.0 mm 0.00 in0.0 mm 0.00 in0.0 mm
01:06 AM 22.7°F-5.2°C 17.5°F-8.1°C 80% 6.2 mph SE10.0 kmh SE 8.0 mph12.9 kmh 30.28 in1025.4 mb 0.00 in0.0 mm 0.00 in0.0 mm 0.00 in0.0 mm
01:07 AM 22.7°F-5.2°C 17.5°F-8.1°C 80% 6.5 mph SE10.5 kmh SE 8.0 mph12.9 kmh 30.28 in1025.4 mb 0.00 in0.0 mm 0.00 in0.0 mm 0.00 in0.0 mm
01:08 AM 22.7°F-5.2°C 17.5°F-8.1°C 80% 5.6 mph SE9.0 kmh SE 8.0 mph12.9 kmh 30.28 in1025.4 mb 0.00 in0.0 mm 0.00 in0.0 mm 0.00 in0.0 mm
01:09 AM 22.7°F-5.2°C 17.5°F-8.1°C 80% 5.8 mph SE9.3 kmh SE 7.0 mph11.3 kmh 30.28 in1025.4 mb 0.00 in0.0 mm 0.00 in0.0 mm 0.00 in0.0 mm
01:10 AM 22.7°F-5.2°C 17.5°F-8.1°C 80% 5.4 mph SE8.7 kmh SE 7.0 mph11.3 kmh 30.28 in1025.4 mb 0.00 in0.0 mm 0.00 in0.0 mm 0.00 in0.0 mm
01:11 AM 22.7°F-5.2°C 17.5°F-8.1°C 80% 5.0 mph SE8.0 kmh SE 7.0 mph11.3 kmh 30.28 in1025.4 mb 0.00 in0.0 mm 0.00 in0.0 mm 0.00 in0.0 mm
01:12 AM 22.7°F-5.2°C 17.5°F-8.1°C 80% 4.6 mph SE7.4 kmh SE 7.0 mph11.3 kmh 30.28 in1025.4 mb 0.00 in0.0 mm 0.00 in0.0 mm 0.00 in0.0 mm
01:13 AM 22.8°F-5.1°C 17.6°F-8.0°C 80% 5.3 mph SE8.5 kmh SE 7.0 mph11.3 kmh 30.28 in1025.4 mb 0.00 in0.0 mm 0.00 in0.0 mm 0.00 in0.0 mm
01:14 AM 22.7°F-5.2°C 17.5°F-8.1°C 80% 5.4 mph SE8.7 kmh SE 8.0 mph12.9 kmh 30.28 in1025.4 mb 0.00 in0.0 mm 0.00 in0.0 mm 0.00 in0.0 mm
01:15 AM 22.7°F-5.2°C 17.2°F-8.2°C 79% 5.5 mph SE8.9 kmh SE 8.0 mph12.9 kmh 30.28 in1025.4 mb 0.00 in0.0 mm 0.00 in0.0 mm 0.00 in0.0 mm
01:16 AM 22.7°F-5.2°C 17.2°F-8.2°C 79% 5.0 mph SE8.0 kmh SE 8.0 mph12.9 kmh 30.28 in1025.4 mb 0.00 in0.0 mm 0.00 in0.0 mm 0.00 in0.0 mm
01:17 AM 22.8°F-5.1°C 17.3°F-8.2°C 79% 5.8 mph SE9.3 kmh SE 8.0 mph12.9 kmh 30.28 in1025.4 mb 0.00 in0.0 mm 0.00 in0.0 mm 0.00 in0.0 mm
01:18 AM 22.8°F-5.1°C 17.6°F-8.0°C 80% 6.1 mph SE9.8 kmh SE 8.0 mph12.9 kmh 30.28 in1025.4 mb 0.00 in0.0 mm 0.00 in0.0 mm 0.00 in0.0 mm
01:19 AM 22.8°F-5.1°C 17.6°F-8.0°C 80% 5.0 mph SE8.0 kmh SE 8.0 mph12.9 kmh 30.28 in1025.4 mb 0.00 in0.0 mm 0.00 in0.0 mm 0.00 in0.0 mm
01:20 AM 22.8°F-5.1°C 17.6°F-8.0°C 80% 5.8 mph SE9.3 kmh SE 8.0 mph12.9 kmh 30.28 in1025.4 mb 0.00 in0.0 mm 0.00 in0.0 mm 0.00 in0.0 mm
01:21 AM 22.8°F-5.1°C 17.6°F-8.0°C 80% 5.5 mph SE8.9 kmh SE 8.0 mph12.9 kmh 30.28 in1025.4 mb 0.00 in0.0 mm 0.00 in0.0 mm 0.00 in0.0 mm
01:22 AM 22.8°F-5.1°C 17.6°F-8.0°C 80% 4.2 mph SE6.8 kmh SE 8.0 mph12.9 kmh 30.27 in1025.1 mb 0.00 in0.0 mm 0.00 in0.0 mm 0.00 in0.0 mm
01:23 AM 22.8°F-5.1°C 17.6°F-8.0°C 80% 4.3 mph SE6.9 kmh SE 7.0 mph11.3 kmh 30.28 in1025.4 mb 0.00 in0.0 mm 0.00 in0.0 mm 0.00 in0.0 mm
01:24 AM 22.8°F-5.1°C 17.6°F-8.0°C 80% 5.5 mph SE8.9 kmh SE 7.0 mph11.3 kmh 30.28 in1025.4 mb 0.00 in0.0 mm 0.00 in0.0 mm 0.00 in0.0 mm
01:25 AM 22.8°F-5.1°C 17.3°F-8.2°C 79% 4.7 mph SE7.6 kmh SE 7.0 mph11.3 kmh 30.28 in1025.4 mb 0.00 in0.0 mm 0.00 in0.0 mm 0.00 in0.0 mm
01:26 AM 22.8°F-5.1°C 17.3°F-8.2°C 79% 5.2 mph SE8.4 kmh SE 7.0 mph11.3 kmh 30.28 in1025.4 mb 0.00 in0.0 mm 0.00 in0.0 mm 0.00 in0.0 mm
01:27 AM 22.8°F-5.1°C 17.3°F-8.2°C 79% 4.9 mph SE7.9 kmh SE 7.0 mph11.3 kmh 30.28 in1025.4 mb 0.00 in0.0 mm 0.00 in0.0 mm 0.00 in0.0 mm
01:28 AM 22.8°F-5.1°C 17.3°F-8.2°C 79% 6.0 mph SE9.7 kmh SE 8.0 mph12.9 kmh 30.27 in1025.1 mb 0.00 in0.0 mm 0.00 in0.0 mm 0.00 in0.0 mm
01:29 AM 22.8°F-5.1°C 17.3°F-8.2°C 79% 5.7 mph SE9.2 kmh SE 8.0 mph12.9 kmh 30.28 in1025.4 mb 0.00 in0.0 mm 0.00 in0.0 mm 0.00 in0.0 mm
01:30 AM 22.8°F-5.1°C 17.3°F-8.2°C 79% 6.1 mph SE9.8 kmh SE 8.0 mph12.9 kmh 30.28 in1025.4 mb 0.00 in0.0 mm 0.00 in0.0 mm 0.00 in0.0 mm
01:31 AM 22.8°F-5.1°C 17.3°F-8.2°C 79% 5.4 mph SE8.7 kmh SE 8.0 mph12.9 kmh 30.28 in1025.4 mb 0.00 in0.0 mm 0.00 in0.0 mm 0.00 in0.0 mm
01:32 AM 22.7°F-5.2°C 17.2°F-8.2°C 79% 6.7 mph SE10.8 kmh SE 8.0 mph12.9 kmh 30.28 in1025.4 mb 0.00 in0.0 mm 0.00 in0.0 mm 0.00 in0.0 mm
01:33 AM 22.8°F-5.1°C 17.3°F-8.2°C 79% 4.7 mph SE7.6 kmh SE 8.0 mph12.9 kmh 30.28 in1025.4 mb 0.00 in0.0 mm 0.00 in0.0 mm 0.00 in0.0 mm
01:34 AM 22.8°F-5.1°C 17.3°F-8.2°C 79% 4.5 mph SE7.2 kmh SE 6.0 mph9.7 kmh 30.27 in1025.1 mb 0.00 in0.0 mm 0.00 in0.0 mm 0.00 in0.0 mm
01:35 AM 22.7°F-5.2°C 17.2°F-8.2°C 79% 5.0 mph SE8.0 kmh SE 8.0 mph12.9 kmh 30.27 in1025.1 mb 0.00 in0.0 mm 0.00 in0.0 mm 0.00 in0.0 mm
01:36 AM 22.7°F-5.2°C 17.2°F-8.2°C 79% 5.5 mph SE8.9 kmh SE 8.0 mph12.9 kmh 30.27 in1025.1 mb 0.00 in0.0 mm 0.00 in0.0 mm 0.00 in0.0 mm
01:37 AM 22.8°F-5.1°C 17.3°F-8.2°C 79% 5.3 mph SE8.5 kmh SE 8.0 mph12.9 kmh 30.27 in1025.1 mb 0.00 in0.0 mm 0.00 in0.0 mm 0.00 in0.0 mm
01:38 AM 22.8°F-5.1°C 17.3°F-8.2°C 79% 6.3 mph SE10.1 kmh SE 9.0 mph14.5 kmh 30.27 in1025.1 mb 0.00 in0.0 mm 0.00 in0.0 mm 0.00 in0.0 mm
01:39 AM 22.8°F-5.1°C 17.3°F-8.2°C 79% 7.6 mph SE12.2 kmh SE 9.0 mph14.5 kmh 30.27 in1025.1 mb 0.00 in0.0 mm 0.00 in0.0 mm 0.00 in0.0 mm
01:40 AM 22.8°F-5.1°C 17.3°F-8.2°C 79% 6.1 mph SE9.8 kmh SE 9.0 mph14.5 kmh 30.27 in1025.1 mb 0.00 in0.0 mm 0.00 in0.0 mm 0.00 in0.0 mm
01:41 AM 22.9°F-5.1°C 17.4°F-8.1°C 79% 7.3 mph SE11.7 kmh SE 9.0 mph14.5 kmh 30.27 in1025.1 mb 0.00 in0.0 mm 0.00 in0.0 mm 0.00 in0.0 mm
01:42 AM 22.9°F-5.1°C 17.4°F-8.1°C 79% 7.1 mph SE11.4 kmh SE 9.0 mph14.5 kmh 30.27 in1025.1 mb 0.00 in0.0 mm 0.00 in0.0 mm 0.00 in0.0 mm
01:43 AM 22.9°F-5.1°C 17.4°F-8.1°C 79% 4.4 mph SE7.1 kmh SE 8.0 mph12.9 kmh 30.27 in1025.1 mb 0.00 in0.0 mm 0.00 in0.0 mm 0.00 in0.0 mm
01:44 AM 22.9°F-5.1°C 17.4°F-8.1°C 79% 4.3 mph SE6.9 kmh SE 7.0 mph11.3 kmh 30.27 in1025.1 mb 0.00 in0.0 mm 0.00 in0.0 mm 0.00 in0.0 mm
01:45 AM 22.9°F-5.1°C 17.4°F-8.1°C 79% 3.7 mph SE6.0 kmh SE 5.0 mph8.0 kmh 30.27 in1025.1 mb 0.00 in0.0 mm 0.00 in0.0 mm 0.00 in0.0 mm
01:46 AM 22.9°F-5.1°C 17.7°F-7.9°C 80% 5.5 mph SE8.9 kmh SE 8.0 mph12.9 kmh 30.27 in1025.1 mb 0.00 in0.0 mm 0.00 in0.0 mm 0.00 in0.0 mm
01:47 AM 23.0°F-5.0°C 17.5°F-8.1°C 79% 4.6 mph SE7.4 kmh SE 8.0 mph12.9 kmh 30.27 in1025.1 mb 0.00 in0.0 mm 0.00 in0.0 mm 0.00 in0.0 mm
01:48 AM 22.9°F-5.1°C 17.7°F-7.9°C 80% 4.4 mph SE7.1 kmh SE 6.0 mph9.7 kmh 30.27 in1025.1 mb 0.00 in0.0 mm 0.00 in0.0 mm 0.00 in0.0 mm
01:49 AM 23.0°F-5.0°C 17.8°F-7.9°C 80% 4.9 mph SE7.9 kmh SE 6.0 mph9.7 kmh 30.27 in1025.1 mb 0.00 in0.0 mm 0.00 in0.0 mm 0.00 in0.0 mm
01:50 AM 23.0°F-5.0°C 17.8°F-7.9°C 80% 4.4 mph SE7.1 kmh SE 6.0 mph9.7 kmh 30.27 in1025.1 mb 0.00 in0.0 mm 0.00 in0.0 mm 0.00 in0.0 mm
01:51 AM 23.0°F-5.0°C 17.8°F-7.9°C 80% 4.6 mph SE7.4 kmh SE 6.0 mph9.7 kmh 30.27 in1025.1 mb 0.00 in0.0 mm 0.00 in0.0 mm 0.00 in0.0 mm
01:52 AM 23.1°F-4.9°C 17.9°F-7.8°C 80% 4.7 mph SE7.6 kmh SE 6.0 mph9.7 kmh 30.26 in1024.7 mb 0.00 in0.0 mm 0.00 in0.0 mm 0.00 in0.0 mm
01:53 AM 23.1°F-4.9°C 17.9°F-7.8°C 80% 5.8 mph SE9.3 kmh SE 8.0 mph12.9 kmh 30.26 in1024.7 mb 0.00 in0.0 mm 0.00 in0.0 mm 0.00 in0.0 mm
01:54 AM 23.1°F-4.9°C 17.9°F-7.8°C 80% 4.6 mph SE7.4 kmh SE 8.0 mph12.9 kmh 30.26 in1024.7 mb 0.00 in0.0 mm 0.00 in0.0 mm 0.00 in0.0 mm
01:55 AM 23.1°F-4.9°C 17.9°F-7.8°C 80% 6.2 mph SE10.0 kmh SE 8.0 mph12.9 kmh 30.26 in1024.7 mb 0.00 in0.0 mm 0.00 in0.0 mm 0.00 in0.0 mm
01:56 AM 23.2°F-4.9°C 18.0°F-7.8°C 80% 4.7 mph SE7.6 kmh SE 8.0 mph12.9 kmh 30.26 in1024.7 mb 0.00 in0.0 mm 0.00 in0.0 mm 0.00 in0.0 mm
01:57 AM 23.2°F-4.9°C 18.0°F-7.8°C 80% 3.5 mph SE5.6 kmh SE 8.0 mph12.9 kmh 30.26 in1024.7 mb 0.00 in0.0 mm 0.00 in0.0 mm 0.00 in0.0 mm
01:58 AM 23.2°F-4.9°C 18.0°F-7.8°C 80% 5.2 mph SE8.4 kmh SE 7.0 mph11.3 kmh 30.26 in1024.7 mb 0.00 in0.0 mm 0.00 in0.0 mm 0.00 in0.0 mm
01:59 AM 23.3°F-4.8°C 18.1°F-7.7°C 80% 5.5 mph SE8.9 kmh SE 8.0 mph12.9 kmh 30.26 in1024.7 mb 0.00 in0.0 mm 0.00 in0.0 mm 0.00 in0.0 mm
02:00 AM 23.3°F-4.8°C 18.1°F-7.7°C 80% 5.3 mph SE8.5 kmh SE 8.0 mph12.9 kmh 30.26 in1024.7 mb 0.00 in0.0 mm 0.00 in0.0 mm 0.00 in0.0 mm
02:01 AM 23.3°F-4.8°C 18.1°F-7.7°C 80% 4.7 mph SE7.6 kmh SE 8.0 mph12.9 kmh 30.26 in1024.7 mb 0.00 in0.0 mm 0.00 in0.0 mm 0.00 in0.0 mm
02:02 AM 23.3°F-4.8°C 18.1°F-7.7°C 80% 5.1 mph SE8.2 kmh SE 7.0 mph11.3 kmh 30.26 in1024.7 mb 0.00 in0.0 mm 0.00 in0.0 mm 0.00 in0.0 mm
02:03 AM 23.4°F-4.8°C 18.2°F-7.7°C 80% 4.6 mph SE7.4 kmh SE 7.0 mph11.3 kmh 30.26 in1024.7 mb 0.00 in0.0 mm 0.00 in0.0 mm 0.00 in0.0 mm
02:04 AM 23.4°F-4.8°C 18.2°F-7.7°C 80% 4.7 mph SE7.6 kmh SE 7.0 mph11.3 kmh 30.26 in1024.7 mb 0.00 in0.0 mm 0.00 in0.0 mm 0.00 in0.0 mm
02:05 AM 23.4°F-4.8°C 18.2°F-7.7°C 80% 4.4 mph SE7.1 kmh SE 7.0 mph11.3 kmh 30.26 in1024.7 mb 0.00 in0.0 mm 0.00 in0.0 mm 0.00 in0.0 mm
02:06 AM 23.4°F-4.8°C 18.2°F-7.7°C 80% 4.5 mph SE7.2 kmh SE 7.0 mph11.3 kmh 30.26 in1024.7 mb 0.00 in0.0 mm 0.00 in0.0 mm 0.00 in0.0 mm
02:07 AM 23.5°F-4.7°C 18.3°F-7.6°C 80% 3.9 mph SE6.3 kmh SE 6.0 mph9.7 kmh 30.25 in1024.4 mb 0.00 in0.0 mm 0.00 in0.0 mm 0.00 in0.0 mm
02:08 AM 23.5°F-4.7°C 18.3°F-7.6°C 80% 3.7 mph SE6.0 kmh SE 5.0 mph8.0 kmh 30.25 in1024.4 mb 0.00 in0.0 mm 0.00 in0.0 mm 0.00 in0.0 mm
02:09 AM 23.5°F-4.7°C 18.3°F-7.6°C 80% 4.1 mph SE6.6 kmh SE 5.0 mph8.0 kmh 30.25 in1024.4 mb 0.00 in0.0 mm 0.00 in0.0 mm 0.00 in0.0 mm
02:10 AM 23.5°F-4.7°C 18.3°F-7.6°C 80% 4.3 mph SE6.9 kmh SE 5.0 mph8.0 kmh 30.25 in1024.4 mb 0.00 in0.0 mm 0.00 in0.0 mm 0.00 in0.0 mm
02:11 AM 23.5°F-4.7°C 18.3°F-7.6°C 80% 4.9 mph SE7.9 kmh SE 7.0 mph11.3 kmh 30.25 in1024.4 mb 0.00 in0.0 mm 0.00 in0.0 mm 0.00 in0.0 mm
02:12 AM 23.5°F-4.7°C 18.3°F-7.6°C 80% 5.2 mph SE8.4 kmh SE 7.0 mph11.3 kmh 30.25 in1024.4 mb 0.00 in0.0 mm 0.00 in0.0 mm 0.00 in0.0 mm
02:13 AM 23.5°F-4.7°C 18.3°F-7.6°C 80% 4.0 mph SE6.4 kmh SE 7.0 mph11.3 kmh 30.25 in1024.4 mb 0.00 in0.0 mm 0.00 in0.0 mm 0.00 in0.0 mm
02:14 AM 23.6°F-4.7°C 18.4°F-7.6°C 80% 4.1 mph SE6.6 kmh SE 5.0 mph8.0 kmh 30.25 in1024.4 mb 0.00 in0.0 mm 0.00 in0.0 mm 0.00 in0.0 mm
02:15 AM 23.6°F-4.7°C 18.4°F-7.6°C 80% 5.6 mph SSE9.0 kmh SSE 7.0 mph11.3 kmh 30.25 in1024.4 mb 0.00 in0.0 mm 0.00 in0.0 mm 0.00 in0.0 mm
02:16 AM 23.6°F-4.7°C 18.4°F-7.6°C 80% 3.8 mph SSE6.1 kmh SSE 7.0 mph11.3 kmh 30.25 in1024.4 mb 0.00 in0.0 mm 0.00 in0.0 mm 0.00 in0.0 mm
02:17 AM 23.6°F-4.7°C 18.4°F-7.6°C 80% 3.8 mph SE6.1 kmh SE 7.0 mph11.3 kmh 30.25 in1024.4 mb 0.00 in0.0 mm 0.00 in0.0 mm 0.00 in0.0 mm
02:18 AM 23.6°F-4.7°C 18.4°F-7.6°C 80% 5.5 mph SSE8.9 kmh SSE 7.0 mph11.3 kmh 30.25 in1024.4 mb 0.00 in0.0 mm 0.00 in0.0 mm 0.00 in0.0 mm
02:19 AM 23.7°F-4.6°C 18.5°F-7.5°C 80% 3.8 mph SSE6.1 kmh SSE 7.0 mph11.3 kmh 30.25 in1024.4 mb 0.00 in0.0 mm 0.00 in0.0 mm 0.00 in0.0 mm
02:20 AM 23.7°F-4.6°C 18.5°F-7.5°C 80% 4.8 mph SE7.7 kmh SE 7.0 mph11.3 kmh 30.25 in1024.4 mb 0.00 in0.0 mm 0.00 in0.0 mm 0.00 in0.0 mm
02:21 AM 23.7°F-4.6°C 18.5°F-7.5°C 80% 6.0 mph SSE9.7 kmh SSE 8.0 mph12.9 kmh 30.25 in1024.4 mb 0.00 in0.0 mm 0.00 in0.0 mm 0.00 in0.0 mm
02:22 AM 23.8°F-4.6°C 18.5°F-7.5°C 80% 6.4 mph SE10.3 kmh SE 8.0 mph12.9 kmh 30.25 in1024.4 mb 0.00 in0.0 mm 0.00 in0.0 mm 0.00 in0.0 mm
02:23 AM 23.7°F-4.6°C 18.2°F-7.7°C 79% 5.4 mph SSE8.7 kmh SSE 8.0 mph12.9 kmh 30.25 in1024.4 mb 0.00 in0.0 mm 0.00 in0.0 mm 0.00 in0.0 mm
02:24 AM 23.8°F-4.6°C 18.3°F-7.6°C 79% 5.3 mph SSE8.5 kmh SSE 7.0 mph11.3 kmh 30.25 in1024.4 mb 0.00 in0.0 mm 0.00 in0.0 mm 0.00 in0.0 mm
02:25 AM 23.7°F-4.6°C 18.2°F-7.7°C 79% 5.0 mph SSE8.0 kmh SSE 7.0 mph11.3 kmh 30.25 in1024.4 mb 0.00 in0.0 mm 0.00 in0.0 mm 0.00 in0.0 mm
02:26 AM 23.8°F-4.6°C 18.3°F-7.6°C 79% 5.1 mph SSE8.2 kmh SSE 8.0 mph12.9 kmh 30.25 in1024.4 mb 0.00 in0.0 mm 0.00 in0.0 mm 0.00 in0.0 mm
02:27 AM 23.8°F-4.6°C 18.3°F-7.6°C 79% 3.3 mph SSE5.3 kmh SSE 8.0 mph12.9 kmh 30.25 in1024.4 mb 0.00 in0.0 mm 0.00 in0.0 mm 0.00 in0.0 mm
02:28 AM 23.8°F-4.6°C 18.3°F-7.6°C 79% 3.5 mph SSE5.6 kmh SSE 5.0 mph8.0 kmh 30.25 in1024.4 mb 0.00 in0.0 mm 0.00 in0.0 mm 0.00 in0.0 mm
02:29 AM 23.8°F-4.6°C 18.3°F-7.6°C 79% 3.2 mph SSE5.1 kmh SSE 4.0 mph6.4 kmh 30.24 in1024.0 mb 0.00 in0.0 mm 0.00 in0.0 mm 0.00 in0.0 mm
02:30 AM 23.9°F-4.5°C 18.4°F-7.6°C 79% 2.9 mph SSE4.7 kmh SSE 4.0 mph6.4 kmh 30.25 in1024.4 mb 0.00 in0.0 mm 0.00 in0.0 mm 0.00 in0.0 mm
02:31 AM 23.8°F-4.6°C 18.3°F-7.6°C 79% 3.5 mph SSE5.6 kmh SSE 5.0 mph8.0 kmh 30.24 in1024.0 mb 0.00 in0.0 mm 0.00 in0.0 mm 0.00 in0.0 mm
02:32 AM 23.9°F-4.5°C 18.4°F-7.6°C 79% 2.9 mph SSE4.7 kmh SSE 5.0 mph8.0 kmh 30.24 in1024.0 mb 0.00 in0.0 mm 0.00 in0.0 mm 0.00 in0.0 mm
02:33 AM 23.9°F-4.5°C 18.4°F-7.6°C 79% 2.5 mph SSE4.0 kmh SSE 4.0 mph6.4 kmh 30.24 in1024.0 mb 0.00 in0.0 mm 0.00 in0.0 mm 0.00 in0.0 mm
02:34 AM 23.9°F-4.5°C 18.4°F-7.6°C 79% 3.0 mph SSE4.8 kmh SSE 4.0 mph6.4 kmh 30.24 in1024.0 mb 0.00 in0.0 mm 0.00 in0.0 mm 0.00 in0.0 mm
02:35 AM 23.9°F-4.5°C 18.4°F-7.6°C 79% 2.1 mph SSE3.4 kmh SSE 4.0 mph6.4 kmh 30.24 in1024.0 mb 0.00 in0.0 mm 0.00 in0.0 mm 0.00 in0.0 mm
02:36 AM 23.9°F-4.5°C 18.4°F-7.6°C 79% 2.2 mph SSE3.5 kmh SSE 3.0 mph4.8 kmh 30.24 in1024.0 mb 0.00 in0.0 mm 0.00 in0.0 mm 0.00 in0.0 mm
02:37 AM 23.9°F-4.5°C 18.4°F-7.6°C 79% 2.2 mph SSE3.5 kmh SSE 3.0 mph4.8 kmh 30.24 in1024.0 mb 0.00 in0.0 mm 0.00 in0.0 mm 0.00 in0.0 mm
02:38 AM 23.9°F-4.5°C 18.4°F-7.6°C 79% 2.3 mph SSE3.7 kmh SSE 3.0 mph4.8 kmh 30.24 in1024.0 mb 0.00 in0.0 mm 0.00 in0.0 mm 0.00 in0.0 mm
02:39 AM 23.9°F-4.5°C 18.4°F-7.6°C 79% 2.5 mph SSE4.0 kmh SSE 3.0 mph4.8 kmh 30.24 in1024.0 mb 0.00 in0.0 mm 0.00 in0.0 mm 0.00 in0.0 mm
02:40 AM 23.9°F-4.5°C 18.4°F-7.6°C 79% 4.1 mph SE6.6 kmh SE 5.0 mph8.0 kmh 30.23 in1023.7 mb 0.00 in0.0 mm 0.00 in0.0 mm 0.00 in0.0 mm
02:41 AM 23.8°F-4.6°C 18.3°F-7.6°C 79% 4.0 mph SE6.4 kmh SE 5.0 mph8.0 kmh 30.23 in1023.7 mb 0.00 in0.0 mm 0.00 in0.0 mm 0.00 in0.0 mm
02:42 AM 23.9°F-4.5°C 18.4°F-7.6°C 79% 3.9 mph SE6.3 kmh SE 5.0 mph8.0 kmh 30.23 in1023.7 mb 0.00 in0.0 mm 0.00 in0.0 mm 0.00 in0.0 mm
02:43 AM 23.9°F-4.5°C 18.4°F-7.6°C 79% 4.0 mph SE6.4 kmh SE 5.0 mph8.0 kmh 30.23 in1023.7 mb 0.00 in0.0 mm 0.00 in0.0 mm 0.00 in0.0 mm
02:44 AM 23.9°F-4.5°C 18.4°F-7.6°C 79% 2.7 mph SSE4.3 kmh SSE 5.0 mph8.0 kmh 30.23 in1023.7 mb 0.00 in0.0 mm 0.00 in0.0 mm 0.00 in0.0 mm
02:45 AM 23.9°F-4.5°C 18.4°F-7.6°C 79% 3.3 mph SSE5.3 kmh SSE 5.0 mph8.0 kmh 30.23 in1023.7 mb 0.00 in0.0 mm 0.00 in0.0 mm 0.00 in0.0 mm
02:46 AM 23.9°F-4.5°C 18.4°F-7.6°C 79% 2.2 mph SSE3.5 kmh SSE 5.0 mph8.0 kmh 30.23 in1023.7 mb 0.00 in0.0 mm 0.00 in0.0 mm 0.00 in0.0 mm
02:47 AM 23.9°F-4.5°C 18.4°F-7.6°C 79% 1.6 mph SSE2.6 kmh SSE 4.0 mph6.4 kmh 30.23 in1023.7 mb 0.00 in0.0 mm 0.00 in0.0 mm 0.00 in0.0 mm
02:48 AM 23.8°F-4.6°C 18.3°F-7.6°C 79% 2.5 mph SSE4.0 kmh SSE 4.0 mph6.4 kmh 30.23 in1023.7 mb 0.00 in0.0 mm 0.00 in0.0 mm 0.00 in0.0 mm
02:49 AM 23.8°F-4.6°C 18.3°F-7.6°C 79% 2.6 mph SSE4.2 kmh SSE 5.0 mph8.0 kmh 30.23 in1023.7 mb 0.00 in0.0 mm 0.00 in0.0 mm 0.00 in0.0 mm
02:50 AM 23.8°F-4.6°C 18.3°F-7.6°C 79% 2.5 mph SSE4.0 kmh SSE 5.0 mph8.0 kmh 30.23 in1023.7 mb 0.00 in0.0 mm 0.00 in0.0 mm 0.00 in0.0 mm
02:51 AM 23.8°F-4.6°C 18.3°F-7.6°C 79% 2.2 mph SSE3.5 kmh SSE 4.0 mph6.4 kmh 30.23 in1023.7 mb 0.00 in0.0 mm 0.00 in0.0 mm 0.00 in0.0 mm
02:52 AM 23.7°F-4.6°C 18.2°F-7.7°C 79% 2.7 mph SSE4.3 kmh SSE 4.0 mph6.4 kmh 30.23 in1023.7 mb 0.00 in0.0 mm 0.00 in0.0 mm 0.00 in0.0 mm
02:53 AM 23.8°F-4.6°C 18.3°F-7.6°C 79% 3.1 mph SSE5.0 kmh SSE 5.0 mph8.0 kmh 30.23 in1023.7 mb 0.00 in0.0 mm 0.00 in0.0 mm 0.00 in0.0 mm
02:54 AM 23.7°F-4.6°C 18.2°F-7.7°C 79% 3.1 mph SSE5.0 kmh SSE 5.0 mph8.0 kmh 30.22 in1023.4 mb 0.00 in0.0 mm 0.00 in0.0 mm 0.00 in0.0 mm
02:55 AM 23.8°F-4.6°C 18.3°F-7.6°C 79% 2.9 mph SSE4.7 kmh SSE 5.0 mph8.0 kmh 30.22 in1023.4 mb 0.00 in0.0 mm 0.00 in0.0 mm 0.00 in0.0 mm
02:56 AM 23.8°F-4.6°C 18.3°F-7.6°C 79% 2.9 mph SSE4.7 kmh SSE 5.0 mph8.0 kmh 30.22 in1023.4 mb 0.00 in0.0 mm 0.00 in0.0 mm 0.00 in0.0 mm
02:57 AM 23.7°F-4.6°C 18.2°F-7.7°C 79% 4.4 mph SSE7.1 kmh SSE 6.0 mph9.7 kmh 30.22 in1023.4 mb 0.00 in0.0 mm 0.00 in0.0 mm 0.00 in0.0 mm
02:58 AM 23.8°F-4.6°C 18.3°F-7.6°C 79% 3.1 mph SSE5.0 kmh SSE 6.0 mph9.7 kmh 30.22 in1023.4 mb 0.00 in0.0 mm 0.00 in0.0 mm 0.00 in0.0 mm
02:59 AM 23.8°F-4.6°C 18.3°F-7.6°C 79% 2.8 mph SSE4.5 kmh SSE 4.0 mph6.4 kmh 30.22 in1023.4 mb 0.00 in0.0 mm 0.00 in0.0 mm 0.00 in0.0 mm
03:00 AM 23.7°F-4.6°C 18.2°F-7.7°C 79% 2.5 mph SSE4.0 kmh SSE 4.0 mph6.4 kmh 30.22 in1023.4 mb 0.00 in0.0 mm 0.00 in0.0 mm 0.00 in0.0 mm
03:01 AM 23.8°F-4.6°C 18.3°F-7.6°C 79% 2.8 mph SSE4.5 kmh SSE 3.0 mph4.8 kmh 30.22 in1023.4 mb 0.00 in0.0 mm 0.00 in0.0 mm 0.00 in0.0 mm
03:02 AM 23.8°F-4.6°C 18.3°F-7.6°C 79% 2.8 mph SSE4.5 kmh SSE 3.0 mph4.8 kmh 30.22 in1023.4 mb 0.00 in0.0 mm 0.00 in0.0 mm 0.00 in0.0 mm
03:03 AM 23.8°F-4.6°C 18.3°F-7.6°C 79% 3.5 mph SSE5.6 kmh SSE 4.0 mph6.4 kmh 30.22 in1023.4 mb 0.00 in0.0 mm 0.00 in0.0 mm 0.00 in0.0 mm
03:04 AM 23.7°F-4.6°C 18.2°F-7.7°C 79% 3.3 mph SSE5.3 kmh SSE 4.0 mph6.4 kmh 30.22 in1023.4 mb 0.00 in0.0 mm 0.00 in0.0 mm 0.00 in0.0 mm
03:05 AM 23.7°F-4.6°C 18.2°F-7.7°C 79% 3.5 mph SSE5.6 kmh SSE 5.0 mph8.0 kmh 30.22 in1023.4 mb 0.00 in0.0 mm 0.00 in0.0 mm 0.00 in0.0 mm
03:06 AM 23.7°F-4.6°C 18.2°F-7.7°C 79% 2.9 mph SSE4.7 kmh SSE 5.0 mph8.0 kmh 30.22 in1023.4 mb 0.00 in0.0 mm 0.00 in0.0 mm 0.00 in0.0 mm
03:07 AM 23.7°F-4.6°C 18.2°F-7.7°C 79% 2.5 mph SSE4.0 kmh SSE 5.0 mph8.0 kmh 30.22 in1023.4 mb 0.00 in0.0 mm 0.00 in0.0 mm 0.00 in0.0 mm
03:08 AM 23.7°F-4.6°C 18.2°F-7.7°C 79% 2.2 mph SSE3.5 kmh SSE 3.0 mph4.8 kmh 30.22 in1023.4 mb 0.00 in0.0 mm 0.00 in0.0 mm 0.00 in0.0 mm
03:09 AM 23.7°F-4.6°C 18.2°F-7.7°C 79% 2.4 mph SSE3.9 kmh SSE 3.0 mph4.8 kmh 30.22 in1023.4 mb 0.00 in0.0 mm 0.00 in0.0 mm 0.00 in0.0 mm
03:10 AM 23.7°F-4.6°C 18.2°F-7.7°C 79% 3.6 mph SSE5.8 kmh SSE 5.0 mph8.0 kmh 30.21 in1023.0 mb 0.00 in0.0 mm 0.00 in0.0 mm 0.00 in0.0 mm
03:11 AM 23.7°F-4.6°C 18.2°F-7.7°C 79% 2.7 mph SSE4.3 kmh SSE 5.0 mph8.0 kmh 30.21 in1023.0 mb 0.00 in0.0 mm 0.00 in0.0 mm 0.00 in0.0 mm
03:12 AM 23.7°F-4.6°C 18.2°F-7.7°C 79% 3.4 mph SSE5.5 kmh SSE 5.0 mph8.0 kmh 30.21 in1023.0 mb 0.00 in0.0 mm 0.00 in0.0 mm 0.00 in0.0 mm
03:13 AM 23.7°F-4.6°C 18.2°F-7.7°C 79% 3.6 mph SSE5.8 kmh SSE 5.0 mph8.0 kmh 30.21 in1023.0 mb 0.00 in0.0 mm 0.00 in0.0 mm 0.00 in0.0 mm
03:14 AM 23.7°F-4.6°C 18.2°F-7.7°C 79% 2.6 mph SSE4.2 kmh SSE 5.0 mph8.0 kmh 30.21 in1023.0 mb 0.00 in0.0 mm 0.00 in0.0 mm 0.00 in0.0 mm
03:15 AM 23.7°F-4.6°C 18.2°F-7.7°C 79% 3.5 mph SSE5.6 kmh SSE 4.0 mph6.4 kmh 30.21 in1023.0 mb 0.00 in0.0 mm 0.00 in0.0 mm 0.00 in0.0 mm
03:16 AM 23.7°F-4.6°C 18.2°F-7.7°C 79% 3.6 mph SSE5.8 kmh SSE 4.0 mph6.4 kmh 30.21 in1023.0 mb 0.00 in0.0 mm 0.00 in0.0 mm 0.00 in0.0 mm
03:17 AM 23.7°F-4.6°C 18.2°F-7.7°C 79% 4.2 mph SSE6.8 kmh SSE 6.0 mph9.7 kmh 30.21 in1023.0 mb 0.00 in0.0 mm 0.00 in0.0 mm 0.00 in0.0 mm
03:18 AM 23.7°F-4.6°C 18.2°F-7.7°C 79% 3.6 mph SSE5.8 kmh SSE 6.0 mph9.7 kmh 30.21 in1023.0 mb 0.00 in0.0 mm 0.00 in0.0 mm 0.00 in0.0 mm
03:19 AM 23.7°F-4.6°C 18.2°F-7.7°C 79% 3.9 mph SSE6.3 kmh SSE 5.0 mph8.0 kmh 30.21 in1023.0 mb 0.00 in0.0 mm 0.00 in0.0 mm 0.00 in0.0 mm
03:20 AM 23.7°F-4.6°C 18.2°F-7.7°C 79% 2.8 mph SSE4.5 kmh SSE 5.0 mph8.0 kmh 30.21 in1023.0 mb 0.00 in0.0 mm 0.00 in0.0 mm 0.00 in0.0 mm
03:21 AM 23.7°F-4.6°C 18.2°F-7.7°C 79% 2.9 mph SSE4.7 kmh SSE 4.0 mph6.4 kmh 30.21 in1023.0 mb 0.00 in0.0 mm 0.00 in0.0 mm 0.00 in0.0 mm
03:22 AM 23.7°F-4.6°C 18.2°F-7.7°C 79% 2.3 mph SSE3.7 kmh SSE 4.0 mph6.4 kmh 30.21 in1023.0 mb 0.00 in0.0 mm 0.00 in0.0 mm 0.00 in0.0 mm
03:23 AM 23.7°F-4.6°C 18.2°F-7.7°C 79% 3.1 mph SSE5.0 kmh SSE 4.0 mph6.4 kmh 30.21 in1023.0 mb 0.00 in0.0 mm 0.00 in0.0 mm 0.00 in0.0 mm
03:24 AM 23.7°F-4.6°C 18.2°F-7.7°C 79% 2.9 mph SSE4.7 kmh SSE 4.0 mph6.4 kmh 30.21 in1023.0 mb 0.00 in0.0 mm 0.00 in0.0 mm 0.00 in0.0 mm
03:25 AM 23.7°F-4.6°C 18.2°F-7.7°C 79% 1.7 mph SSE2.7 kmh SSE 3.0 mph4.8 kmh 30.21 in1023.0 mb 0.00 in0.0 mm 0.00 in0.0 mm 0.00 in0.0 mm
03:26 AM 23.8°F-4.6°C 18.3°F-7.6°C 79% 2.1 mph SSE3.4 kmh SSE 3.0 mph4.8 kmh 30.21 in1023.0 mb 0.00 in0.0 mm 0.00 in0.0 mm 0.00 in0.0 mm
03:27 AM 23.8°F-4.6°C 18.3°F-7.6°C 79% 2.9 mph SSE4.7 kmh SSE 4.0 mph6.4 kmh 30.21 in1023.0 mb 0.00 in0.0 mm 0.00 in0.0 mm 0.00 in0.0 mm
03:28 AM 23.8°F-4.6°C 18.3°F-7.6°C 79% 2.5 mph SSE4.0 kmh SSE 4.0 mph6.4 kmh 30.20 in1022.7 mb 0.00 in0.0 mm 0.00 in0.0 mm 0.00 in0.0 mm
03:29 AM 23.8°F-4.6°C 18.3°F-7.6°C 79% 2.7 mph SSE4.3 kmh SSE 4.0 mph6.4 kmh 30.20 in1022.7 mb 0.00 in0.0 mm 0.00 in0.0 mm 0.00 in0.0 mm
03:30 AM 23.8°F-4.6°C 18.5°F-7.5°C 80% 3.3 mph SSE5.3 kmh SSE 4.0 mph6.4 kmh 30.20 in1022.7 mb 0.00 in0.0 mm 0.00 in0.0 mm 0.00 in0.0 mm
03:31 AM 23.8°F-4.6°C 18.5°F-7.5°C 80% 3.9 mph SSE6.3 kmh SSE 5.0 mph8.0 kmh 30.20 in1022.7 mb 0.00 in0.0 mm 0.00 in0.0 mm 0.00 in0.0 mm
03:32 AM 23.8°F-4.6°C 18.5°F-7.5°C 80% 3.5 mph SSE5.6 kmh SSE 5.0 mph8.0 kmh 30.20 in1022.7 mb 0.00 in0.0 mm 0.00 in0.0 mm 0.00 in0.0 mm
03:33 AM 23.8°F-4.6°C 18.5°F-7.5°C 80% 3.6 mph SSE5.8 kmh SSE 4.0 mph6.4 kmh 30.20 in1022.7 mb 0.00 in0.0 mm 0.00 in0.0 mm 0.00 in0.0 mm
03:34 AM 23.8°F-4.6°C 18.5°F-7.5°C 80% 3.2 mph SSE5.1 kmh SSE 4.0 mph6.4 kmh 30.20 in1022.7 mb 0.00 in0.0 mm 0.00 in0.0 mm 0.00 in0.0 mm
03:35 AM 23.8°F-4.6°C 18.5°F-7.5°C 80% 3.5 mph SSE5.6 kmh SSE 5.0 mph8.0 kmh 30.20 in1022.7 mb 0.00 in0.0 mm 0.00 in0.0 mm 0.00 in0.0 mm
03:36 AM 23.8°F-4.6°C 18.5°F-7.5°C 80% 4.0 mph SSE6.4 kmh SSE 5.0 mph8.0 kmh 30.20 in1022.7 mb 0.00 in0.0 mm 0.00 in0.0 mm 0.00 in0.0 mm
03:37 AM 23.8°F-4.6°C 18.5°F-7.5°C 80% 3.1 mph SSE5.0 kmh SSE 5.0 mph8.0 kmh 30.20 in1022.7 mb 0.00 in0.0 mm 0.00 in0.0 mm 0.00 in0.0 mm
03:38 AM 23.8°F-4.6°C 18.5°F-7.5°C 80% 3.7 mph SSE6.0 kmh SSE 5.0 mph8.0 kmh 30.20 in1022.7 mb 0.00 in0.0 mm 0.00 in0.0 mm 0.00 in0.0 mm
03:39 AM 23.8°F-4.6°C 18.5°F-7.5°C 80% 2.8 mph SSE4.5 kmh SSE 5.0 mph8.0 kmh 30.20 in1022.7 mb 0.00 in0.0 mm 0.00 in0.0 mm 0.00 in0.0 mm
03:40 AM 23.8°F-4.6°C 18.5°F-7.5°C 80% 2.9 mph SSE4.7 kmh SSE 4.0 mph6.4 kmh 30.20 in1022.7 mb 0.00 in0.0 mm 0.00 in0.0 mm 0.00 in0.0 mm
03:41 AM 23.8°F-4.6°C 18.5°F-7.5°C 80% 3.4 mph SSE5.5 kmh SSE 4.0 mph6.4 kmh 30.20 in1022.7 mb 0.00 in0.0 mm 0.00 in0.0 mm 0.00 in0.0 mm
03:42 AM 23.9°F-4.5°C 18.6°F-7.4°C 80% 3.0 mph SSE4.8 kmh SSE 4.0 mph6.4 kmh 30.20 in1022.7 mb 0.00 in0.0 mm 0.00 in0.0 mm 0.00 in0.0 mm
03:43 AM 23.8°F-4.6°C 18.5°F-7.5°C 80% 2.9 mph SSE4.7 kmh SSE 4.0 mph6.4 kmh 30.20 in1022.7 mb 0.00 in0.0 mm 0.00 in0.0 mm 0.00 in0.0 mm
03:44 AM 23.8°F-4.6°C 18.5°F-7.5°C 80% 2.7 mph SSE4.3 kmh SSE 4.0 mph6.4 kmh 30.20 in1022.7 mb 0.00 in0.0 mm 0.00 in0.0 mm 0.00 in0.0 mm
03:45 AM 23.9°F-4.5°C 18.6°F-7.4°C 80% 2.9 mph SSE4.7 kmh SSE 4.0 mph6.4 kmh 30.20 in1022.7 mb 0.00 in0.0 mm 0.00 in0.0 mm 0.00 in0.0 mm
03:46 AM 23.9°F-4.5°C 18.6°F-7.4°C 80% 3.4 mph SSE5.5 kmh SSE 4.0 mph6.4 kmh 30.20 in1022.7 mb 0.00 in0.0 mm 0.00 in0.0 mm 0.00 in0.0 mm
03:47 AM 23.9°F-4.5°C 18.6°F-7.4°C 80% 3.2 mph SSE5.1 kmh SSE 4.0 mph6.4 kmh 30.20 in1022.7 mb 0.00 in0.0 mm 0.00 in0.0 mm 0.00 in0.0 mm
03:48 AM 23.9°F-4.5°C 18.6°F-7.4°C 80% 3.9 mph SSE6.3 kmh SSE 4.0 mph6.4 kmh 30.20 in1022.7 mb 0.00 in0.0 mm 0.00 in0.0 mm 0.00 in0.0 mm
03:49 AM 23.9°F-4.5°C 18.6°F-7.4°C 80% 3.6 mph SSE5.8 kmh SSE 5.0 mph8.0 kmh 30.20 in1022.7 mb 0.00 in0.0 mm 0.00 in0.0 mm 0.00 in0.0 mm
03:50 AM 23.9°F-4.5°C 18.6°F-7.4°C 80% 3.3 mph SSE5.3 kmh SSE 5.0 mph8.0 kmh 30.20 in1022.7 mb 0.00 in0.0 mm 0.00 in0.0 mm 0.00 in0.0 mm
03:51 AM 23.9°F-4.5°C 18.6°F-7.4°C 80% 3.2 mph SSE5.1 kmh SSE 4.0 mph6.4 kmh 30.20 in1022.7 mb 0.00 in0.0 mm 0.00 in0.0 mm 0.00 in0.0 mm
03:52 AM 23.9°F-4.5°C 18.6°F-7.4°C 80% 3.9 mph SSE6.3 kmh SSE 5.0 mph8.0 kmh 30.20 in1022.7 mb 0.00 in0.0 mm 0.00 in0.0 mm 0.00 in0.0 mm
03:53 AM 24.0°F-4.4°C 18.7°F-7.4°C 80% 4.3 mph SE6.9 kmh SE 5.0 mph8.0 kmh 30.20 in1022.7 mb 0.00 in0.0 mm 0.00 in0.0 mm 0.00 in0.0 mm
03:54 AM 24.0°F-4.4°C 18.7°F-7.4°C 80% 4.3 mph SE6.9 kmh SE 5.0 mph8.0 kmh 30.20 in1022.7 mb 0.00 in0.0 mm 0.00 in0.0 mm 0.00 in0.0 mm
03:55 AM 24.0°F-4.4°C 18.7°F-7.4°C 80% 4.1 mph SE6.6 kmh SE 5.0 mph8.0 kmh 30.20 in1022.7 mb 0.00 in0.0 mm 0.00 in0.0 mm 0.00 in0.0 mm
03:56 AM 24.0°F-4.4°C 18.7°F-7.4°C 80% 4.2 mph SE6.8 kmh SE 5.0 mph8.0 kmh 30.20 in1022.7 mb 0.00 in0.0 mm 0.00 in0.0 mm 0.00 in0.0 mm
03:57 AM 24.0°F-4.4°C 18.7°F-7.4°C 80% 4.0 mph SE6.4 kmh SE 5.0 mph8.0 kmh 30.20 in1022.7 mb 0.00 in0.0 mm 0.00 in0.0 mm 0.00 in0.0 mm
03:58 AM 24.0°F-4.4°C 18.7°F-7.4°C 80% 4.2 mph SE6.8 kmh SE 5.0 mph8.0 kmh 30.20 in1022.7 mb 0.00 in0.0 mm 0.00 in0.0 mm 0.00 in0.0 mm
03:59 AM 24.0°F-4.4°C 18.7°F-7.4°C 80% 4.0 mph SE6.4 kmh SE 5.0 mph8.0 kmh 30.20 in1022.7 mb 0.00 in0.0 mm 0.00 in0.0 mm 0.00 in0.0 mm
04:00 AM 24.0°F-4.4°C 18.7°F-7.4°C 80% 4.0 mph SE6.4 kmh SE 5.0 mph8.0 kmh 30.20 in1022.7 mb 0.00 in0.0 mm 0.00 in0.0 mm 0.00 in0.0 mm
04:01 AM 24.0°F-4.4°C 18.7°F-7.4°C 80% 3.5 mph SE5.6 kmh SE 5.0 mph8.0 kmh 30.20 in1022.7 mb 0.00 in0.0 mm 0.00 in0.0 mm 0.00 in0.0 mm
04:02 AM 24.1°F-4.4°C 18.8°F-7.3°C 80% 3.3 mph SE5.3 kmh SE 4.0 mph6.4 kmh 30.20 in1022.7 mb 0.00 in0.0 mm 0.00 in0.0 mm 0.00 in0.0 mm
04:03 AM 24.0°F-4.4°C 18.7°F-7.4°C 80% 3.5 mph SE5.6 kmh SE 5.0 mph8.0 kmh 30.19 in1022.4 mb 0.00 in0.0 mm 0.00 in0.0 mm 0.00 in0.0 mm
04:04 AM 24.0°F-4.4°C 18.7°F-7.4°C 80% 4.6 mph SE7.4 kmh SE 7.0 mph11.3 kmh 30.19 in1022.4 mb 0.00 in0.0 mm 0.00 in0.0 mm 0.00 in0.0 mm
04:05 AM 24.0°F-4.4°C 19.0°F-7.2°C 81% 4.3 mph SE6.9 kmh SE 7.0 mph11.3 kmh 30.19 in1022.4 mb 0.00 in0.0 mm 0.00 in0.0 mm 0.00 in0.0 mm
04:06 AM 24.0°F-4.4°C 19.0°F-7.2°C 81% 5.1 mph SE8.2 kmh SE 7.0 mph11.3 kmh 30.19 in1022.4 mb 0.00 in0.0 mm 0.00 in0.0 mm 0.00 in0.0 mm
04:07 AM 24.0°F-4.4°C 19.0°F-7.2°C 81% 5.1 mph SE8.2 kmh SE 7.0 mph11.3 kmh 30.19 in1022.4 mb 0.00 in0.0 mm 0.00 in0.0 mm 0.00 in0.0 mm
04:08 AM 24.0°F-4.4°C 19.0°F-7.2°C 81% 4.8 mph SE7.7 kmh SE 7.0 mph11.3 kmh 30.19 in1022.4 mb 0.00 in0.0 mm 0.00 in0.0 mm 0.00 in0.0 mm
04:09 AM 24.0°F-4.4°C 19.0°F-7.2°C 81% 3.9 mph SE6.3 kmh SE 7.0 mph11.3 kmh 30.19 in1022.4 mb 0.00 in0.0 mm 0.00 in0.0 mm 0.00 in0.0 mm
04:10 AM 24.0°F-4.4°C 19.0°F-7.2°C 81% 5.0 mph SE8.0 kmh SE 7.0 mph11.3 kmh 30.19 in1022.4 mb 0.00 in0.0 mm 0.00 in0.0 mm 0.00 in0.0 mm
04:11 AM 24.0°F-4.4°C 19.0°F-7.2°C 81% 4.7 mph SE7.6 kmh SE 7.0 mph11.3 kmh 30.19 in1022.4 mb 0.00 in0.0 mm 0.00 in0.0 mm 0.00 in0.0 mm
04:12 AM 24.0°F-4.4°C 19.0°F-7.2°C 81% 4.3 mph SE6.9 kmh SE 7.0 mph11.3 kmh 30.19 in1022.4 mb 0.00 in0.0 mm 0.00 in0.0 mm 0.00 in0.0 mm
04:13 AM 24.0°F-4.4°C 19.0°F-7.2°C 81% 4.7 mph SE7.6 kmh SE 7.0 mph11.3 kmh 30.19 in1022.4 mb 0.00 in0.0 mm 0.00 in0.0 mm 0.00 in0.0 mm
04:14 AM 24.0°F-4.4°C 19.0°F-7.2°C 81% 4.8 mph SE7.7 kmh SE 7.0 mph11.3 kmh 30.19 in1022.4 mb 0.00 in0.0 mm 0.00 in0.0 mm 0.00 in0.0 mm
04:15 AM 24.0°F-4.4°C 19.0°F-7.2°C 81% 5.0 mph SE8.0 kmh SE 7.0 mph11.3 kmh 30.19 in1022.4 mb 0.00 in0.0 mm 0.00 in0.0 mm 0.00 in0.0 mm
04:16 AM 24.0°F-4.4°C 19.0°F-7.2°C 81% 4.2 mph SE6.8 kmh SE 7.0 mph11.3 kmh 30.19 in1022.4 mb 0.00 in0.0 mm 0.00 in0.0 mm 0.00 in0.0 mm
04:17 AM 24.0°F-4.4°C 19.0°F-7.2°C 81% 3.9 mph SE6.3 kmh SE 5.0 mph8.0 kmh 30.19 in1022.4 mb 0.00 in0.0 mm 0.00 in0.0 mm 0.00 in0.0 mm
04:18 AM 24.0°F-4.4°C 19.0°F-7.2°C 81% 4.4 mph SE7.1 kmh SE 5.0 mph8.0 kmh 30.19 in1022.4 mb 0.00 in0.0 mm 0.00 in0.0 mm 0.00 in0.0 mm
04:19 AM 24.0°F-4.4°C 19.0°F-7.2°C 81% 4.1 mph SE6.6 kmh SE 7.0 mph11.3 kmh 30.19 in1022.4 mb 0.00 in0.0 mm 0.00 in0.0 mm 0.00 in0.0 mm
04:20 AM 24.0°F-4.4°C 19.0°F-7.2°C 81% 4.4 mph SE7.1 kmh SE 7.0 mph11.3 kmh 30.19 in1022.4 mb 0.00 in0.0 mm 0.00 in0.0 mm 0.00 in0.0 mm
04:21 AM 24.0°F-4.4°C 19.0°F-7.2°C 81% 4.9 mph SE7.9 kmh SE 8.0 mph12.9 kmh 30.19 in1022.4 mb 0.00 in0.0 mm 0.00 in0.0 mm 0.00 in0.0 mm
04:22 AM 24.0°F-4.4°C 19.0°F-7.2°C 81% 4.9 mph SE7.9 kmh SE 8.0 mph12.9 kmh 30.19 in1022.4 mb 0.00 in0.0 mm 0.00 in0.0 mm 0.00 in0.0 mm
04:23 AM 24.0°F-4.4°C 19.0°F-7.2°C 81% 3.7 mph SE6.0 kmh SE 7.0 mph11.3 kmh 30.19 in1022.4 mb 0.00 in0.0 mm 0.00 in0.0 mm 0.00 in0.0 mm
04:24 AM 24.1°F-4.4°C 19.1°F-7.2°C 81% 3.7 mph SE6.0 kmh SE 5.0 mph8.0 kmh 30.18 in1022.0 mb 0.00 in0.0 mm 0.00 in0.0 mm 0.00 in0.0 mm
04:25 AM 24.0°F-4.4°C 19.0°F-7.2°C 81% 3.9 mph SE6.3 kmh SE 5.0 mph8.0 kmh 30.18 in1022.0 mb 0.00 in0.0 mm 0.00 in0.0 mm 0.00 in0.0 mm
04:26 AM 24.0°F-4.4°C 19.0°F-7.2°C 81% 4.1 mph SE6.6 kmh SE 5.0 mph8.0 kmh 30.18 in1022.0 mb 0.00 in0.0 mm 0.00 in0.0 mm 0.00 in0.0 mm
04:27 AM 24.0°F-4.4°C 19.0°F-7.2°C 81% 3.8 mph SE6.1 kmh SE 5.0 mph8.0 kmh 30.18 in1022.0 mb 0.00 in0.0 mm 0.00 in0.0 mm 0.00 in0.0 mm
04:28 AM 24.0°F-4.4°C 19.0°F-7.2°C 81% 3.7 mph SE6.0 kmh SE 5.0 mph8.0 kmh 30.18 in1022.0 mb 0.00 in0.0 mm 0.00 in0.0 mm 0.00 in0.0 mm
04:29 AM 24.0°F-4.4°C 19.0°F-7.2°C 81% 3.4 mph SE5.5 kmh SE 5.0 mph8.0 kmh 30.18 in1022.0 mb 0.00 in0.0 mm 0.00 in0.0 mm 0.00 in0.0 mm
04:30 AM 24.0°F-4.4°C 19.0°F-7.2°C 81% 3.5 mph SE5.6 kmh SE 5.0 mph8.0 kmh 30.18 in1022.0 mb 0.00 in0.0 mm 0.00 in0.0 mm 0.00 in0.0 mm
04:31 AM 24.0°F-4.4°C 19.0°F-7.2°C 81% 3.4 mph SE5.5 kmh SE 4.0 mph6.4 kmh 30.18 in1022.0 mb 0.00 in0.0 mm 0.00 in0.0 mm 0.00 in0.0 mm
04:32 AM 24.0°F-4.4°C 19.0°F-7.2°C 81% 3.2 mph SE5.1 kmh SE 4.0 mph6.4 kmh 30.18 in1022.0 mb 0.00 in0.0 mm 0.00 in0.0 mm 0.00 in0.0 mm
04:33 AM 24.0°F-4.4°C 19.0°F-7.2°C 81% 2.5 mph SE4.0 kmh SE 4.0 mph6.4 kmh 30.18 in1022.0 mb 0.00 in0.0 mm 0.00 in0.0 mm 0.00 in0.0 mm
04:34 AM 24.0°F-4.4°C 19.0°F-7.2°C 81% 3.1 mph SE5.0 kmh SE 4.0 mph6.4 kmh 30.18 in1022.0 mb 0.00 in0.0 mm 0.00 in0.0 mm 0.00 in0.0 mm
04:35 AM 24.0°F-4.4°C 19.0°F-7.2°C 81% 4.4 mph SE7.1 kmh SE 5.0 mph8.0 kmh 30.18 in1022.0 mb 0.00 in0.0 mm 0.00 in0.0 mm 0.00 in0.0 mm
04:36 AM 24.0°F-4.4°C 19.0°F-7.2°C 81% 3.7 mph SE6.0 kmh SE 5.0 mph8.0 kmh 30.18 in1022.0 mb 0.00 in0.0 mm 0.00 in0.0 mm 0.00 in0.0 mm
04:37 AM 24.0°F-4.4°C 19.3°F-7.1°C 82% 4.4 mph SE7.1 kmh SE 7.0 mph11.3 kmh 30.18 in1022.0 mb 0.00 in0.0 mm 0.00 in0.0 mm 0.00 in0.0 mm
04:38 AM 24.1°F-4.4°C 19.4°F-7.0°C 82% 4.8 mph SE7.7 kmh SE 7.0 mph11.3 kmh 30.18 in1022.0 mb 0.00 in0.0 mm 0.00 in0.0 mm 0.00 in0.0 mm
04:39 AM 24.0°F-4.4°C 19.3°F-7.1°C 82% 6.1 mph SE9.8 kmh SE 7.0 mph11.3 kmh 30.18 in1022.0 mb 0.00 in0.0 mm 0.00 in0.0 mm 0.00 in0.0 mm
04:40 AM 24.1°F-4.4°C 19.4°F-7.0°C 82% 5.5 mph SE8.9 kmh SE 7.0 mph11.3 kmh 30.18 in1022.0 mb 0.00 in0.0 mm 0.00 in0.0 mm 0.00 in0.0 mm
04:41 AM 24.2°F-4.3°C 19.5°F-6.9°C 82% 3.5 mph SE5.6 kmh SE 7.0 mph11.3 kmh 30.18 in1022.0 mb 0.00 in0.0 mm 0.00 in0.0 mm 0.00 in0.0 mm
04:42 AM 24.2°F-4.3°C 19.5°F-6.9°C 82% 3.1 mph SE5.0 kmh SE 5.0 mph8.0 kmh 30.18 in1022.0 mb 0.00 in0.0 mm 0.00 in0.0 mm 0.00 in0.0 mm
04:43 AM 24.2°F-4.3°C 19.5°F-6.9°C 82% 4.3 mph SE6.9 kmh SE 6.0 mph9.7 kmh 30.18 in1022.0 mb 0.00 in0.0 mm 0.00 in0.0 mm 0.00 in0.0 mm
04:44 AM 24.2°F-4.3°C 19.5°F-6.9°C 82% 4.5 mph SE7.2 kmh SE 6.0 mph9.7 kmh 30.18 in1022.0 mb 0.00 in0.0 mm 0.00 in0.0 mm 0.00 in0.0 mm
04:45 AM 24.2°F-4.3°C 19.5°F-6.9°C 82% 4.9 mph SE7.9 kmh SE 7.0 mph11.3 kmh 30.18 in1022.0 mb 0.00 in0.0 mm 0.00 in0.0 mm 0.00 in0.0 mm
04:46 AM 24.1°F-4.4°C 19.4°F-7.0°C 82% 4.9 mph SE7.9 kmh SE 7.0 mph11.3 kmh 30.18 in1022.0 mb 0.00 in0.0 mm 0.00 in0.0 mm 0.00 in0.0 mm
04:47 AM 24.2°F-4.3°C 19.5°F-6.9°C 82% 3.6 mph SE5.8 kmh SE 7.0 mph11.3 kmh 30.18 in1022.0 mb 0.00 in0.0 mm 0.00 in0.0 mm 0.00 in0.0 mm
04:48 AM 24.2°F-4.3°C 19.5°F-6.9°C 82% 4.4 mph SE7.1 kmh SE 8.0 mph12.9 kmh 30.18 in1022.0 mb 0.00 in0.0 mm 0.00 in0.0 mm 0.00 in0.0 mm
04:49 AM 24.2°F-4.3°C 19.5°F-6.9°C 82% 3.9 mph SE6.3 kmh SE 8.0 mph12.9 kmh 30.18 in1022.0 mb 0.00 in0.0 mm 0.00 in0.0 mm 0.00 in0.0 mm
04:50 AM 24.2°F-4.3°C 19.5°F-6.9°C 82% 5.0 mph SE8.0 kmh SE 7.0 mph11.3 kmh 30.18 in1022.0 mb 0.00 in0.0 mm 0.00 in0.0 mm 0.00 in0.0 mm
04:51 AM 24.2°F-4.3°C 19.5°F-6.9°C 82% 5.2 mph SE8.4 kmh SE 7.0 mph11.3 kmh 30.18 in1022.0 mb 0.00 in0.0 mm 0.00 in0.0 mm 0.00 in0.0 mm
04:52 AM 24.2°F-4.3°C 19.5°F-6.9°C 82% 3.7 mph SE6.0 kmh SE 7.0 mph11.3 kmh 30.17 in1021.7 mb 0.00 in0.0 mm 0.00 in0.0 mm 0.00 in0.0 mm
04:53 AM 24.2°F-4.3°C 19.5°F-6.9°C 82% 4.1 mph SE6.6 kmh SE 5.0 mph8.0 kmh 30.18 in1022.0 mb 0.00 in0.0 mm 0.00 in0.0 mm 0.00 in0.0 mm
04:54 AM 24.3°F-4.3°C 19.6°F-6.9°C 82% 4.4 mph SSE7.1 kmh SSE 6.0 mph9.7 kmh 30.18 in1022.0 mb 0.00 in0.0 mm 0.00 in0.0 mm 0.00 in0.0 mm
04:55 AM 24.3°F-4.3°C 19.6°F-6.9°C 82% 4.0 mph SE6.4 kmh SE 6.0 mph9.7 kmh 30.18 in1022.0 mb 0.00 in0.0 mm 0.00 in0.0 mm 0.00 in0.0 mm
04:56 AM 24.3°F-4.3°C 19.6°F-6.9°C 82% 3.3 mph SE5.3 kmh SE 5.0 mph8.0 kmh 30.17 in1021.7 mb 0.00 in0.0 mm 0.00 in0.0 mm 0.00 in0.0 mm
04:57 AM 24.3°F-4.3°C 19.3°F-7.1°C 81% 3.1 mph SE5.0 kmh SE 4.0 mph6.4 kmh 30.18 in1022.0 mb 0.00 in0.0 mm 0.00 in0.0 mm 0.00 in0.0 mm
04:58 AM 24.3°F-4.3°C 19.3°F-7.1°C 81% 3.7 mph SE6.0 kmh SE 5.0 mph8.0 kmh 30.17 in1021.7 mb 0.00 in0.0 mm 0.00 in0.0 mm 0.00 in0.0 mm
04:59 AM 24.3°F-4.3°C 19.3°F-7.1°C 81% 4.3 mph SE6.9 kmh SE 5.0 mph8.0 kmh 30.17 in1021.7 mb 0.00 in0.0 mm 0.00 in0.0 mm 0.00 in0.0 mm
05:00 AM 24.3°F-4.3°C 19.3°F-7.1°C 81% 2.9 mph SE4.7 kmh SE 5.0 mph8.0 kmh 30.17 in1021.7 mb 0.00 in0.0 mm 0.00 in0.0 mm 0.00 in0.0 mm
05:01 AM 24.3°F-4.3°C 19.3°F-7.1°C 81% 2.9 mph SE4.7 kmh SE 4.0 mph6.4 kmh 30.17 in1021.7 mb 0.00 in0.0 mm 0.00 in0.0 mm 0.00 in0.0 mm
05:02 AM 24.3°F-4.3°C 19.3°F-7.1°C 81% 3.1 mph SE5.0 kmh SE 4.0 mph6.4 kmh 30.17 in1021.7 mb 0.00 in0.0 mm 0.00 in0.0 mm 0.00 in0.0 mm
05:03 AM 24.3°F-4.3°C 19.3°F-7.1°C 81% 3.1 mph SE5.0 kmh SE 4.0 mph6.4 kmh 30.17 in1021.7 mb 0.00 in0.0 mm 0.00 in0.0 mm 0.00 in0.0 mm
05:04 AM 24.3°F-4.3°C 19.3°F-7.1°C 81% 3.2 mph SE5.1 kmh SE 4.0 mph6.4 kmh 30.17 in1021.7 mb 0.00 in0.0 mm 0.00 in0.0 mm 0.00 in0.0 mm
05:05 AM 24.3°F-4.3°C 19.3°F-7.1°C 81% 3.2 mph SE5.1 kmh SE 4.0 mph6.4 kmh 30.17 in1021.7 mb 0.00 in0.0 mm 0.00 in0.0 mm 0.00 in0.0 mm
05:06 AM 24.4°F-4.2°C 19.4°F-7.0°C 81% 3.1 mph SE5.0 kmh SE 4.0 mph6.4 kmh 30.17 in1021.7 mb 0.00 in0.0 mm 0.00 in0.0 mm 0.00 in0.0 mm
05:07 AM 24.4°F-4.2°C 19.4°F-7.0°C 81% 2.9 mph SE4.7 kmh SE 4.0 mph6.4 kmh 30.17 in1021.7 mb 0.00 in0.0 mm 0.00 in0.0 mm 0.00 in0.0 mm
05:08 AM 24.4°F-4.2°C 19.4°F-7.0°C 81% 3.0 mph SE4.8 kmh SE 4.0 mph6.4 kmh 30.17 in1021.7 mb 0.00 in0.0 mm 0.00 in0.0 mm 0.00 in0.0 mm
05:09 AM 24.4°F-4.2°C 19.4°F-7.0°C 81% 3.3 mph SE5.3 kmh SE 4.0 mph6.4 kmh 30.17 in1021.7 mb 0.00 in0.0 mm 0.00 in0.0 mm 0.00 in0.0 mm
05:10 AM 24.5°F-4.2°C 19.5°F-6.9°C 81% 2.3 mph SE3.7 kmh SE 4.0 mph6.4 kmh 30.17 in1021.7 mb 0.00 in0.0 mm 0.00 in0.0 mm 0.00 in0.0 mm
05:11 AM 24.4°F-4.2°C 19.4°F-7.0°C 81% 2.6 mph SE4.2 kmh SE 4.0 mph6.4 kmh 30.17 in1021.7 mb 0.00 in0.0 mm 0.00 in0.0 mm 0.00 in0.0 mm
05:12 AM 24.5°F-4.2°C 19.5°F-6.9°C 81% 2.0 mph SE3.2 kmh SE 3.0 mph4.8 kmh 30.17 in1021.7 mb 0.00 in0.0 mm 0.00 in0.0 mm 0.00 in0.0 mm
05:13 AM 24.5°F-4.2°C 19.5°F-6.9°C 81% 2.5 mph SE4.0 kmh SE 3.0 mph4.8 kmh 30.17 in1021.7 mb 0.00 in0.0 mm 0.00 in0.0 mm 0.00 in0.0 mm
05:14 AM 24.5°F-4.2°C 19.5°F-6.9°C 81% 2.2 mph SE3.5 kmh SE 3.0 mph4.8 kmh 30.17 in1021.7 mb 0.00 in0.0 mm 0.00 in0.0 mm 0.00 in0.0 mm
05:15 AM 24.5°F-4.2°C 19.5°F-6.9°C 81% 2.4 mph SE3.9 kmh SE 3.0 mph4.8 kmh 30.17 in1021.7 mb 0.00 in0.0 mm 0.00 in0.0 mm 0.00 in0.0 mm
05:16 AM 24.5°F-4.2°C 19.5°F-6.9°C 81% 2.7 mph SE4.3 kmh SE 3.0 mph4.8 kmh 30.17 in1021.7 mb 0.00 in0.0 mm 0.00 in0.0 mm 0.00 in0.0 mm
05:17 AM 24.5°F-4.2°C 19.2°F-7.1°C 80% 3.3 mph SE5.3 kmh SE 4.0 mph6.4 kmh 30.16 in1021.3 mb 0.00 in0.0 mm 0.00 in0.0 mm 0.00 in0.0 mm
05:18 AM 24.5°F-4.2°C 19.2°F-7.1°C 80% 2.2 mph SE3.5 kmh SE 4.0 mph6.4 kmh 30.16 in1021.3 mb 0.00 in0.0 mm 0.00 in0.0 mm 0.00 in0.0 mm
05:19 AM 24.5°F-4.2°C 19.2°F-7.1°C 80% 2.1 mph SE3.4 kmh SE 3.0 mph4.8 kmh 30.16 in1021.3 mb 0.00 in0.0 mm 0.00 in0.0 mm 0.00 in0.0 mm
05:20 AM 24.5°F-4.2°C 19.2°F-7.1°C 80% 2.3 mph SE3.7 kmh SE 3.0 mph4.8 kmh 30.16 in1021.3 mb 0.00 in0.0 mm 0.00 in0.0 mm 0.00 in0.0 mm
05:21 AM 24.6°F-4.1°C 19.3°F-7.1°C 80% 2.3 mph SE3.7 kmh SE 3.0 mph4.8 kmh 30.16 in1021.3 mb 0.00 in0.0 mm 0.00 in0.0 mm 0.00 in0.0 mm
05:22 AM 24.6°F-4.1°C 19.3°F-7.1°C 80% 1.6 mph SE2.6 kmh SE 3.0 mph4.8 kmh 30.16 in1021.3 mb 0.00 in0.0 mm 0.00 in0.0 mm 0.00 in0.0 mm
05:23 AM 24.6°F-4.1°C 19.3°F-7.1°C 80% 1.8 mph SE2.9 kmh SE 3.0 mph4.8 kmh 30.16 in1021.3 mb 0.00 in0.0 mm 0.00 in0.0 mm 0.00 in0.0 mm
05:24 AM 24.6°F-4.1°C 19.3°F-7.1°C 80% 2.5 mph SE4.0 kmh SE 4.0 mph6.4 kmh 30.16 in1021.3 mb 0.00 in0.0 mm 0.00 in0.0 mm 0.00 in0.0 mm
05:25 AM 24.7°F-4.1°C 19.4°F-7.0°C 80% 2.2 mph SE3.5 kmh SE 4.0 mph6.4 kmh 30.16 in1021.3 mb 0.00 in0.0 mm 0.00 in0.0 mm 0.00 in0.0 mm
05:26 AM 24.7°F-4.1°C 19.4°F-7.0°C 80% 1.5 mph SE2.4 kmh SE 3.0 mph4.8 kmh 30.16 in1021.3 mb 0.00 in0.0 mm 0.00 in0.0 mm 0.00 in0.0 mm
05:27 AM 24.7°F-4.1°C 19.4°F-7.0°C 80% 1.2 mph SE1.9 kmh SE 2.0 mph3.2 kmh 30.16 in1021.3 mb 0.00 in0.0 mm 0.00 in0.0 mm 0.00 in0.0 mm
05:28 AM 24.7°F-4.1°C 19.4°F-7.0°C 80% 1.4 mph SE2.3 kmh SE 2.0 mph3.2 kmh 30.16 in1021.3 mb 0.00 in0.0 mm 0.00 in0.0 mm 0.00 in0.0 mm
05:29 AM 24.7°F-4.1°C 19.4°F-7.0°C 80% 1.5 mph SE2.4 kmh SE 2.0 mph3.2 kmh 30.16 in1021.3 mb 0.00 in0.0 mm 0.00 in0.0 mm 0.00 in0.0 mm
05:30 AM 24.7°F-4.1°C 19.4°F-7.0°C 80% 1.4 mph SE2.3 kmh SE 2.0 mph3.2 kmh 30.16 in1021.3 mb 0.00 in0.0 mm 0.00 in0.0 mm 0.00 in0.0 mm
05:31 AM 24.7°F-4.1°C 19.4°F-7.0°C 80% 2.4 mph SE3.9 kmh SE 4.0 mph6.4 kmh 30.16 in1021.3 mb 0.00 in0.0 mm 0.00 in0.0 mm 0.00 in0.0 mm
05:32 AM 24.7°F-4.1°C 19.4°F-7.0°C 80% 2.3 mph SE3.7 kmh SE 4.0 mph6.4 kmh 30.16 in1021.3 mb 0.00 in0.0 mm 0.00 in0.0 mm 0.00 in0.0 mm
05:33 AM 24.7°F-4.1°C 19.4°F-7.0°C 80% 1.8 mph SE2.9 kmh SE 3.0 mph4.8 kmh 30.16 in1021.3 mb 0.00 in0.0 mm 0.00 in0.0 mm 0.00 in0.0 mm
05:34 AM 24.7°F-4.1°C 19.4°F-7.0°C 80% 1.4 mph SE2.3 kmh SE 3.0 mph4.8 kmh 30.16 in1021.3 mb 0.00 in0.0 mm 0.00 in0.0 mm 0.00 in0.0 mm
05:35 AM 24.7°F-4.1°C 19.4°F-7.0°C 80% 1.4 mph SE2.3 kmh SE 2.0 mph3.2 kmh 30.16 in1021.3 mb 0.00 in0.0 mm 0.00 in0.0 mm 0.00 in0.0 mm
05:36 AM 24.7°F-4.1°C 19.4°F-7.0°C 80% 1.7 mph SE2.7 kmh SE 3.0 mph4.8 kmh 30.16 in1021.3 mb 0.00 in0.0 mm 0.00 in0.0 mm 0.00 in0.0 mm
05:37 AM 24.7°F-4.1°C 19.4°F-7.0°C 80% 2.1 mph SE3.4 kmh SE 3.0 mph4.8 kmh 30.16 in1021.3 mb 0.00 in0.0 mm 0.00 in0.0 mm 0.00 in0.0 mm
05:38 AM 24.7°F-4.1°C 19.4°F-7.0°C 80% 2.3 mph SE3.7 kmh SE 3.0 mph4.8 kmh 30.16 in1021.3 mb 0.00 in0.0 mm 0.00 in0.0 mm 0.00 in0.0 mm
05:39 AM 24.7°F-4.1°C 19.4°F-7.0°C 80% 2.1 mph SE3.4 kmh SE 3.0 mph4.8 kmh 30.16 in1021.3 mb 0.00 in0.0 mm 0.00 in0.0 mm 0.00 in0.0 mm
05:40 AM 24.7°F-4.1°C 19.4°F-7.0°C 80% 3.2 mph SE5.1 kmh SE 4.0 mph6.4 kmh 30.16 in1021.3 mb 0.00 in0.0 mm 0.00 in0.0 mm 0.00 in0.0 mm
05:41 AM 24.7°F-4.1°C 19.4°F-7.0°C 80% 3.1 mph SE5.0 kmh SE 4.0 mph6.4 kmh 30.16 in1021.3 mb 0.00 in0.0 mm 0.00 in0.0 mm 0.00 in0.0 mm
05:42 AM 24.7°F-4.1°C 19.4°F-7.0°C 80% 3.0 mph SE4.8 kmh SE 4.0 mph6.4 kmh 30.16 in1021.3 mb 0.00 in0.0 mm 0.00 in0.0 mm 0.00 in0.0 mm
05:43 AM 24.8°F-4.0°C 19.5°F-6.9°C 80% 2.9 mph SE4.7 kmh SE 4.0 mph6.4 kmh 30.15 in1021.0 mb 0.00 in0.0 mm 0.00 in0.0 mm 0.00 in0.0 mm
05:44 AM 24.7°F-4.1°C 19.4°F-7.0°C 80% 3.2 mph SE5.1 kmh SE 4.0 mph6.4 kmh 30.15 in1021.0 mb 0.00 in0.0 mm 0.00 in0.0 mm 0.00 in0.0 mm
05:45 AM 24.7°F-4.1°C 19.4°F-7.0°C 80% 2.7 mph SE4.3 kmh SE 4.0 mph6.4 kmh 30.16 in1021.3 mb 0.00 in0.0 mm 0.00 in0.0 mm 0.00 in0.0 mm
05:46 AM 24.7°F-4.1°C 19.1°F-7.2°C 79% 2.5 mph SE4.0 kmh SE 3.0 mph4.8 kmh 30.15 in1021.0 mb 0.00 in0.0 mm 0.00 in0.0 mm 0.00 in0.0 mm
05:47 AM 24.8°F-4.0°C 19.2°F-7.1°C 79% 3.0 mph SE4.8 kmh SE 4.0 mph6.4 kmh 30.15 in1021.0 mb 0.00 in0.0 mm 0.00 in0.0 mm 0.00 in0.0 mm
05:48 AM 24.8°F-4.0°C 19.2°F-7.1°C 79% 3.4 mph SE5.5 kmh SE 4.0 mph6.4 kmh 30.15 in1021.0 mb 0.00 in0.0 mm 0.00 in0.0 mm 0.00 in0.0 mm
05:49 AM 24.8°F-4.0°C 19.5°F-6.9°C 80% 3.7 mph SE6.0 kmh SE 4.0 mph6.4 kmh 30.15 in1021.0 mb 0.00 in0.0 mm 0.00 in0.0 mm 0.00 in0.0 mm
05:50 AM 24.8°F-4.0°C 19.5°F-6.9°C 80% 3.5 mph SE5.6 kmh SE 4.0 mph6.4 kmh 30.15 in1021.0 mb 0.00 in0.0 mm 0.00 in0.0 mm 0.00 in0.0 mm
05:51 AM 24.8°F-4.0°C 19.5°F-6.9°C 80% 3.5 mph SE5.6 kmh SE 4.0 mph6.4 kmh 30.15 in1021.0 mb 0.00 in0.0 mm 0.00 in0.0 mm 0.00 in0.0 mm
05:52 AM 24.8°F-4.0°C 19.5°F-6.9°C 80% 3.4 mph SE5.5 kmh SE 4.0 mph6.4 kmh 30.15 in1021.0 mb 0.00 in0.0 mm 0.00 in0.0 mm 0.00 in0.0 mm
05:53 AM 24.8°F-4.0°C 19.5°F-6.9°C 80% 2.8 mph SE4.5 kmh SE 4.0 mph6.4 kmh 30.15 in1021.0 mb 0.00 in0.0 mm 0.00 in0.0 mm 0.00 in0.0 mm
05:54 AM 24.8°F-4.0°C 19.5°F-6.9°C 80% 2.7 mph SE4.3 kmh SE 4.0 mph6.4 kmh 30.15 in1021.0 mb 0.00 in0.0 mm 0.00 in0.0 mm 0.00 in0.0 mm
05:55 AM 24.8°F-4.0°C 19.5°F-6.9°C 80% 2.7 mph SE4.3 kmh SE 4.0 mph6.4 kmh 30.15 in1021.0 mb 0.00 in0.0 mm 0.00 in0.0 mm 0.00 in0.0 mm
05:56 AM 24.9°F-3.9°C 19.6°F-6.9°C 80% 3.2 mph SE5.1 kmh SE 4.0 mph6.4 kmh 30.15 in1021.0 mb 0.00 in0.0 mm 0.00 in0.0 mm 0.00 in0.0 mm
05:57 AM 24.8°F-4.0°C 19.5°F-6.9°C 80% 3.4 mph SE5.5 kmh SE 5.0 mph8.0 kmh 30.15 in1021.0 mb 0.00 in0.0 mm 0.00 in0.0 mm 0.00 in0.0 mm
05:58 AM 24.9°F-3.9°C 19.6°F-6.9°C 80% 4.6 mph SE7.4 kmh SE 5.0 mph8.0 kmh 30.15 in1021.0 mb 0.00 in0.0 mm 0.00 in0.0 mm 0.00 in0.0 mm
05:59 AM 24.8°F-4.0°C 19.5°F-6.9°C 80% 4.5 mph SE7.2 kmh SE 5.0 mph8.0 kmh 30.15 in1021.0 mb 0.00 in0.0 mm 0.00 in0.0 mm 0.00 in0.0 mm
06:00 AM 24.8°F-4.0°C 19.5°F-6.9°C 80% 4.6 mph SE7.4 kmh SE 5.0 mph8.0 kmh 30.15 in1021.0 mb 0.00 in0.0 mm 0.00 in0.0 mm 0.00 in0.0 mm
06:01 AM 24.9°F-3.9°C 19.6°F-6.9°C 80% 4.1 mph SE6.6 kmh SE 5.0 mph8.0 kmh 30.15 in1021.0 mb 0.00 in0.0 mm 0.00 in0.0 mm 0.00 in0.0 mm
06:02 AM 24.9°F-3.9°C 19.6°F-6.9°C 80% 3.4 mph SE5.5 kmh SE 5.0 mph8.0 kmh 30.15 in1021.0 mb 0.00 in0.0 mm 0.00 in0.0 mm 0.00 in0.0 mm
06:03 AM 24.9°F-3.9°C 19.6°F-6.9°C 80% 2.2 mph SE3.5 kmh SE 4.0 mph6.4 kmh 30.14 in1020.7 mb 0.00 in0.0 mm 0.00 in0.0 mm 0.00 in0.0 mm
06:04 AM 24.9°F-3.9°C 19.3°F-7.1°C 79% 2.6 mph SE4.2 kmh SE 3.0 mph4.8 kmh 30.14 in1020.7 mb 0.00 in0.0 mm 0.00 in0.0 mm 0.00 in0.0 mm
06:05 AM 24.9°F-3.9°C 19.3°F-7.1°C 79% 2.1 mph SE3.4 kmh SE 3.0 mph4.8 kmh 30.14 in1020.7 mb 0.00 in0.0 mm 0.00 in0.0 mm 0.00 in0.0 mm
06:06 AM 24.9°F-3.9°C 19.3°F-7.1°C 79% 2.0 mph SE3.2 kmh SE 3.0 mph4.8 kmh 30.14 in1020.7 mb 0.00 in0.0 mm 0.00 in0.0 mm 0.00 in0.0 mm
06:07 AM 24.9°F-3.9°C 19.3°F-7.1°C 79% 2.3 mph SE3.7 kmh SE 3.0 mph4.8 kmh 30.14 in1020.7 mb 0.00 in0.0 mm 0.00 in0.0 mm 0.00 in0.0 mm
06:08 AM 24.9°F-3.9°C 19.3°F-7.1°C 79% 2.0 mph SE3.2 kmh SE 3.0 mph4.8 kmh 30.14 in1020.7 mb 0.00 in0.0 mm 0.00 in0.0 mm 0.00 in0.0 mm
06:09 AM 25.0°F-3.9°C 19.4°F-7.0°C 79% 2.1 mph SE3.4 kmh SE 3.0 mph4.8 kmh 30.14 in1020.7 mb 0.00 in0.0 mm 0.00 in0.0 mm 0.00 in0.0 mm
06:10 AM 24.9°F-3.9°C 19.3°F-7.1°C 79% 2.1 mph SE3.4 kmh SE 3.0 mph4.8 kmh 30.14 in1020.7 mb 0.00 in0.0 mm 0.00 in0.0 mm 0.00 in0.0 mm
06:11 AM 24.9°F-3.9°C 19.3°F-7.1°C 79% 2.5 mph SE4.0 kmh SE 3.0 mph4.8 kmh 30.14 in1020.7 mb 0.00 in0.0 mm 0.00 in0.0 mm 0.00 in0.0 mm
06:12 AM 24.9°F-3.9°C 19.3°F-7.1°C 79% 2.7 mph SE4.3 kmh SE 4.0 mph6.4 kmh 30.14 in1020.7 mb 0.00 in0.0 mm 0.00 in0.0 mm 0.00 in0.0 mm
06:13 AM 24.9°F-3.9°C 19.3°F-7.1°C 79% 2.8 mph SE4.5 kmh SE 4.0 mph6.4 kmh 30.14 in1020.7 mb 0.00 in0.0 mm 0.00 in0.0 mm 0.00 in0.0 mm
06:14 AM 25.0°F-3.9°C 19.4°F-7.0°C 79% 2.5 mph SE4.0 kmh SE 4.0 mph6.4 kmh 30.14 in1020.7 mb 0.00 in0.0 mm 0.00 in0.0 mm 0.00 in0.0 mm
06:15 AM 25.0°F-3.9°C 19.4°F-7.0°C 79% 2.3 mph SE3.7 kmh SE 3.0 mph4.8 kmh 30.14 in1020.7 mb 0.00 in0.0 mm 0.00 in0.0 mm 0.00 in0.0 mm
06:16 AM 24.9°F-3.9°C 19.3°F-7.1°C 79% 1.8 mph SE2.9 kmh SE 3.0 mph4.8 kmh 30.14 in1020.7 mb 0.00 in0.0 mm 0.00 in0.0 mm 0.00 in0.0 mm
06:17 AM 25.0°F-3.9°C 19.4°F-7.0°C 79% 2.5 mph SE4.0 kmh SE 3.0 mph4.8 kmh 30.14 in1020.7 mb 0.00 in0.0 mm 0.00 in0.0 mm 0.00 in0.0 mm
06:18 AM 25.0°F-3.9°C 19.4°F-7.0°C 79% 2.6 mph SE4.2 kmh SE 3.0 mph4.8 kmh 30.14 in1020.7 mb 0.00 in0.0 mm 0.00 in0.0 mm 0.00 in0.0 mm
06:19 AM 25.0°F-3.9°C 19.4°F-7.0°C 79% 2.3 mph SE3.7 kmh SE 3.0 mph4.8 kmh 30.14 in1020.7 mb 0.00 in0.0 mm 0.00 in0.0 mm 0.00 in0.0 mm
06:20 AM 25.0°F-3.9°C 19.4°F-7.0°C 79% 3.4 mph SE5.5 kmh SE 4.0 mph6.4 kmh 30.14 in1020.7 mb 0.00 in0.0 mm 0.00 in0.0 mm 0.00 in0.0 mm
06:21 AM 25.0°F-3.9°C 19.4°F-7.0°C 79% 2.6 mph SE4.2 kmh SE 4.0 mph6.4 kmh 30.14 in1020.7 mb 0.00 in0.0 mm 0.00 in0.0 mm 0.00 in0.0 mm
06:22 AM 25.0°F-3.9°C 19.4°F-7.0°C 79% 2.2 mph SE3.5 kmh SE 3.0 mph4.8 kmh 30.14 in1020.7 mb 0.00 in0.0 mm 0.00 in0.0 mm 0.00 in0.0 mm
06:23 AM 25.0°F-3.9°C 19.4°F-7.0°C 79% 2.0 mph SE3.2 kmh SE 3.0 mph4.8 kmh 30.14 in1020.7 mb 0.00 in0.0 mm 0.00 in0.0 mm 0.00 in0.0 mm
06:24 AM 25.0°F-3.9°C 19.4°F-7.0°C 79% 1.6 mph SE2.6 kmh SE 3.0 mph4.8 kmh 30.14 in1020.7 mb 0.00 in0.0 mm 0.00 in0.0 mm 0.00 in0.0 mm
06:25 AM 25.0°F-3.9°C 19.4°F-7.0°C 79% 1.7 mph SE2.7 kmh SE 3.0 mph4.8 kmh 30.14 in1020.7 mb 0.00 in0.0 mm 0.00 in0.0 mm 0.00 in0.0 mm
06:26 AM 25.0°F-3.9°C 19.4°F-7.0°C 79% 1.4 mph SE2.3 kmh SE 3.0 mph4.8 kmh 30.14 in1020.7 mb 0.00 in0.0 mm 0.00 in0.0 mm 0.00 in0.0 mm
06:27 AM 25.0°F-3.9°C 19.1°F-7.2°C 78% 1.3 mph SE2.1 kmh SE 3.0 mph4.8 kmh 30.14 in1020.7 mb 0.00 in0.0 mm 0.00 in0.0 mm 0.00 in0.0 mm
06:28 AM 25.0°F-3.9°C 19.1°F-7.2°C 78% 1.7 mph SE2.7 kmh SE 3.0 mph4.8 kmh 30.14 in1020.7 mb 0.00 in0.0 mm 0.00 in0.0 mm 0.00 in0.0 mm
06:29 AM 24.9°F-3.9°C 19.0°F-7.2°C 78% 1.8 mph SE2.9 kmh SE 2.0 mph3.2 kmh 30.14 in1020.7 mb 0.00 in0.0 mm 0.00 in0.0 mm 0.00 in0.0 mm
06:30 AM 25.0°F-3.9°C 19.1°F-7.2°C 78% 1.8 mph SE2.9 kmh SE 4.0 mph6.4 kmh 30.14 in1020.7 mb 0.00 in0.0 mm 0.00 in0.0 mm 0.00 in0.0 mm
06:31 AM 24.9°F-3.9°C 18.7°F-7.4°C 77% 3.9 mph S6.3 kmh S 5.0 mph8.0 kmh 30.14 in1020.7 mb 0.00 in0.0 mm 0.00 in0.0 mm 0.00 in0.0 mm
06:32 AM 25.0°F-3.9°C 18.8°F-7.3°C 77% 5.3 mph SSW8.5 kmh SSW 6.0 mph9.7 kmh 30.14 in1020.7 mb 0.00 in0.0 mm 0.00 in0.0 mm 0.00 in0.0 mm
06:33 AM 25.0°F-3.9°C 18.2°F-7.7°C 75% 5.3 mph SW8.5 kmh SW 6.0 mph9.7 kmh 30.14 in1020.7 mb 0.00 in0.0 mm 0.00 in0.0 mm 0.00 in0.0 mm
06:34 AM 25.0°F-3.9°C 17.9°F-7.8°C 74% 4.8 mph SW7.7 kmh SW 6.0 mph9.7 kmh 30.14 in1020.7 mb 0.00 in0.0 mm 0.00 in0.0 mm 0.00 in0.0 mm
06:35 AM 25.1°F-3.8°C 18.0°F-7.8°C 74% 4.5 mph SSW7.2 kmh SSW 6.0 mph9.7 kmh 30.13 in1020.3 mb 0.00 in0.0 mm 0.00 in0.0 mm 0.00 in0.0 mm
06:36 AM 25.2°F-3.8°C 17.8°F-7.9°C 73% 4.8 mph S7.7 kmh S 6.0 mph9.7 kmh 30.13 in1020.3 mb 0.00 in0.0 mm 0.00 in0.0 mm 0.00 in0.0 mm
06:37 AM 25.2°F-3.8°C 18.1°F-7.7°C 74% 4.4 mph S7.1 kmh S 6.0 mph9.7 kmh 30.14 in1020.7 mb 0.00 in0.0 mm 0.00 in0.0 mm 0.00 in0.0 mm
06:38 AM 25.3°F-3.7°C 18.2°F-7.7°C 74% 4.2 mph S6.8 kmh S 6.0 mph9.7 kmh 30.14 in1020.7 mb 0.00 in0.0 mm 0.00 in0.0 mm 0.00 in0.0 mm
06:39 AM 25.3°F-3.7°C 18.2°F-7.7°C 74% 3.9 mph S6.3 kmh S 5.0 mph8.0 kmh 30.13 in1020.3 mb 0.00 in0.0 mm 0.00 in0.0 mm 0.00 in0.0 mm
06:40 AM 25.3°F-3.7°C 18.2°F-7.7°C 74% 3.9 mph S6.3 kmh S 5.0 mph8.0 kmh 30.13 in1020.3 mb 0.00 in0.0 mm 0.00 in0.0 mm 0.00 in0.0 mm
06:41 AM 25.3°F-3.7°C 18.2°F-7.7°C 74% 2.2 mph S3.5 kmh S 5.0 mph8.0 kmh 30.14 in1020.7 mb 0.00 in0.0 mm 0.00 in0.0 mm 0.00 in0.0 mm
06:42 AM 25.3°F-3.7°C 18.5°F-7.5°C 75% 2.1 mph S3.4 kmh S 5.0 mph8.0 kmh 30.13 in1020.3 mb 0.00 in0.0 mm 0.00 in0.0 mm 0.00 in0.0 mm
06:43 AM 25.3°F-3.7°C 18.5°F-7.5°C 75% 3.5 mph S5.6 kmh S 5.0 mph8.0 kmh 30.13 in1020.3 mb 0.00 in0.0 mm 0.00 in0.0 mm 0.00 in0.0 mm
06:44 AM 25.3°F-3.7°C 18.5°F-7.5°C 75% 3.5 mph S5.6 kmh S 5.0 mph8.0 kmh 30.13 in1020.3 mb 0.00 in0.0 mm 0.00 in0.0 mm 0.00 in0.0 mm
06:45 AM 25.3°F-3.7°C 18.5°F-7.5°C 75% 3.1 mph S5.0 kmh S 4.0 mph6.4 kmh 30.13 in1020.3 mb 0.00 in0.0 mm 0.00 in0.0 mm 0.00 in0.0 mm
06:46 AM 25.3°F-3.7°C 18.5°F-7.5°C 75% 1.8 mph S2.9 kmh S 4.0 mph6.4 kmh 30.13 in1020.3 mb 0.00 in0.0 mm 0.00 in0.0 mm 0.00 in0.0 mm
06:47 AM 25.3°F-3.7°C 18.5°F-7.5°C 75% 2.5 mph S4.0 kmh S 3.0 mph4.8 kmh 30.13 in1020.3 mb 0.00 in0.0 mm 0.00 in0.0 mm 0.00 in0.0 mm
06:48 AM 25.3°F-3.7°C 18.5°F-7.5°C 75% 1.6 mph S2.6 kmh S 3.0 mph4.8 kmh 30.13 in1020.3 mb 0.00 in0.0 mm 0.00 in0.0 mm 0.00 in0.0 mm
06:49 AM 25.3°F-3.7°C 18.5°F-7.5°C 75% 1.7 mph S2.7 kmh S 3.0 mph4.8 kmh 30.13 in1020.3 mb 0.00 in0.0 mm 0.00 in0.0 mm 0.00 in0.0 mm
06:50 AM 25.3°F-3.7°C 18.5°F-7.5°C 75% 4.0 mph S6.4 kmh S 5.0 mph8.0 kmh 30.13 in1020.3 mb 0.00 in0.0 mm 0.00 in0.0 mm 0.00 in0.0 mm
06:51 AM 25.3°F-3.7°C 18.5°F-7.5°C 75% 4.5 mph SSE7.2 kmh SSE 6.0 mph9.7 kmh 30.13 in1020.3 mb 0.00 in0.0 mm 0.00 in0.0 mm 0.00 in0.0 mm
06:52 AM 25.3°F-3.7°C 18.5°F-7.5°C 75% 4.8 mph SSE7.7 kmh SSE 6.0 mph9.7 kmh 30.13 in1020.3 mb 0.00 in0.0 mm 0.00 in0.0 mm 0.00 in0.0 mm
06:53 AM 25.3°F-3.7°C 18.5°F-7.5°C 75% 3.8 mph SSE6.1 kmh SSE 6.0 mph9.7 kmh 30.13 in1020.3 mb 0.00 in0.0 mm 0.00 in0.0 mm 0.00 in0.0 mm
06:54 AM 25.2°F-3.8°C 18.4°F-7.6°C 75% 3.6 mph SSE5.8 kmh SSE 6.0 mph9.7 kmh 30.13 in1020.3 mb 0.00 in0.0 mm 0.00 in0.0 mm 0.00 in0.0 mm
06:55 AM 25.2°F-3.8°C 18.4°F-7.6°C 75% 3.3 mph SSE5.3 kmh SSE 5.0 mph8.0 kmh 30.13 in1020.3 mb 0.00 in0.0 mm 0.00 in0.0 mm 0.00 in0.0 mm
06:56 AM 25.2°F-3.8°C 18.4°F-7.6°C 75% 3.6 mph SSE5.8 kmh SSE 4.0 mph6.4 kmh 30.13 in1020.3 mb 0.00 in0.0 mm 0.00 in0.0 mm 0.00 in0.0 mm
06:57 AM 25.2°F-3.8°C 18.1°F-7.7°C 74% 3.6 mph SSE5.8 kmh SSE 4.0 mph6.4 kmh 30.13 in1020.3 mb 0.00 in0.0 mm 0.00 in0.0 mm 0.00 in0.0 mm
06:58 AM 25.2°F-3.8°C 18.1°F-7.7°C 74% 3.3 mph SSE5.3 kmh SSE 4.0 mph6.4 kmh 30.13 in1020.3 mb 0.00 in0.0 mm 0.00 in0.0 mm 0.00 in0.0 mm
06:59 AM 25.2°F-3.8°C 18.1°F-7.7°C 74% 2.4 mph SSE3.9 kmh SSE 4.0 mph6.4 kmh 30.13 in1020.3 mb 0.00 in0.0 mm 0.00 in0.0 mm 0.00 in0.0 mm
07:00 AM 25.2°F-3.8°C 18.1°F-7.7°C 74% 1.8 mph SSE2.9 kmh SSE 3.0 mph4.8 kmh 30.13 in1020.3 mb 0.00 in0.0 mm 0.00 in0.0 mm 0.00 in0.0 mm
07:01 AM 25.2°F-3.8°C 18.1°F-7.7°C 74% 2.1 mph SSE3.4 kmh SSE 3.0 mph4.8 kmh 30.13 in1020.3 mb 0.00 in0.0 mm 0.00 in0.0 mm 0.00 in0.0 mm
07:02 AM 25.2°F-3.8°C 18.1°F-7.7°C 74% 2.2 mph SSE3.5 kmh SSE 3.0 mph4.8 kmh 30.13 in1020.3 mb 0.00 in0.0 mm 0.00 in0.0 mm 0.00 in0.0 mm
07:03 AM 25.2°F-3.8°C 18.1°F-7.7°C 74% 1.9 mph SSE3.1 kmh SSE 3.0 mph4.8 kmh 30.13 in1020.3 mb 0.00 in0.0 mm 0.00 in0.0 mm 0.00 in0.0 mm
07:04 AM 25.1°F-3.8°C 18.0°F-7.8°C 74% 1.9 mph SSE3.1 kmh SSE 3.0 mph4.8 kmh 30.13 in1020.3 mb 0.00 in0.0 mm 0.00 in0.0 mm 0.00 in0.0 mm
07:05 AM 25.2°F-3.8°C 18.1°F-7.7°C 74% 2.2 mph SSE3.5 kmh SSE 3.0 mph4.8 kmh 30.12 in1020.0 mb 0.00 in0.0 mm 0.00 in0.0 mm 0.00 in0.0 mm
07:06 AM 25.1°F-3.8°C 18.0°F-7.8°C 74% 2.7 mph SSE4.3 kmh SSE 4.0 mph6.4 kmh 30.12 in1020.0 mb 0.00 in0.0 mm 0.00 in0.0 mm 0.00 in0.0 mm
07:07 AM 25.1°F-3.8°C 18.0°F-7.8°C 74% 3.1 mph SSE5.0 kmh SSE 4.0 mph6.4 kmh 30.12 in1020.0 mb 0.00 in0.0 mm 0.00 in0.0 mm 0.00 in0.0 mm
07:08 AM 25.1°F-3.8°C 18.0°F-7.8°C 74% 3.1 mph SSE5.0 kmh SSE 4.0 mph6.4 kmh 30.12 in1020.0 mb 0.00 in0.0 mm 0.00 in0.0 mm 0.00 in0.0 mm
07:09 AM 25.0°F-3.9°C 18.2°F-7.7°C 75% 3.3 mph SSE5.3 kmh SSE 4.0 mph6.4 kmh 30.12 in1020.0 mb 0.00 in0.0 mm 0.00 in0.0 mm 0.00 in0.0 mm
07:10 AM 25.0°F-3.9°C 18.2°F-7.7°C 75% 3.5 mph SSE5.6 kmh SSE 4.0 mph6.4 kmh 30.12 in1020.0 mb 0.00 in0.0 mm 0.00 in0.0 mm 0.00 in0.0 mm
07:11 AM 25.0°F-3.9°C 18.2°F-7.7°C 75% 3.1 mph SSE5.0 kmh SSE 4.0 mph6.4 kmh 30.12 in1020.0 mb 0.00 in0.0 mm 0.00 in0.0 mm 0.00 in0.0 mm
07:12 AM 25.0°F-3.9°C 18.2°F-7.7°C 75% 2.0 mph SSE3.2 kmh SSE 4.0 mph6.4 kmh 30.12 in1020.0 mb 0.00 in0.0 mm 0.00 in0.0 mm 0.00 in0.0 mm
07:13 AM 25.0°F-3.9°C 17.9°F-7.8°C 74% 2.2 mph SSE3.5 kmh SSE 3.0 mph4.8 kmh 30.12 in1020.0 mb 0.00 in0.0 mm 0.00 in0.0 mm 0.00 in0.0 mm
07:14 AM 24.9°F-3.9°C 17.8°F-7.9°C 74% 2.7 mph SSE4.3 kmh SSE 3.0 mph4.8 kmh 30.12 in1020.0 mb 0.00 in0.0 mm 0.00 in0.0 mm 0.00 in0.0 mm
07:15 AM 24.9°F-3.9°C 17.8°F-7.9°C 74% 2.6 mph SSE4.2 kmh SSE 4.0 mph6.4 kmh 30.12 in1020.0 mb 0.00 in0.0 mm 0.00 in0.0 mm 0.00 in0.0 mm
07:16 AM 24.9°F-3.9°C 17.8°F-7.9°C 74% 2.3 mph SSE3.7 kmh SSE 4.0 mph6.4 kmh 30.12 in1020.0 mb 0.00 in0.0 mm 0.00 in0.0 mm 0.00 in0.0 mm
07:17 AM 24.9°F-3.9°C 17.8°F-7.9°C 74% 2.9 mph SSE4.7 kmh SSE 4.0 mph6.4 kmh 30.12 in1020.0 mb 0.00 in0.0 mm 0.00 in0.0 mm 0.00 in0.0 mm
07:18 AM 25.0°F-3.9°C 17.9°F-7.8°C 74% 3.5 mph SSE5.6 kmh SSE 4.0 mph6.4 kmh 30.12 in1020.0 mb 0.00 in0.0 mm 0.00 in0.0 mm 0.00 in0.0 mm
07:19 AM 24.9°F-3.9°C 17.8°F-7.9°C 74% 3.1 mph SSE5.0 kmh SSE 5.0 mph8.0 kmh 30.12 in1020.0 mb 0.00 in0.0 mm 0.00 in0.0 mm 0.00 in0.0 mm
07:20 AM 25.0°F-3.9°C 17.9°F-7.8°C 74% 3.0 mph SSE4.8 kmh SSE 5.0 mph8.0 kmh 30.12 in1020.0 mb 0.00 in0.0 mm 0.00 in0.0 mm 0.00 in0.0 mm
07:21 AM 24.9°F-3.9°C 17.8°F-7.9°C 74% 3.1 mph SSE5.0 kmh SSE 5.0 mph8.0 kmh 30.12 in1020.0 mb 0.00 in0.0 mm 0.00 in0.0 mm 0.00 in0.0 mm
07:22 AM 24.9°F-3.9°C 17.8°F-7.9°C 74% 3.2 mph SSE5.1 kmh SSE 5.0 mph8.0 kmh 30.12 in1020.0 mb 0.00 in0.0 mm 0.00 in0.0 mm 0.00 in0.0 mm
07:23 AM 24.9°F-3.9°C 17.8°F-7.9°C 74% 2.9 mph S4.7 kmh S 5.0 mph8.0 kmh 30.12 in1020.0 mb 0.00 in0.0 mm 0.00 in0.0 mm 0.00 in0.0 mm
07:24 AM 25.0°F-3.9°C 17.9°F-7.8°C 74% 3.7 mph S6.0 kmh S 5.0 mph8.0 kmh 30.12 in1020.0 mb 0.00 in0.0 mm 0.00 in0.0 mm 0.00 in0.0 mm
07:25 AM 24.9°F-3.9°C 17.8°F-7.9°C 74% 3.8 mph S6.1 kmh S 5.0 mph8.0 kmh 30.12 in1020.0 mb 0.00 in0.0 mm 0.00 in0.0 mm 0.00 in0.0 mm
07:26 AM 24.9°F-3.9°C 17.8°F-7.9°C 74% 3.3 mph S5.3 kmh S 5.0 mph8.0 kmh 30.12 in1020.0 mb 0.00 in0.0 mm 0.00 in0.0 mm 0.00 in0.0 mm
07:27 AM 25.0°F-3.9°C 17.6°F-8.0°C 73% 2.4 mph SSE3.9 kmh SSE 5.0 mph8.0 kmh 30.12 in1020.0 mb 0.00 in0.0 mm 0.00 in0.0 mm 0.00 in0.0 mm
07:28 AM 25.0°F-3.9°C 17.6°F-8.0°C 73% 2.4 mph SSE3.9 kmh SSE 5.0 mph8.0 kmh 30.12 in1020.0 mb 0.00 in0.0 mm 0.00 in0.0 mm 0.00 in0.0 mm
07:29 AM 25.0°F-3.9°C 17.6°F-8.0°C 73% 2.9 mph SSE4.7 kmh SSE 4.0 mph6.4 kmh 30.12 in1020.0 mb 0.00 in0.0 mm 0.00 in0.0 mm 0.00 in0.0 mm
07:30 AM 25.0°F-3.9°C 17.6°F-8.0°C 73% 2.8 mph SSE4.5 kmh SSE 4.0 mph6.4 kmh 30.12 in1020.0 mb 0.00 in0.0 mm 0.00 in0.0 mm 0.00 in0.0 mm
07:31 AM 25.0°F-3.9°C 17.6°F-8.0°C 73% 2.6 mph SSE4.2 kmh SSE 4.0 mph6.4 kmh 30.12 in1020.0 mb 0.00 in0.0 mm 0.00 in0.0 mm 0.00 in0.0 mm
07:32 AM 25.0°F-3.9°C 17.6°F-8.0°C 73% 2.1 mph S3.4 kmh S 4.0 mph6.4 kmh 30.12 in1020.0 mb 0.00 in0.0 mm 0.00 in0.0 mm 0.00 in0.0 mm
07:33 AM 25.0°F-3.9°C 17.6°F-8.0°C 73% 2.0 mph S3.2 kmh S 4.0 mph6.4 kmh 30.12 in1020.0 mb 0.00 in0.0 mm 0.00 in0.0 mm 0.00 in0.0 mm
07:34 AM 25.0°F-3.9°C 17.6°F-8.0°C 73% 2.2 mph S3.5 kmh S 4.0 mph6.4 kmh 30.12 in1020.0 mb 0.00 in0.0 mm 0.00 in0.0 mm 0.00 in0.0 mm
07:35 AM 25.0°F-3.9°C 17.6°F-8.0°C 73% 3.1 mph SSE5.0 kmh SSE 5.0 mph8.0 kmh 30.12 in1020.0 mb 0.00 in0.0 mm 0.00 in0.0 mm 0.00 in0.0 mm
07:36 AM 25.0°F-3.9°C 17.6°F-8.0°C 73% 4.6 mph SSE7.4 kmh SSE 6.0 mph9.7 kmh 30.12 in1020.0 mb 0.00 in0.0 mm 0.00 in0.0 mm 0.00 in0.0 mm
07:37 AM 25.0°F-3.9°C 17.6°F-8.0°C 73% 4.4 mph SSE7.1 kmh SSE 6.0 mph9.7 kmh 30.11 in1019.6 mb 0.00 in0.0 mm 0.00 in0.0 mm 0.00 in0.0 mm
07:38 AM 25.0°F-3.9°C 17.6°F-8.0°C 73% 5.0 mph SSE8.0 kmh SSE 6.0 mph9.7 kmh 30.11 in1019.6 mb 0.00 in0.0 mm 0.00 in0.0 mm 0.00 in0.0 mm
07:39 AM 25.0°F-3.9°C 17.6°F-8.0°C 73% 4.9 mph SSE7.9 kmh SSE 6.0 mph9.7 kmh 30.11 in1019.6 mb 0.00 in0.0 mm 0.00 in0.0 mm 0.00 in0.0 mm
07:40 AM 25.0°F-3.9°C 17.3°F-8.2°C 72% 4.0 mph SSE6.4 kmh SSE 6.0 mph9.7 kmh 30.11 in1019.6 mb 0.00 in0.0 mm 0.00 in0.0 mm 0.00 in0.0 mm
07:41 AM 25.0°F-3.9°C 17.3°F-8.2°C 72% 4.4 mph S7.1 kmh S 6.0 mph9.7 kmh 30.11 in1019.6 mb 0.00 in0.0 mm 0.00 in0.0 mm 0.00 in0.0 mm
07:42 AM 25.0°F-3.9°C 17.3°F-8.2°C 72% 4.0 mph S6.4 kmh S 6.0 mph9.7 kmh 30.11 in1019.6 mb 0.00 in0.0 mm 0.00 in0.0 mm 0.00 in0.0 mm
07:43 AM 25.1°F-3.8°C 17.4°F-8.1°C 72% 3.7 mph S6.0 kmh S 5.0 mph8.0 kmh 30.11 in1019.6 mb 0.00 in0.0 mm 0.00 in0.0 mm 0.00 in0.0 mm
07:44 AM 25.1°F-3.8°C 17.4°F-8.1°C 72% 3.4 mph S5.5 kmh S 5.0 mph8.0 kmh 30.11 in1019.6 mb 0.00 in0.0 mm 0.00 in0.0 mm 0.00 in0.0 mm
07:45 AM 25.1°F-3.8°C 17.4°F-8.1°C 72% 2.5 mph S4.0 kmh S 5.0 mph8.0 kmh 30.11 in1019.6 mb 0.00 in0.0 mm 0.00 in0.0 mm 0.00 in0.0 mm
07:46 AM 25.1°F-3.8°C 17.4°F-8.1°C 72% 4.0 mph S6.4 kmh S 5.0 mph8.0 kmh 30.11 in1019.6 mb 0.00 in0.0 mm 0.00 in0.0 mm 0.00 in0.0 mm
07:47 AM 25.1°F-3.8°C 17.4°F-8.1°C 72% 4.7 mph S7.6 kmh S 6.0 mph9.7 kmh 30.11 in1019.6 mb 0.00 in0.0 mm 0.00 in0.0 mm 0.00 in0.0 mm
07:48 AM 25.1°F-3.8°C 17.4°F-8.1°C 72% 5.0 mph S8.0 kmh S 6.0 mph9.7 kmh 30.11 in1019.6 mb 0.00 in0.0 mm 0.00 in0.0 mm 0.00 in0.0 mm
07:49 AM 25.1°F-3.8°C 17.4°F-8.1°C 72% 4.8 mph S7.7 kmh S 6.0 mph9.7 kmh 30.11 in1019.6 mb 0.00 in0.0 mm 0.00 in0.0 mm 0.00 in0.0 mm
07:50 AM 25.1°F-3.8°C 17.4°F-8.1°C 72% 5.1 mph S8.2 kmh S 6.0 mph9.7 kmh 30.11 in1019.6 mb 0.00 in0.0 mm 0.00 in0.0 mm 0.00 in0.0 mm
07:51 AM 25.2°F-3.8°C 17.5°F-8.1°C 72% 4.8 mph S7.7 kmh S 6.0 mph9.7 kmh 30.11 in1019.6 mb 0.00 in0.0 mm 0.00 in0.0 mm 0.00 in0.0 mm
07:52 AM 25.2°F-3.8°C 17.5°F-8.1°C 72% 4.5 mph S7.2 kmh S 6.0 mph9.7 kmh 30.11 in1019.6 mb 0.00 in0.0 mm 0.00 in0.0 mm 0.00 in0.0 mm
07:53 AM 25.2°F-3.8°C 17.5°F-8.1°C 72% 4.0 mph S6.4 kmh S 6.0 mph9.7 kmh 30.11 in1019.6 mb 0.00 in0.0 mm 0.00 in0.0 mm 0.00 in0.0 mm
07:54 AM 25.2°F-3.8°C 17.5°F-8.1°C 72% 3.7 mph S6.0 kmh S 5.0 mph8.0 kmh 30.11 in1019.6 mb 0.00 in0.0 mm 0.00 in0.0 mm 0.00 in0.0 mm
07:55 AM 25.2°F-3.8°C 17.5°F-8.1°C 72% 3.7 mph S6.0 kmh S 4.0 mph6.4 kmh 30.11 in1019.6 mb 0.00 in0.0 mm 0.00 in0.0 mm 0.00 in0.0 mm
07:56 AM 25.2°F-3.8°C 17.5°F-8.1°C 72% 3.8 mph S6.1 kmh S 5.0 mph8.0 kmh 30.11 in1019.6 mb 0.00 in0.0 mm 0.00 in0.0 mm 0.00 in0.0 mm
07:57 AM 25.2°F-3.8°C 17.5°F-8.1°C 72% 4.0 mph S6.4 kmh S 5.0 mph8.0 kmh 30.11 in1019.6 mb 0.00 in0.0 mm 0.00 in0.0 mm 0.00 in0.0 mm
07:58 AM 25.2°F-3.8°C 17.1°F-8.3°C 71% 3.0 mph S4.8 kmh S 5.0 mph8.0 kmh 30.11 in1019.6 mb 0.00 in0.0 mm 0.00 in0.0 mm 0.00 in0.0 mm
07:59 AM 25.2°F-3.8°C 17.1°F-8.3°C 71% 3.4 mph S5.5 kmh S 5.0 mph8.0 kmh 30.11 in1019.6 mb 0.00 in0.0 mm 0.00 in0.0 mm 0.00 in0.0 mm
08:00 AM 25.2°F-3.8°C 17.1°F-8.3°C 71% 2.9 mph S4.7 kmh S 5.0 mph8.0 kmh 30.11 in1019.6 mb 0.00 in0.0 mm 0.00 in0.0 mm 0.00 in0.0 mm
08:01 AM 25.2°F-3.8°C 17.1°F-8.3°C 71% 3.4 mph S5.5 kmh S 4.0 mph6.4 kmh 30.11 in1019.6 mb 0.00 in0.0 mm 0.00 in0.0 mm 0.00 in0.0 mm
08:02 AM 25.2°F-3.8°C 17.1°F-8.3°C 71% 3.3 mph S5.3 kmh S 4.0 mph6.4 kmh 30.11 in1019.6 mb 0.00 in0.0 mm 0.00 in0.0 mm 0.00 in0.0 mm
08:03 AM 25.2°F-3.8°C 17.1°F-8.3°C 71% 2.9 mph S4.7 kmh S 4.0 mph6.4 kmh 30.11 in1019.6 mb 0.00 in0.0 mm 0.00 in0.0 mm 0.00 in0.0 mm
08:04 AM 25.2°F-3.8°C 17.1°F-8.3°C 71% 3.3 mph S5.3 kmh S 4.0 mph6.4 kmh 30.11 in1019.6 mb 0.00 in0.0 mm 0.00 in0.0 mm 0.00 in0.0 mm
08:05 AM 25.2°F-3.8°C 17.1°F-8.3°C 71% 3.7 mph S6.0 kmh S 5.0 mph8.0 kmh 30.11 in1019.6 mb 0.00 in0.0 mm 0.00 in0.0 mm 0.00 in0.0 mm
08:06 AM 25.2°F-3.8°C 17.1°F-8.3°C 71% 2.7 mph S4.3 kmh S 5.0 mph8.0 kmh 30.11 in1019.6 mb 0.00 in0.0 mm 0.00 in0.0 mm 0.00 in0.0 mm
08:07 AM 25.2°F-3.8°C 17.1°F-8.3°C 71% 2.6 mph S4.2 kmh S 4.0 mph6.4 kmh 30.11 in1019.6 mb 0.00 in0.0 mm 0.00 in0.0 mm 0.00 in0.0 mm
08:08 AM 25.2°F-3.8°C 17.5°F-8.1°C 72% 2.5 mph S4.0 kmh S 3.0 mph4.8 kmh 30.11 in1019.6 mb 0.00 in0.0 mm 0.00 in0.0 mm 0.00 in0.0 mm
08:09 AM 25.2°F-3.8°C 17.5°F-8.1°C 72% 2.5 mph S4.0 kmh S 3.0 mph4.8 kmh 30.11 in1019.6 mb 0.00 in0.0 mm 0.00 in0.0 mm 0.00 in0.0 mm
08:10 AM 25.1°F-3.8°C 17.4°F-8.1°C 72% 3.1 mph S5.0 kmh S 5.0 mph8.0 kmh 30.11 in1019.6 mb 0.00 in0.0 mm 0.00 in0.0 mm 0.00 in0.0 mm
08:11 AM 25.1°F-3.8°C 17.4°F-8.1°C 72% 2.3 mph S3.7 kmh S 5.0 mph8.0 kmh 30.10 in1019.3 mb 0.00 in0.0 mm 0.00 in0.0 mm 0.00 in0.0 mm
08:12 AM 25.1°F-3.8°C 17.4°F-8.1°C 72% 3.9 mph S6.3 kmh S 6.0 mph9.7 kmh 30.10 in1019.3 mb 0.00 in0.0 mm 0.00 in0.0 mm 0.00 in0.0 mm
08:13 AM 25.0°F-3.9°C 17.3°F-8.2°C 72% 2.5 mph S4.0 kmh S 6.0 mph9.7 kmh 30.10 in1019.3 mb 0.00 in0.0 mm 0.00 in0.0 mm 0.00 in0.0 mm
08:14 AM 25.0°F-3.9°C 17.3°F-8.2°C 72% 3.3 mph S5.3 kmh S 4.0 mph6.4 kmh 30.10 in1019.3 mb 0.00 in0.0 mm 0.00 in0.0 mm 0.00 in0.0 mm
08:15 AM 25.0°F-3.9°C 17.3°F-8.2°C 72% 3.6 mph S5.8 kmh S 4.0 mph6.4 kmh 30.11 in1019.6 mb 0.00 in0.0 mm 0.00 in0.0 mm 0.00 in0.0 mm
08:16 AM 25.0°F-3.9°C 17.3°F-8.2°C 72% 3.9 mph S6.3 kmh S 4.0 mph6.4 kmh 30.11 in1019.6 mb 0.00 in0.0 mm 0.00 in0.0 mm 0.00 in0.0 mm
08:17 AM 25.0°F-3.9°C 17.3°F-8.2°C 72% 4.1 mph S6.6 kmh S 5.0 mph8.0 kmh 30.10 in1019.3 mb 0.00 in0.0 mm 0.00 in0.0 mm 0.00 in0.0 mm
08:18 AM 25.0°F-3.9°C 17.3°F-8.2°C 72% 3.5 mph S5.6 kmh S 5.0 mph8.0 kmh 30.10 in1019.3 mb 0.00 in0.0 mm 0.00 in0.0 mm 0.00 in0.0 mm
08:19 AM 25.0°F-3.9°C 17.3°F-8.2°C 72% 4.1 mph S6.6 kmh S 5.0 mph8.0 kmh 30.10 in1019.3 mb 0.00 in0.0 mm 0.00 in0.0 mm 0.00 in0.0 mm
08:20 AM 25.0°F-3.9°C 17.3°F-8.2°C 72% 3.1 mph S5.0 kmh S 5.0 mph8.0 kmh 30.10 in1019.3 mb 0.00 in0.0 mm 0.00 in0.0 mm 0.00 in0.0 mm
08:21 AM 25.0°F-3.9°C 17.3°F-8.2°C 72% 3.3 mph S5.3 kmh S 5.0 mph8.0 kmh 30.10 in1019.3 mb 0.00 in0.0 mm 0.00 in0.0 mm 0.00 in0.0 mm
08:22 AM 25.0°F-3.9°C 17.3°F-8.2°C 72% 2.7 mph S4.3 kmh S 5.0 mph8.0 kmh 30.10 in1019.3 mb 0.00 in0.0 mm 0.00 in0.0 mm 0.00 in0.0 mm
08:23 AM 25.0°F-3.9°C 17.3°F-8.2°C 72% 3.8 mph S6.1 kmh S 5.0 mph8.0 kmh 30.10 in1019.3 mb 0.00 in0.0 mm 0.00 in0.0 mm 0.00 in0.0 mm
08:24 AM 24.9°F-3.9°C 17.2°F-8.2°C 72% 4.7 mph S7.6 kmh S 6.0 mph9.7 kmh 30.10 in1019.3 mb 0.00 in0.0 mm 0.00 in0.0 mm 0.00 in0.0 mm
08:25 AM 24.9°F-3.9°C 17.2°F-8.2°C 72% 4.6 mph S7.4 kmh S 6.0 mph9.7 kmh 30.10 in1019.3 mb 0.00 in0.0 mm 0.00 in0.0 mm 0.00 in0.0 mm
08:26 AM 25.0°F-3.9°C 17.3°F-8.2°C 72% 3.8 mph S6.1 kmh S 6.0 mph9.7 kmh 30.10 in1019.3 mb 0.00 in0.0 mm 0.00 in0.0 mm 0.00 in0.0 mm
08:27 AM 24.9°F-3.9°C 17.2°F-8.2°C 72% 2.7 mph S4.3 kmh S 5.0 mph8.0 kmh 30.10 in1019.3 mb 0.00 in0.0 mm 0.00 in0.0 mm 0.00 in0.0 mm
08:28 AM 24.9°F-3.9°C 16.9°F-8.4°C 71% 2.4 mph S3.9 kmh S 5.0 mph8.0 kmh 30.10 in1019.3 mb 0.00 in0.0 mm 0.00 in0.0 mm 0.00 in0.0 mm
08:29 AM 24.9°F-3.9°C 16.9°F-8.4°C 71% 1.8 mph S2.9 kmh S 3.0 mph4.8 kmh 30.10 in1019.3 mb 0.00 in0.0 mm 0.00 in0.0 mm 0.00 in0.0 mm
08:30 AM 25.0°F-3.9°C 16.9°F-8.4°C 71% 2.1 mph S3.4 kmh S 3.0 mph4.8 kmh 30.10 in1019.3 mb 0.00 in0.0 mm 0.00 in0.0 mm 0.00 in0.0 mm
08:31 AM 25.0°F-3.9°C 16.9°F-8.4°C 71% 2.1 mph S3.4 kmh S 3.0 mph4.8 kmh 30.10 in1019.3 mb 0.00 in0.0 mm 0.00 in0.0 mm 0.00 in0.0 mm
08:32 AM 25.0°F-3.9°C 16.9°F-8.4°C 71% 1.7 mph S2.7 kmh S 3.0 mph4.8 kmh 30.10 in1019.3 mb 0.00 in0.0 mm 0.00 in0.0 mm 0.00 in0.0 mm
08:33 AM 25.0°F-3.9°C 16.9°F-8.4°C 71% 1.9 mph S3.1 kmh S 3.0 mph4.8 kmh 30.10 in1019.3 mb 0.00 in0.0 mm 0.00 in0.0 mm 0.00 in0.0 mm
08:34 AM 25.0°F-3.9°C 16.9°F-8.4°C 71% 1.8 mph S2.9 kmh S 3.0 mph4.8 kmh 30.10 in1019.3 mb 0.00 in0.0 mm 0.00 in0.0 mm 0.00 in0.0 mm
08:35 AM 25.0°F-3.9°C 16.9°F-8.4°C 71% 2.0 mph S3.2 kmh S 3.0 mph4.8 kmh 30.10 in1019.3 mb 0.00 in0.0 mm 0.00 in0.0 mm 0.00 in0.0 mm
08:36 AM 25.0°F-3.9°C 16.9°F-8.4°C 71% 1.9 mph S3.1 kmh S 3.0 mph4.8 kmh 30.10 in1019.3 mb 0.00 in0.0 mm 0.00 in0.0 mm 0.00 in0.0 mm
08:37 AM 25.0°F-3.9°C 16.9°F-8.4°C 71% 1.9 mph S3.1 kmh S 2.0 mph3.2 kmh 30.10 in1019.3 mb 0.00 in0.0 mm 0.00 in0.0 mm 0.00 in0.0 mm
08:38 AM 25.0°F-3.9°C 16.9°F-8.4°C 71% 2.0 mph S3.2 kmh S 3.0 mph4.8 kmh 30.10 in1019.3 mb 0.00 in0.0 mm 0.00 in0.0 mm 0.00 in0.0 mm
08:39 AM 25.0°F-3.9°C 17.3°F-8.2°C 72% 2.0 mph S3.2 kmh S 3.0 mph4.8 kmh 30.10 in1019.3 mb 0.00 in0.0 mm 0.00 in0.0 mm 0.00 in0.0 mm
08:40 AM 24.9°F-3.9°C 17.2°F-8.2°C 72% 2.3 mph S3.7 kmh S 3.0 mph4.8 kmh 30.10 in1019.3 mb 0.00 in0.0 mm 0.00 in0.0 mm 0.00 in0.0 mm
08:41 AM 24.9°F-3.9°C 17.2°F-8.2°C 72% 3.9 mph S6.3 kmh S 5.0 mph8.0 kmh 30.10 in1019.3 mb 0.00 in0.0 mm 0.00 in0.0 mm 0.00 in0.0 mm
08:42 AM 24.9°F-3.9°C 17.2°F-8.2°C 72% 3.4 mph S5.5 kmh S 5.0 mph8.0 kmh 30.10 in1019.3 mb 0.00 in0.0 mm 0.00 in0.0 mm 0.00 in0.0 mm
08:43 AM 24.9°F-3.9°C 17.2°F-8.2°C 72% 4.0 mph S6.4 kmh S 5.0 mph8.0 kmh 30.10 in1019.3 mb 0.00 in0.0 mm 0.00 in0.0 mm 0.00 in0.0 mm
08:44 AM 24.8°F-4.0°C 17.1°F-8.3°C 72% 3.3 mph S5.3 kmh S 5.0 mph8.0 kmh 30.10 in1019.3 mb 0.00 in0.0 mm 0.00 in0.0 mm 0.00 in0.0 mm
08:45 AM 24.9°F-3.9°C 17.2°F-8.2°C 72% 3.7 mph S6.0 kmh S 5.0 mph8.0 kmh 30.10 in1019.3 mb 0.00 in0.0 mm 0.00 in0.0 mm 0.00 in0.0 mm
08:46 AM 24.8°F-4.0°C 17.1°F-8.3°C 72% 3.5 mph S5.6 kmh S 5.0 mph8.0 kmh 30.10 in1019.3 mb 0.00 in0.0 mm 0.00 in0.0 mm 0.00 in0.0 mm
08:47 AM 24.9°F-3.9°C 17.2°F-8.2°C 72% 3.9 mph S6.3 kmh S 5.0 mph8.0 kmh 30.10 in1019.3 mb 0.00 in0.0 mm 0.00 in0.0 mm 0.00 in0.0 mm
08:48 AM 24.9°F-3.9°C 17.2°F-8.2°C 72% 3.7 mph S6.0 kmh S 5.0 mph8.0 kmh 30.10 in1019.3 mb 0.00 in0.0 mm 0.00 in0.0 mm 0.00 in0.0 mm
08:49 AM 25.0°F-3.9°C 17.3°F-8.2°C 72% 3.9 mph S6.3 kmh S 5.0 mph8.0 kmh 30.09 in1019.0 mb 0.00 in0.0 mm 0.00 in0.0 mm 0.00 in0.0 mm
08:50 AM 25.1°F-3.8°C 17.4°F-8.1°C 72% 3.4 mph S5.5 kmh S 6.0 mph9.7 kmh 30.10 in1019.3 mb 0.00 in0.0 mm 0.00 in0.0 mm 0.00 in0.0 mm
08:51 AM 25.1°F-3.8°C 17.4°F-8.1°C 72% 3.8 mph S6.1 kmh S 6.0 mph9.7 kmh 30.10 in1019.3 mb 0.00 in0.0 mm 0.00 in0.0 mm 0.00 in0.0 mm
08:52 AM 25.1°F-3.8°C 17.4°F-8.1°C 72% 3.8 mph S6.1 kmh S 5.0 mph8.0 kmh 30.10 in1019.3 mb 0.00 in0.0 mm 0.00 in0.0 mm 0.00 in0.0 mm
08:53 AM 25.2°F-3.8°C 17.5°F-8.1°C 72% 2.8 mph S4.5 kmh S 5.0 mph8.0 kmh 30.09 in1019.0 mb 0.00 in0.0 mm 0.00 in0.0 mm 0.00 in0.0 mm
08:54 AM 25.2°F-3.8°C 17.5°F-8.1°C 72% 2.8 mph S4.5 kmh S 4.0 mph6.4 kmh 30.09 in1019.0 mb 0.00 in0.0 mm 0.00 in0.0 mm 0.00 in0.0 mm
08:55 AM 25.2°F-3.8°C 17.5°F-8.1°C 72% 3.4 mph S5.5 kmh S 6.0 mph9.7 kmh 30.09 in1019.0 mb 0.00 in0.0 mm 0.00 in0.0 mm 0.00 in0.0 mm
08:56 AM 25.2°F-3.8°C 17.5°F-8.1°C 72% 4.3 mph S6.9 kmh S 6.0 mph9.7 kmh 30.09 in1019.0 mb 0.00 in0.0 mm 0.00 in0.0 mm 0.00 in0.0 mm
08:57 AM 25.3°F-3.7°C 17.6°F-8.0°C 72% 3.3 mph S5.3 kmh S 6.0 mph9.7 kmh 30.09 in1019.0 mb 0.00 in0.0 mm 0.00 in0.0 mm 0.00 in0.0 mm
08:58 AM 25.3°F-3.7°C 17.6°F-8.0°C 72% 3.9 mph S6.3 kmh S 5.0 mph8.0 kmh 30.09 in1019.0 mb 0.00 in0.0 mm 0.00 in0.0 mm 0.00 in0.0 mm
08:59 AM 25.2°F-3.8°C 17.5°F-8.1°C 72% 3.5 mph S5.6 kmh S 5.0 mph8.0 kmh 30.09 in1019.0 mb 0.00 in0.0 mm 0.00 in0.0 mm 0.00 in0.0 mm
09:00 AM 25.3°F-3.7°C 17.6°F-8.0°C 72% 3.9 mph S6.3 kmh S 5.0 mph8.0 kmh 30.09 in1019.0 mb 0.00 in0.0 mm 0.00 in0.0 mm 0.00 in0.0 mm
09:01 AM 25.3°F-3.7°C 17.6°F-8.0°C 72% 4.3 mph S6.9 kmh S 5.0 mph8.0 kmh 30.09 in1019.0 mb 0.00 in0.0 mm 0.00 in0.0 mm 0.00 in0.0 mm
09:02 AM 25.2°F-3.8°C 17.5°F-8.1°C 72% 3.0 mph S4.8 kmh S 5.0 mph8.0 kmh 30.09 in1019.0 mb 0.00 in0.0 mm 0.00 in0.0 mm 0.00 in0.0 mm
09:03 AM 25.2°F-3.8°C 17.5°F-8.1°C 72% 3.0 mph S4.8 kmh S 4.0 mph6.4 kmh 30.09 in1019.0 mb 0.00 in0.0 mm 0.00 in0.0 mm 0.00 in0.0 mm
09:04 AM 25.3°F-3.7°C 17.6°F-8.0°C 72% 3.9 mph S6.3 kmh S 5.0 mph8.0 kmh 30.09 in1019.0 mb 0.00 in0.0 mm 0.00 in0.0 mm 0.00 in0.0 mm
09:05 AM 25.2°F-3.8°C 17.5°F-8.1°C 72% 3.5 mph S5.6 kmh S 5.0 mph8.0 kmh 30.09 in1019.0 mb 0.00 in0.0 mm 0.00 in0.0 mm 0.00 in0.0 mm
09:06 AM 25.2°F-3.8°C 17.5°F-8.1°C 72% 4.5 mph S7.2 kmh S 7.0 mph11.3 kmh 30.09 in1019.0 mb 0.00 in0.0 mm 0.00 in0.0 mm 0.00 in0.0 mm
09:07 AM 25.3°F-3.7°C 17.6°F-8.0°C 72% 3.8 mph S6.1 kmh S 7.0 mph11.3 kmh 30.09 in1019.0 mb 0.00 in0.0 mm 0.00 in0.0 mm 0.00 in0.0 mm
09:08 AM 25.3°F-3.7°C 17.6°F-8.0°C 72% 3.6 mph S5.8 kmh S 5.0 mph8.0 kmh 30.09 in1019.0 mb 0.00 in0.0 mm 0.00 in0.0 mm 0.00 in0.0 mm
09:09 AM 25.3°F-3.7°C 17.6°F-8.0°C 72% 3.1 mph S5.0 kmh S 4.0 mph6.4 kmh 30.09 in1019.0 mb 0.00 in0.0 mm 0.00 in0.0 mm 0.00 in0.0 mm
09:10 AM 25.3°F-3.7°C 17.6°F-8.0°C 72% 3.2 mph S5.1 kmh S 5.0 mph8.0 kmh 30.09 in1019.0 mb 0.00 in0.0 mm 0.00 in0.0 mm 0.00 in0.0 mm
09:11 AM 25.3°F-3.7°C 17.6°F-8.0°C 72% 3.2 mph S5.1 kmh S 5.0 mph8.0 kmh 30.09 in1019.0 mb 0.00 in0.0 mm 0.00 in0.0 mm 0.00 in0.0 mm
09:12 AM 25.4°F-3.7°C 17.7°F-7.9°C 72% 3.7 mph S6.0 kmh S 5.0 mph8.0 kmh 30.09 in1019.0 mb 0.00 in0.0 mm 0.00 in0.0 mm 0.00 in0.0 mm
09:13 AM 25.4°F-3.7°C 17.7°F-7.9°C 72% 3.2 mph S5.1 kmh S 5.0 mph8.0 kmh 30.09 in1019.0 mb 0.00 in0.0 mm 0.00 in0.0 mm 0.00 in0.0 mm
09:14 AM 25.4°F-3.7°C 17.7°F-7.9°C 72% 3.7 mph S6.0 kmh S 5.0 mph8.0 kmh 30.09 in1019.0 mb 0.00 in0.0 mm 0.00 in0.0 mm 0.00 in0.0 mm
09:15 AM 25.4°F-3.7°C 17.7°F-7.9°C 72% 3.1 mph S5.0 kmh S 5.0 mph8.0 kmh 30.09 in1019.0 mb 0.00 in0.0 mm 0.00 in0.0 mm 0.00 in0.0 mm
09:16 AM 25.5°F-3.6°C 17.8°F-7.9°C 72% 3.4 mph S5.5 kmh S 5.0 mph8.0 kmh 30.09 in1019.0 mb 0.00 in0.0 mm 0.00 in0.0 mm 0.00 in0.0 mm
09:17 AM 25.5°F-3.6°C 17.8°F-7.9°C 72% 4.0 mph S6.4 kmh S 6.0 mph9.7 kmh 30.09 in1019.0 mb 0.00 in0.0 mm 0.00 in0.0 mm 0.00 in0.0 mm
09:18 AM 25.5°F-3.6°C 17.8°F-7.9°C 72% 3.8 mph S6.1 kmh S 6.0 mph9.7 kmh 30.09 in1019.0 mb 0.00 in0.0 mm 0.00 in0.0 mm 0.00 in0.0 mm
09:19 AM 25.6°F-3.6°C 17.8°F-7.9°C 72% 3.7 mph S6.0 kmh S 5.0 mph8.0 kmh 30.09 in1019.0 mb 0.00 in0.0 mm 0.00 in0.0 mm 0.00 in0.0 mm
09:20 AM 25.6°F-3.6°C 17.8°F-7.9°C 72% 3.4 mph S5.5 kmh S 5.0 mph8.0 kmh 30.09 in1019.0 mb 0.00 in0.0 mm 0.00 in0.0 mm 0.00 in0.0 mm
09:21 AM 25.6°F-3.6°C 17.5°F-8.1°C 71% 4.2 mph S6.8 kmh S 5.0 mph8.0 kmh 30.09 in1019.0 mb 0.00 in0.0 mm 0.00 in0.0 mm 0.00 in0.0 mm
09:22 AM 25.6°F-3.6°C 17.5°F-8.1°C 71% 3.5 mph S5.6 kmh S 5.0 mph8.0 kmh 30.09 in1019.0 mb 0.00 in0.0 mm 0.00 in0.0 mm 0.00 in0.0 mm
09:23 AM 25.7°F-3.5°C 17.6°F-8.0°C 71% 3.5 mph S5.6 kmh S 4.0 mph6.4 kmh 30.09 in1019.0 mb 0.00 in0.0 mm 0.00 in0.0 mm 0.00 in0.0 mm
09:24 AM 25.7°F-3.5°C 17.6°F-8.0°C 71% 3.5 mph S5.6 kmh S 5.0 mph8.0 kmh 30.09 in1019.0 mb 0.00 in0.0 mm 0.00 in0.0 mm 0.00 in0.0 mm
09:25 AM 25.7°F-3.5°C 17.6°F-8.0°C 71% 2.6 mph S4.2 kmh S 4.0 mph6.4 kmh 30.09 in1019.0 mb 0.00 in0.0 mm 0.00 in0.0 mm 0.00 in0.0 mm
09:26 AM 25.8°F-3.4°C 17.7°F-7.9°C 71% 2.1 mph S3.4 kmh S 4.0 mph6.4 kmh 30.09 in1019.0 mb 0.00 in0.0 mm 0.00 in0.0 mm 0.00 in0.0 mm
09:27 AM 25.8°F-3.4°C 17.7°F-7.9°C 71% 2.2 mph S3.5 kmh S 3.0 mph4.8 kmh 30.09 in1019.0 mb 0.00 in0.0 mm 0.00 in0.0 mm 0.00 in0.0 mm
09:28 AM 25.8°F-3.4°C 17.7°F-7.9°C 71% 2.5 mph S4.0 kmh S 3.0 mph4.8 kmh 30.09 in1019.0 mb 0.00 in0.0 mm 0.00 in0.0 mm 0.00 in0.0 mm
09:29 AM 25.9°F-3.4°C 17.8°F-7.9°C 71% 2.1 mph S3.4 kmh S 3.0 mph4.8 kmh 30.09 in1019.0 mb 0.00 in0.0 mm 0.00 in0.0 mm 0.00 in0.0 mm
09:30 AM 25.9°F-3.4°C 17.8°F-7.9°C 71% 2.8 mph S4.5 kmh S 4.0 mph6.4 kmh 30.09 in1019.0 mb 0.00 in0.0 mm 0.00 in0.0 mm 0.00 in0.0 mm
09:31 AM 25.9°F-3.4°C 17.8°F-7.9°C 71% 3.7 mph S6.0 kmh S 4.0 mph6.4 kmh 30.09 in1019.0 mb 0.00 in0.0 mm 0.00 in0.0 mm 0.00 in0.0 mm
09:32 AM 25.9°F-3.4°C 17.8°F-7.9°C 71% 3.0 mph S4.8 kmh S 4.0 mph6.4 kmh 30.09 in1019.0 mb 0.00 in0.0 mm 0.00 in0.0 mm 0.00 in0.0 mm
09:33 AM 25.9°F-3.4°C 17.5°F-8.1°C 70% 3.1 mph S5.0 kmh S 4.0 mph6.4 kmh 30.09 in1019.0 mb 0.00 in0.0 mm 0.00 in0.0 mm 0.00 in0.0 mm
09:34 AM 26.0°F-3.3°C 17.6°F-8.0°C 70% 3.8 mph S6.1 kmh S 5.0 mph8.0 kmh 30.09 in1019.0 mb 0.00 in0.0 mm 0.00 in0.0 mm 0.00 in0.0 mm
09:35 AM 26.0°F-3.3°C 17.6°F-8.0°C 70% 3.6 mph S5.8 kmh S 5.0 mph8.0 kmh 30.09 in1019.0 mb 0.00 in0.0 mm 0.00 in0.0 mm 0.00 in0.0 mm
09:36 AM 26.0°F-3.3°C 17.6°F-8.0°C 70% 3.3 mph S5.3 kmh S 5.0 mph8.0 kmh 30.09 in1019.0 mb 0.00 in0.0 mm 0.00 in0.0 mm 0.00 in0.0 mm
09:37 AM 26.0°F-3.3°C 17.6°F-8.0°C 70% 4.0 mph S6.4 kmh S 5.0 mph8.0 kmh 30.09 in1019.0 mb 0.00 in0.0 mm 0.00 in0.0 mm 0.00 in0.0 mm
09:38 AM 26.1°F-3.3°C 17.3°F-8.2°C 69% 3.6 mph S5.8 kmh S 5.0 mph8.0 kmh 30.08 in1018.6 mb 0.00 in0.0 mm 0.00 in0.0 mm 0.00 in0.0 mm
09:39 AM 26.1°F-3.3°C 17.3°F-8.2°C 69% 2.4 mph S3.9 kmh S 5.0 mph8.0 kmh 30.09 in1019.0 mb 0.00 in0.0 mm 0.00 in0.0 mm 0.00 in0.0 mm
09:40 AM 26.1°F-3.3°C 17.3°F-8.2°C 69% 1.6 mph S2.6 kmh S 3.0 mph4.8 kmh 30.09 in1019.0 mb 0.00 in0.0 mm 0.00 in0.0 mm 0.00 in0.0 mm
09:41 AM 26.2°F-3.2°C 17.4°F-8.1°C 69% 2.0 mph S3.2 kmh S 3.0 mph4.8 kmh 30.09 in1019.0 mb 0.00 in0.0 mm 0.00 in0.0 mm 0.00 in0.0 mm
09:42 AM 26.2°F-3.2°C 17.4°F-8.1°C 69% 1.4 mph S2.3 kmh S 3.0 mph4.8 kmh 30.08 in1018.6 mb 0.00 in0.0 mm 0.00 in0.0 mm 0.00 in0.0 mm
09:43 AM 26.3°F-3.2°C 17.5°F-8.1°C 69% 1.9 mph S3.1 kmh S 3.0 mph4.8 kmh 30.08 in1018.6 mb 0.00 in0.0 mm 0.00 in0.0 mm 0.00 in0.0 mm
09:44 AM 26.3°F-3.2°C 17.5°F-8.1°C 69% 1.7 mph S2.7 kmh S 3.0 mph4.8 kmh 30.08 in1018.6 mb 0.00 in0.0 mm 0.00 in0.0 mm 0.00 in0.0 mm
09:45 AM 26.3°F-3.2°C 17.5°F-8.1°C 69% 2.8 mph S4.5 kmh S 4.0 mph6.4 kmh 30.08 in1018.6 mb 0.00 in0.0 mm 0.00 in0.0 mm 0.00 in0.0 mm
09:46 AM 26.3°F-3.2°C 17.5°F-8.1°C 69% 3.3 mph S5.3 kmh S 4.0 mph6.4 kmh 30.08 in1018.6 mb 0.00 in0.0 mm 0.00 in0.0 mm 0.00 in0.0 mm
09:47 AM 26.4°F-3.1°C 17.6°F-8.0°C 69% 1.7 mph S2.7 kmh S 4.0 mph6.4 kmh 30.08 in1018.6 mb 0.00 in0.0 mm 0.00 in0.0 mm 0.00 in0.0 mm
09:48 AM 26.4°F-3.1°C 17.6°F-8.0°C 69% 2.0 mph S3.2 kmh S 3.0 mph4.8 kmh 30.08 in1018.6 mb 0.00 in0.0 mm 0.00 in0.0 mm 0.00 in0.0 mm
09:49 AM 26.4°F-3.1°C 17.6°F-8.0°C 69% 3.3 mph S5.3 kmh S 5.0 mph8.0 kmh 30.08 in1018.6 mb 0.00 in0.0 mm 0.00 in0.0 mm 0.00 in0.0 mm
09:50 AM 26.5°F-3.1°C 17.7°F-7.9°C 69% 3.5 mph S5.6 kmh S 5.0 mph8.0 kmh 30.08 in1018.6 mb 0.00 in0.0 mm 0.00 in0.0 mm 0.00 in0.0 mm
09:51 AM 26.4°F-3.1°C 17.6°F-8.0°C 69% 2.4 mph S3.9 kmh S 4.0 mph6.4 kmh 30.08 in1018.6 mb 0.00 in0.0 mm 0.00 in0.0 mm 0.00 in0.0 mm
09:52 AM 26.5°F-3.1°C 17.7°F-7.9°C 69% 3.3 mph S5.3 kmh S 5.0 mph8.0 kmh 30.08 in1018.6 mb 0.00 in0.0 mm 0.00 in0.0 mm 0.00 in0.0 mm
09:53 AM 26.5°F-3.1°C 17.7°F-7.9°C 69% 3.4 mph S5.5 kmh S 5.0 mph8.0 kmh 30.08 in1018.6 mb 0.00 in0.0 mm 0.00 in0.0 mm 0.00 in0.0 mm
09:54 AM 26.5°F-3.1°C 17.7°F-7.9°C 69% 4.1 mph S6.6 kmh S 5.0 mph8.0 kmh 30.08 in1018.6 mb 0.00 in0.0 mm 0.00 in0.0 mm 0.00 in0.0 mm
09:55 AM 26.5°F-3.1°C 17.7°F-7.9°C 69% 5.5 mph S8.9 kmh S 7.0 mph11.3 kmh 30.08 in1018.6 mb 0.00 in0.0 mm 0.00 in0.0 mm 0.00 in0.0 mm
09:56 AM 26.5°F-3.1°C 17.4°F-8.1°C 68% 3.6 mph S5.8 kmh S 7.0 mph11.3 kmh 30.08 in1018.6 mb 0.00 in0.0 mm 0.00 in0.0 mm 0.00 in0.0 mm
09:57 AM 26.5°F-3.1°C 17.4°F-8.1°C 68% 3.7 mph S6.0 kmh S 5.0 mph8.0 kmh 30.08 in1018.6 mb 0.00 in0.0 mm 0.00 in0.0 mm 0.00 in0.0 mm
09:58 AM 26.5°F-3.1°C 17.4°F-8.1°C 68% 3.4 mph S5.5 kmh S 5.0 mph8.0 kmh 30.08 in1018.6 mb 0.00 in0.0 mm 0.00 in0.0 mm 0.00 in0.0 mm
09:59 AM 26.5°F-3.1°C 17.4°F-8.1°C 68% 3.5 mph S5.6 kmh S 7.0 mph11.3 kmh 30.08 in1018.6 mb 0.00 in0.0 mm 0.00 in0.0 mm 0.00 in0.0 mm
10:00 AM 26.5°F-3.1°C 17.4°F-8.1°C 68% 4.5 mph S7.2 kmh S 7.0 mph11.3 kmh 30.08 in1018.6 mb 0.00 in0.0 mm 0.00 in0.0 mm 0.00 in0.0 mm
10:01 AM 26.5°F-3.1°C 17.4°F-8.1°C 68% 5.5 mph S8.9 kmh S 7.0 mph11.3 kmh 30.08 in1018.6 mb 0.00 in0.0 mm 0.00 in0.0 mm 0.00 in0.0 mm
10:02 AM 26.5°F-3.1°C 17.4°F-8.1°C 68% 6.3 mph S10.1 kmh S 8.0 mph12.9 kmh 30.08 in1018.6 mb 0.00 in0.0 mm 0.00 in0.0 mm 0.00 in0.0 mm
10:03 AM 26.6°F-3.0°C 17.5°F-8.1°C 68% 5.9 mph S9.5 kmh S 8.0 mph12.9 kmh 30.08 in1018.6 mb 0.00 in0.0 mm 0.00 in0.0 mm 0.00 in0.0 mm
10:04 AM 26.6°F-3.0°C 17.5°F-8.1°C 68% 5.3 mph S8.5 kmh S 7.0 mph11.3 kmh 30.07 in1018.3 mb 0.00 in0.0 mm 0.00 in0.0 mm 0.00 in0.0 mm
10:05 AM 26.6°F-3.0°C 17.5°F-8.1°C 68% 3.5 mph S5.6 kmh S 7.0 mph11.3 kmh 30.08 in1018.6 mb 0.00 in0.0 mm 0.00 in0.0 mm 0.00 in0.0 mm
10:06 AM 26.7°F-2.9°C 17.6°F-8.0°C 68% 2.8 mph S4.5 kmh S 6.0 mph9.7 kmh 30.08 in1018.6 mb 0.00 in0.0 mm 0.00 in0.0 mm 0.00 in0.0 mm
10:07 AM 26.6°F-3.0°C 17.8°F-7.9°C 69% 3.5 mph S5.6 kmh S 4.0 mph6.4 kmh 30.07 in1018.3 mb 0.00 in0.0 mm 0.00 in0.0 mm 0.00 in0.0 mm
10:08 AM 26.7°F-2.9°C 17.9°F-7.8°C 69% 3.3 mph S5.3 kmh S 4.0 mph6.4 kmh 30.08 in1018.6 mb 0.00 in0.0 mm 0.00 in0.0 mm 0.00 in0.0 mm
10:09 AM 26.7°F-2.9°C 17.6°F-8.0°C 68% 4.2 mph S6.8 kmh S 7.0 mph11.3 kmh 30.08 in1018.6 mb 0.00 in0.0 mm 0.00 in0.0 mm 0.00 in0.0 mm
10:10 AM 26.6°F-3.0°C 17.5°F-8.1°C 68% 3.7 mph S6.0 kmh S 7.0 mph11.3 kmh 30.07 in1018.3 mb 0.00 in0.0 mm 0.00 in0.0 mm 0.00 in0.0 mm
10:11 AM 26.7°F-2.9°C 17.6°F-8.0°C 68% 4.2 mph S6.8 kmh S 6.0 mph9.7 kmh 30.07 in1018.3 mb 0.00 in0.0 mm 0.00 in0.0 mm 0.00 in0.0 mm
10:12 AM 26.7°F-2.9°C 17.6°F-8.0°C 68% 4.1 mph S6.6 kmh S 6.0 mph9.7 kmh 30.07 in1018.3 mb 0.00 in0.0 mm 0.00 in0.0 mm 0.00 in0.0 mm
10:13 AM 26.6°F-3.0°C 17.5°F-8.1°C 68% 3.6 mph S5.8 kmh S 5.0 mph8.0 kmh 30.07 in1018.3 mb 0.00 in0.0 mm 0.00 in0.0 mm 0.00 in0.0 mm
10:14 AM 26.6°F-3.0°C 17.5°F-8.1°C 68% 2.8 mph S4.5 kmh S 5.0 mph8.0 kmh 30.07 in1018.3 mb 0.00 in0.0 mm 0.00 in0.0 mm 0.00 in0.0 mm
10:15 AM 26.7°F-2.9°C 17.6°F-8.0°C 68% 3.3 mph S5.3 kmh S 5.0 mph8.0 kmh 30.07 in1018.3 mb 0.00 in0.0 mm 0.00 in0.0 mm 0.00 in0.0 mm
10:16 AM 26.7°F-2.9°C 17.6°F-8.0°C 68% 3.4 mph S5.5 kmh S 5.0 mph8.0 kmh 30.07 in1018.3 mb 0.00 in0.0 mm 0.00 in0.0 mm 0.00 in0.0 mm
10:17 AM 26.7°F-2.9°C 17.6°F-8.0°C 68% 1.6 mph S2.6 kmh S 5.0 mph8.0 kmh 30.07 in1018.3 mb 0.00 in0.0 mm 0.00 in0.0 mm 0.00 in0.0 mm
10:18 AM 26.6°F-3.0°C 17.5°F-8.1°C 68% 4.7 mph S7.6 kmh S 7.0 mph11.3 kmh 30.07 in1018.3 mb 0.00 in0.0 mm 0.00 in0.0 mm 0.00 in0.0 mm
10:19 AM 26.7°F-2.9°C 17.6°F-8.0°C 68% 5.0 mph SSE8.0 kmh SSE 7.0 mph11.3 kmh 30.07 in1018.3 mb 0.00 in0.0 mm 0.00 in0.0 mm 0.00 in0.0 mm
10:20 AM 26.6°F-3.0°C 17.5°F-8.1°C 68% 3.2 mph SSE5.1 kmh SSE 6.0 mph9.7 kmh 30.07 in1018.3 mb 0.00 in0.0 mm 0.00 in0.0 mm 0.00 in0.0 mm
10:21 AM 26.7°F-2.9°C 17.6°F-8.0°C 68% 3.3 mph SSE5.3 kmh SSE 5.0 mph8.0 kmh 30.07 in1018.3 mb 0.00 in0.0 mm 0.00 in0.0 mm 0.00 in0.0 mm
10:22 AM 26.6°F-3.0°C 17.5°F-8.1°C 68% 5.3 mph SSE8.5 kmh SSE 7.0 mph11.3 kmh 30.07 in1018.3 mb 0.00 in0.0 mm 0.00 in0.0 mm 0.00 in0.0 mm
10:23 AM 26.7°F-2.9°C 17.6°F-8.0°C 68% 5.3 mph SSE8.5 kmh SSE 7.0 mph11.3 kmh 30.07 in1018.3 mb 0.00 in0.0 mm 0.00 in0.0 mm 0.00 in0.0 mm
10:24 AM 26.7°F-2.9°C 17.2°F-8.2°C 67% 4.7 mph SSE7.6 kmh SSE 6.0 mph9.7 kmh 30.07 in1018.3 mb 0.00 in0.0 mm 0.00 in0.0 mm 0.00 in0.0 mm
10:25 AM 26.8°F-2.9°C 17.3°F-8.2°C 67% 5.0 mph SSE8.0 kmh SSE 6.0 mph9.7 kmh 30.07 in1018.3 mb 0.00 in0.0 mm 0.00 in0.0 mm 0.00 in0.0 mm
10:26 AM 26.8°F-2.9°C 17.3°F-8.2°C 67% 5.3 mph SSE8.5 kmh SSE 6.0 mph9.7 kmh 30.07 in1018.3 mb 0.00 in0.0 mm 0.00 in0.0 mm 0.00 in0.0 mm
10:27 AM 26.9°F-2.8°C 17.8°F-7.9°C 68% 2.7 mph SSE4.3 kmh SSE 6.0 mph9.7 kmh 30.07 in1018.3 mb 0.00 in0.0 mm 0.00 in0.0 mm 0.00 in0.0 mm
10:28 AM 27.0°F-2.8°C 17.9°F-7.8°C 68% 3.1 mph SSE5.0 kmh SSE 5.0 mph8.0 kmh 30.07 in1018.3 mb 0.00 in0.0 mm 0.00 in0.0 mm 0.00 in0.0 mm
10:29 AM 27.1°F-2.7°C 18.0°F-7.8°C 68% 2.2 mph SSE3.5 kmh SSE 4.0 mph6.4 kmh 30.07 in1018.3 mb 0.00 in0.0 mm 0.00 in0.0 mm 0.00 in0.0 mm
10:30 AM 27.1°F-2.7°C 17.6°F-8.0°C 67% 1.8 mph SSE2.9 kmh SSE 4.0 mph6.4 kmh 30.07 in1018.3 mb 0.00 in0.0 mm 0.00 in0.0 mm 0.00 in0.0 mm
10:31 AM 27.2°F-2.7°C 17.7°F-7.9°C 67% 1.5 mph SSE2.4 kmh SSE 4.0 mph6.4 kmh 30.07 in1018.3 mb 0.00 in0.0 mm 0.00 in0.0 mm 0.00 in0.0 mm
10:32 AM 27.3°F-2.6°C 17.8°F-7.9°C 67% 3.0 mph SSE4.8 kmh SSE 5.0 mph8.0 kmh 30.07 in1018.3 mb 0.00 in0.0 mm 0.00 in0.0 mm 0.00 in0.0 mm
10:33 AM 27.3°F-2.6°C 17.8°F-7.9°C 67% 3.3 mph SSE5.3 kmh SSE 5.0 mph8.0 kmh 30.07 in1018.3 mb 0.00 in0.0 mm 0.00 in0.0 mm 0.00 in0.0 mm
10:34 AM 27.4°F-2.6°C 17.9°F-7.8°C 67% 4.1 mph SSE6.6 kmh SSE 5.0 mph8.0 kmh 30.07 in1018.3 mb 0.00 in0.0 mm 0.00 in0.0 mm 0.00 in0.0 mm
10:35 AM 27.5°F-2.5°C 18.0°F-7.8°C 67% 3.6 mph SSE5.8 kmh SSE 6.0 mph9.7 kmh 30.07 in1018.3 mb 0.00 in0.0 mm 0.00 in0.0 mm 0.00 in0.0 mm
10:36 AM 27.5°F-2.5°C 18.0°F-7.8°C 67% 2.8 mph SSE4.5 kmh SSE 6.0 mph9.7 kmh 30.07 in1018.3 mb 0.00 in0.0 mm 0.00 in0.0 mm 0.00 in0.0 mm
10:37 AM 27.6°F-2.4°C 18.1°F-7.7°C 67% 2.4 mph SSE3.9 kmh SSE 4.0 mph6.4 kmh 30.07 in1018.3 mb 0.00 in0.0 mm 0.00 in0.0 mm 0.00 in0.0 mm
10:38 AM 27.6°F-2.4°C 18.1°F-7.7°C 67% 4.6 mph S7.4 kmh S 6.0 mph9.7 kmh 30.07 in1018.3 mb 0.00 in0.0 mm 0.00 in0.0 mm 0.00 in0.0 mm
10:39 AM 27.7°F-2.4°C 18.2°F-7.7°C 67% 2.9 mph S4.7 kmh S 6.0 mph9.7 kmh 30.07 in1018.3 mb 0.00 in0.0 mm 0.00 in0.0 mm 0.00 in0.0 mm
10:40 AM 27.8°F-2.3°C 17.9°F-7.8°C 66% 2.3 mph S3.7 kmh S 4.0 mph6.4 kmh 30.06 in1017.9 mb 0.00 in0.0 mm 0.00 in0.0 mm 0.00 in0.0 mm
10:41 AM 27.9°F-2.3°C 18.0°F-7.8°C 66% 4.3 mph S6.9 kmh S 5.0 mph8.0 kmh 30.06 in1017.9 mb 0.00 in0.0 mm 0.00 in0.0 mm 0.00 in0.0 mm
10:42 AM 27.9°F-2.3°C 18.0°F-7.8°C 66% 3.5 mph S5.6 kmh S 5.0 mph8.0 kmh 30.06 in1017.9 mb 0.00 in0.0 mm 0.00 in0.0 mm 0.00 in0.0 mm
10:43 AM 27.9°F-2.3°C 18.0°F-7.8°C 66% 3.5 mph S5.6 kmh S 5.0 mph8.0 kmh 30.06 in1017.9 mb 0.00 in0.0 mm 0.00 in0.0 mm 0.00 in0.0 mm
10:44 AM 28.0°F-2.2°C 17.8°F-7.9°C 65% 4.7 mph S7.6 kmh S 5.0 mph8.0 kmh 30.06 in1017.9 mb 0.00 in0.0 mm 0.00 in0.0 mm 0.00 in0.0 mm
10:45 AM 28.0°F-2.2°C 18.1°F-7.7°C 66% 4.2 mph S6.8 kmh S 5.0 mph8.0 kmh 30.06 in1017.9 mb 0.00 in0.0 mm 0.00 in0.0 mm 0.00 in0.0 mm
10:46 AM 28.0°F-2.2°C 17.8°F-7.9°C 65% 3.9 mph S6.3 kmh S 6.0 mph9.7 kmh 30.06 in1017.9 mb 0.00 in0.0 mm 0.00 in0.0 mm 0.00 in0.0 mm
10:47 AM 27.9°F-2.3°C 17.7°F-7.9°C 65% 4.3 mph S6.9 kmh S 6.0 mph9.7 kmh 30.06 in1017.9 mb 0.00 in0.0 mm 0.00 in0.0 mm 0.00 in0.0 mm
10:48 AM 27.9°F-2.3°C 17.7°F-7.9°C 65% 5.2 mph S8.4 kmh S 6.0 mph9.7 kmh 30.06 in1017.9 mb 0.00 in0.0 mm 0.00 in0.0 mm 0.00 in0.0 mm
10:49 AM 28.0°F-2.2°C 17.8°F-7.9°C 65% 4.2 mph S6.8 kmh S 6.0 mph9.7 kmh 30.06 in1017.9 mb 0.00 in0.0 mm 0.00 in0.0 mm 0.00 in0.0 mm
10:50 AM 27.9°F-2.3°C 17.7°F-7.9°C 65% 3.9 mph S6.3 kmh S 6.0 mph9.7 kmh 30.06 in1017.9 mb 0.00 in0.0 mm 0.00 in0.0 mm 0.00 in0.0 mm
10:51 AM 27.9°F-2.3°C 17.7°F-7.9°C 65% 4.5 mph S7.2 kmh S 5.0 mph8.0 kmh 30.07 in1018.3 mb 0.00 in0.0 mm 0.00 in0.0 mm 0.00 in0.0 mm
10:52 AM 27.9°F-2.3°C 17.7°F-7.9°C 65% 3.6 mph S5.8 kmh S 5.0 mph8.0 kmh 30.06 in1017.9 mb 0.00 in0.0 mm 0.00 in0.0 mm 0.00 in0.0 mm
10:53 AM 27.9°F-2.3°C 17.7°F-7.9°C 65% 2.9 mph S4.7 kmh S 5.0 mph8.0 kmh 30.06 in1017.9 mb 0.00 in0.0 mm 0.00 in0.0 mm 0.00 in0.0 mm
10:54 AM 27.9°F-2.3°C 17.7°F-7.9°C 65% 3.3 mph S5.3 kmh S 5.0 mph8.0 kmh 30.06 in1017.9 mb 0.00 in0.0 mm 0.00 in0.0 mm 0.00 in0.0 mm
10:55 AM 28.0°F-2.2°C 17.8°F-7.9°C 65% 4.2 mph S6.8 kmh S 5.0 mph8.0 kmh 30.06 in1017.9 mb 0.00 in0.0 mm 0.00 in0.0 mm 0.00 in0.0 mm
10:56 AM 28.0°F-2.2°C 17.8°F-7.9°C 65% 3.0 mph S4.8 kmh S 5.0 mph8.0 kmh 30.06 in1017.9 mb 0.00 in0.0 mm 0.00 in0.0 mm 0.00 in0.0 mm
10:57 AM 28.0°F-2.2°C 17.8°F-7.9°C 65% 3.5 mph S5.6 kmh S 5.0 mph8.0 kmh 30.06 in1017.9 mb 0.00 in0.0 mm 0.00 in0.0 mm 0.00 in0.0 mm
10:58 AM 28.1°F-2.2°C 17.9°F-7.8°C 65% 3.6 mph SSW5.8 kmh SSW 5.0 mph8.0 kmh 30.06 in1017.9 mb 0.00 in0.0 mm 0.00 in0.0 mm 0.00 in0.0 mm
10:59 AM 28.1°F-2.2°C 17.9°F-7.8°C 65% 4.0 mph SSW6.4 kmh SSW 6.0 mph9.7 kmh 30.06 in1017.9 mb 0.00 in0.0 mm 0.00 in0.0 mm 0.00 in0.0 mm
11:00 AM 28.0°F-2.2°C 17.8°F-7.9°C 65% 5.5 mph SW8.9 kmh SW 7.0 mph11.3 kmh 30.06 in1017.9 mb 0.00 in0.0 mm 0.00 in0.0 mm 0.00 in0.0 mm
11:01 AM 28.0°F-2.2°C 17.4°F-8.1°C 64% 4.3 mph SW6.9 kmh SW 7.0 mph11.3 kmh 30.06 in1017.9 mb 0.00 in0.0 mm 0.00 in0.0 mm 0.00 in0.0 mm
11:02 AM 27.9°F-2.3°C 17.3°F-8.2°C 64% 4.2 mph SW6.8 kmh SW 5.0 mph8.0 kmh 30.06 in1017.9 mb 0.00 in0.0 mm 0.00 in0.0 mm 0.00 in0.0 mm
11:03 AM 27.9°F-2.3°C 17.3°F-8.2°C 64% 5.1 mph SW8.2 kmh SW 6.0 mph9.7 kmh 30.06 in1017.9 mb 0.00 in0.0 mm 0.00 in0.0 mm 0.00 in0.0 mm
11:04 AM 27.8°F-2.3°C 17.2°F-8.2°C 64% 4.4 mph SW7.1 kmh SW 6.0 mph9.7 kmh 30.06 in1017.9 mb 0.00 in0.0 mm 0.00 in0.0 mm 0.00 in0.0 mm
11:05 AM 27.8°F-2.3°C 17.2°F-8.2°C 64% 4.8 mph SW7.7 kmh SW 6.0 mph9.7 kmh 30.06 in1017.9 mb 0.00 in0.0 mm 0.00 in0.0 mm 0.00 in0.0 mm
11:06 AM 27.7°F-2.4°C 17.1°F-8.3°C 64% 5.3 mph SW8.5 kmh SW 7.0 mph11.3 kmh 30.06 in1017.9 mb 0.00 in0.0 mm 0.00 in0.0 mm 0.00 in0.0 mm
11:07 AM 27.7°F-2.4°C 17.5°F-8.1°C 65% 4.4 mph SW7.1 kmh SW 7.0 mph11.3 kmh 30.06 in1017.9 mb 0.00 in0.0 mm 0.00 in0.0 mm 0.00 in0.0 mm
11:08 AM 27.7°F-2.4°C 17.5°F-8.1°C 65% 2.5 mph SW4.0 kmh SW 5.0 mph8.0 kmh 30.06 in1017.9 mb 0.00 in0.0 mm 0.00 in0.0 mm 0.00 in0.0 mm
11:09 AM 27.7°F-2.4°C 17.5°F-8.1°C 65% 3.8 mph SSW6.1 kmh SSW 6.0 mph9.7 kmh 30.06 in1017.9 mb 0.00 in0.0 mm 0.00 in0.0 mm 0.00 in0.0 mm
11:10 AM 27.8°F-2.3°C 17.6°F-8.0°C 65% 3.7 mph S6.0 kmh S 6.0 mph9.7 kmh 30.06 in1017.9 mb 0.00 in0.0 mm 0.00 in0.0 mm 0.00 in0.0 mm
11:11 AM 27.8°F-2.3°C 17.6°F-8.0°C 65% 3.1 mph S5.0 kmh S 5.0 mph8.0 kmh 30.06 in1017.9 mb 0.00 in0.0 mm 0.00 in0.0 mm 0.00 in0.0 mm
11:12 AM 27.8°F-2.3°C 17.2°F-8.2°C 64% 2.5 mph S4.0 kmh S 4.0 mph6.4 kmh 30.06 in1017.9 mb 0.00 in0.0 mm 0.00 in0.0 mm 0.00 in0.0 mm
11:13 AM 27.9°F-2.3°C 17.3°F-8.2°C 64% 1.4 mph S2.3 kmh S 3.0 mph4.8 kmh 30.06 in1017.9 mb 0.00 in0.0 mm 0.00 in0.0 mm 0.00 in0.0 mm
11:14 AM 27.9°F-2.3°C 17.3°F-8.2°C 64% 1.6 mph S2.6 kmh S 3.0 mph4.8 kmh 30.06 in1017.9 mb 0.00 in0.0 mm 0.00 in0.0 mm 0.00 in0.0 mm
11:15 AM 28.0°F-2.2°C 17.4°F-8.1°C 64% 2.3 mph S3.7 kmh S 3.0 mph4.8 kmh 30.06 in1017.9 mb 0.00 in0.0 mm 0.00 in0.0 mm 0.00 in0.0 mm
11:16 AM 28.2°F-2.1°C 17.6°F-8.0°C 64% 3.9 mph S6.3 kmh S 6.0 mph9.7 kmh 30.06 in1017.9 mb 0.00 in0.0 mm 0.00 in0.0 mm 0.00 in0.0 mm
11:17 AM 28.2°F-2.1°C 17.6°F-8.0°C 64% 5.4 mph SSE8.7 kmh SSE 7.0 mph11.3 kmh 30.06 in1017.9 mb 0.00 in0.0 mm 0.00 in0.0 mm 0.00 in0.0 mm
11:18 AM 28.3°F-2.1°C 17.3°F-8.2°C 63% 3.4 mph S5.5 kmh S 7.0 mph11.3 kmh 30.06 in1017.9 mb 0.00 in0.0 mm 0.00 in0.0 mm 0.00 in0.0 mm
11:19 AM 28.3°F-2.1°C 17.3°F-8.2°C 63% 2.8 mph S4.5 kmh S 5.0 mph8.0 kmh 30.06 in1017.9 mb 0.00 in0.0 mm 0.00 in0.0 mm 0.00 in0.0 mm
11:20 AM 28.5°F-1.9°C 17.5°F-8.1°C 63% 1.7 mph S2.7 kmh S 4.0 mph6.4 kmh 30.06 in1017.9 mb 0.00 in0.0 mm 0.00 in0.0 mm 0.00 in0.0 mm
11:21 AM 28.5°F-1.9°C 17.5°F-8.1°C 63% 2.2 mph S3.5 kmh S 3.0 mph4.8 kmh 30.06 in1017.9 mb 0.00 in0.0 mm 0.00 in0.0 mm 0.00 in0.0 mm
11:22 AM 28.5°F-1.9°C 17.5°F-8.1°C 63% 3.2 mph S5.1 kmh S 4.0 mph6.4 kmh 30.06 in1017.9 mb 0.00 in0.0 mm 0.00 in0.0 mm 0.00 in0.0 mm
11:23 AM 28.6°F-1.9°C 17.6°F-8.0°C 63% 3.8 mph S6.1 kmh S 6.0 mph9.7 kmh 30.05 in1017.6 mb 0.00 in0.0 mm 0.00 in0.0 mm 0.00 in0.0 mm
11:24 AM 28.5°F-1.9°C 17.5°F-8.1°C 63% 3.6 mph SSW5.8 kmh SSW 6.0 mph9.7 kmh 30.06 in1017.9 mb 0.00 in0.0 mm 0.00 in0.0 mm 0.00 in0.0 mm
11:25 AM 28.5°F-1.9°C 17.2°F-8.2°C 62% 4.0 mph SSW6.4 kmh SSW 5.0 mph8.0 kmh 30.05 in1017.6 mb 0.00 in0.0 mm 0.00 in0.0 mm 0.00 in0.0 mm
11:26 AM 28.4°F-2.0°C 17.1°F-8.3°C 62% 4.6 mph SSW7.4 kmh SSW 5.0 mph8.0 kmh 30.06 in1017.9 mb 0.00 in0.0 mm 0.00 in0.0 mm 0.00 in0.0 mm
11:27 AM 28.3°F-2.1°C 17.3°F-8.2°C 63% 3.8 mph SSW6.1 kmh SSW 5.0 mph8.0 kmh 30.06 in1017.9 mb 0.00 in0.0 mm 0.00 in0.0 mm 0.00 in0.0 mm
11:28 AM 28.3°F-2.1°C 17.3°F-8.2°C 63% 3.0 mph SSW4.8 kmh SSW 5.0 mph8.0 kmh 30.05 in1017.6 mb 0.00 in0.0 mm 0.00 in0.0 mm 0.00 in0.0 mm
11:29 AM 28.3°F-2.1°C 17.3°F-8.2°C 63% 3.5 mph SW5.6 kmh SW 5.0 mph8.0 kmh 30.05 in1017.6 mb 0.00 in0.0 mm 0.00 in0.0 mm 0.00 in0.0 mm
11:30 AM 28.3°F-2.1°C 17.7°F-7.9°C 64% 4.1 mph SW6.6 kmh SW 5.0 mph8.0 kmh 30.05 in1017.6 mb 0.00 in0.0 mm 0.00 in0.0 mm 0.00 in0.0 mm
11:31 AM 28.3°F-2.1°C 17.7°F-7.9°C 64% 4.6 mph SSW7.4 kmh SSW 6.0 mph9.7 kmh 30.05 in1017.6 mb 0.00 in0.0 mm 0.00 in0.0 mm 0.00 in0.0 mm
11:32 AM 28.3°F-2.1°C 17.3°F-8.2°C 63% 2.2 mph SSW3.5 kmh SSW 6.0 mph9.7 kmh 30.05 in1017.6 mb 0.00 in0.0 mm 0.00 in0.0 mm 0.00 in0.0 mm
11:33 AM 28.4°F-2.0°C 17.4°F-8.1°C 63% 3.4 mph SSW5.5 kmh SSW 4.0 mph6.4 kmh 30.05 in1017.6 mb 0.00 in0.0 mm 0.00 in0.0 mm 0.00 in0.0 mm
11:34 AM 28.4°F-2.0°C 17.4°F-8.1°C 63% 3.8 mph SSW6.1 kmh SSW 5.0 mph8.0 kmh 30.05 in1017.6 mb 0.00 in0.0 mm 0.00 in0.0 mm 0.00 in0.0 mm
11:35 AM 28.3°F-2.1°C 17.3°F-8.2°C 63% 3.3 mph SSW5.3 kmh SSW 6.0 mph9.7 kmh 30.05 in1017.6 mb 0.00 in0.0 mm 0.00 in0.0 mm 0.00 in0.0 mm
11:36 AM 28.3°F-2.1°C 17.3°F-8.2°C 63% 3.4 mph SSW5.5 kmh SSW 6.0 mph9.7 kmh 30.05 in1017.6 mb 0.00 in0.0 mm 0.00 in0.0 mm 0.00 in0.0 mm
11:37 AM 28.4°F-2.0°C 17.4°F-8.1°C 63% 4.3 mph S6.9 kmh S 6.0 mph9.7 kmh 30.05 in1017.6 mb 0.00 in0.0 mm 0.00 in0.0 mm 0.00 in0.0 mm
11:38 AM 28.5°F-1.9°C 17.5°F-8.1°C 63% 3.5 mph SSW5.6 kmh SSW 5.0 mph8.0 kmh 30.05 in1017.6 mb 0.00 in0.0 mm 0.00 in0.0 mm 0.00 in0.0 mm
11:39 AM 28.5°F-1.9°C 17.5°F-8.1°C 63% 3.2 mph SSW5.1 kmh SSW 5.0 mph8.0 kmh 30.05 in1017.6 mb 0.00 in0.0 mm 0.00 in0.0 mm 0.00 in0.0 mm
11:40 AM 28.5°F-1.9°C 17.5°F-8.1°C 63% 3.2 mph SSW5.1 kmh SSW 5.0 mph8.0 kmh 30.05 in1017.6 mb 0.00 in0.0 mm 0.00 in0.0 mm 0.00 in0.0 mm
11:41 AM 28.5°F-1.9°C 17.5°F-8.1°C 63% 3.3 mph SSW5.3 kmh SSW 4.0 mph6.4 kmh 30.05 in1017.6 mb 0.00 in0.0 mm 0.00 in0.0 mm 0.00 in0.0 mm
11:42 AM 28.5°F-1.9°C 17.5°F-8.1°C 63% 3.2 mph SSW5.1 kmh SSW 4.0 mph6.4 kmh 30.05 in1017.6 mb 0.00 in0.0 mm 0.00 in0.0 mm 0.00 in0.0 mm
11:43 AM 28.4°F-2.0°C 17.4°F-8.1°C 63% 2.6 mph SW4.2 kmh SW 4.0 mph6.4 kmh 30.05 in1017.6 mb 0.00 in0.0 mm 0.00 in0.0 mm 0.00 in0.0 mm
11:44 AM 28.3°F-2.1°C 17.3°F-8.2°C 63% 3.0 mph SW4.8 kmh SW 4.0 mph6.4 kmh 30.05 in1017.6 mb 0.00 in0.0 mm 0.00 in0.0 mm 0.00 in0.0 mm
11:45 AM 28.3°F-2.1°C 17.7°F-7.9°C 64% 3.3 mph SW5.3 kmh SW 4.0 mph6.4 kmh 30.05 in1017.6 mb 0.00 in0.0 mm 0.00 in0.0 mm 0.00 in0.0 mm
11:46 AM 28.3°F-2.1°C 17.7°F-7.9°C 64% 3.1 mph SW5.0 kmh SW 6.0 mph9.7 kmh 30.05 in1017.6 mb 0.00 in0.0 mm 0.00 in0.0 mm 0.00 in0.0 mm
11:47 AM 28.3°F-2.1°C 17.7°F-7.9°C 64% 5.5 mph WSW8.9 kmh WSW 7.0 mph11.3 kmh 30.05 in1017.6 mb 0.00 in0.0 mm 0.00 in0.0 mm 0.00 in0.0 mm
11:48 AM 28.4°F-2.0°C 18.2°F-7.7°C 65% 6.3 mph SW10.1 kmh SW 8.0 mph12.9 kmh 30.05 in1017.6 mb 0.00 in0.0 mm 0.00 in0.0 mm 0.00 in0.0 mm
11:49 AM 28.4°F-2.0°C 17.8°F-7.9°C 64% 5.8 mph SW9.3 kmh SW 8.0 mph12.9 kmh 30.05 in1017.6 mb 0.00 in0.0 mm 0.00 in0.0 mm 0.00 in0.0 mm
11:50 AM 28.3°F-2.1°C 17.7°F-7.9°C 64% 4.5 mph SW7.2 kmh SW 8.0 mph12.9 kmh 30.05 in1017.6 mb 0.00 in0.0 mm 0.00 in0.0 mm 0.00 in0.0 mm
11:51 AM 28.3°F-2.1°C 17.7°F-7.9°C 64% 4.9 mph SW7.9 kmh SW 6.0 mph9.7 kmh 30.05 in1017.6 mb 0.00 in0.0 mm 0.00 in0.0 mm 0.00 in0.0 mm
11:52 AM 28.4°F-2.0°C 18.2°F-7.7°C 65% 7.2 mph SW11.6 kmh SW 9.0 mph14.5 kmh 30.05 in1017.6 mb 0.00 in0.0 mm 0.00 in0.0 mm 0.00 in0.0 mm
11:53 AM 28.4°F-2.0°C 17.8°F-7.9°C 64% 5.8 mph SW9.3 kmh SW 9.0 mph14.5 kmh 30.05 in1017.6 mb 0.00 in0.0 mm 0.00 in0.0 mm 0.00 in0.0 mm
11:54 AM 28.3°F-2.1°C 17.7°F-7.9°C 64% 4.8 mph SW7.7 kmh SW 7.0 mph11.3 kmh 30.05 in1017.6 mb 0.00 in0.0 mm 0.00 in0.0 mm 0.00 in0.0 mm
11:55 AM 28.2°F-2.1°C 18.0°F-7.8°C 65% 7.5 mph SW12.1 kmh SW 10.0 mph16.1 kmh 30.05 in1017.6 mb 0.00 in0.0 mm 0.00 in0.0 mm 0.00 in0.0 mm
11:56 AM 28.2°F-2.1°C 18.0°F-7.8°C 65% 4.8 mph SW7.7 kmh SW 10.0 mph16.1 kmh 30.05 in1017.6 mb 0.00 in0.0 mm 0.00 in0.0 mm 0.00 in0.0 mm
11:57 AM 28.1°F-2.2°C 17.9°F-7.8°C 65% 7.1 mph SW11.4 kmh SW 10.0 mph16.1 kmh 30.05 in1017.6 mb 0.00 in0.0 mm 0.00 in0.0 mm 0.00 in0.0 mm
11:58 AM 28.1°F-2.2°C 18.2°F-7.7°C 66% 6.9 mph SW11.1 kmh SW 10.0 mph16.1 kmh 30.05 in1017.6 mb 0.00 in0.0 mm 0.00 in0.0 mm 0.00 in0.0 mm
11:59 AM 28.0°F-2.2°C 17.4°F-8.1°C 64% 7.2 mph SW11.6 kmh SW 8.0 mph12.9 kmh 30.05 in1017.6 mb 0.00 in0.0 mm 0.00 in0.0 mm 0.00 in0.0 mm
12:00 PM 28.0°F-2.2°C 17.4°F-8.1°C 64% 4.9 mph SW7.9 kmh SW 8.0 mph12.9 kmh 30.05 in1017.6 mb 0.00 in0.0 mm 0.00 in0.0 mm 0.00 in0.0 mm
12:01 PM 28.0°F-2.2°C 17.4°F-8.1°C 64% 6.6 mph SW10.6 kmh SW 8.0 mph12.9 kmh 30.05 in1017.6 mb 0.00 in0.0 mm 0.00 in0.0 mm 0.00 in0.0 mm
12:02 PM 28.1°F-2.2°C 17.5°F-8.1°C 64% 6.6 mph SW10.6 kmh SW 8.0 mph12.9 kmh 30.05 in1017.6 mb 0.00 in0.0 mm 0.00 in0.0 mm 0.00 in0.0 mm
12:03 PM 28.0°F-2.2°C 17.4°F-8.1°C 64% 5.9 mph SW9.5 kmh SW 8.0 mph12.9 kmh 30.05 in1017.6 mb 0.00 in0.0 mm 0.00 in0.0 mm 0.00 in0.0 mm
12:04 PM 28.1°F-2.2°C 17.9°F-7.8°C 65% 5.0 mph SW8.0 kmh SW 7.0 mph11.3 kmh 30.05 in1017.6 mb 0.00 in0.0 mm 0.00 in0.0 mm 0.00 in0.0 mm
12:05 PM 28.1°F-2.2°C 18.2°F-7.7°C 66% 6.3 mph SW10.1 kmh SW 8.0 mph12.9 kmh 30.05 in1017.6 mb 0.00 in0.0 mm 0.00 in0.0 mm 0.00 in0.0 mm
12:06 PM 28.1°F-2.2°C 18.2°F-7.7°C 66% 8.2 mph SW13.2 kmh SW 10.0 mph16.1 kmh 30.05 in1017.6 mb 0.00 in0.0 mm 0.00 in0.0 mm 0.00 in0.0 mm
12:07 PM 28.1°F-2.2°C 17.9°F-7.8°C 65% 6.8 mph SW10.9 kmh SW 10.0 mph16.1 kmh 30.05 in1017.6 mb 0.00 in0.0 mm 0.00 in0.0 mm 0.00 in0.0 mm
12:08 PM 28.1°F-2.2°C 18.2°F-7.7°C 66% 8.6 mph SW13.8 kmh SW 10.0 mph16.1 kmh 30.05 in1017.6 mb 0.00 in0.0 mm 0.00 in0.0 mm 0.00 in0.0 mm
12:09 PM 28.1°F-2.2°C 18.2°F-7.7°C 66% 8.2 mph SW13.2 kmh SW 11.0 mph17.7 kmh 30.05 in1017.6 mb 0.00 in0.0 mm 0.00 in0.0 mm 0.00 in0.0 mm
12:10 PM 28.1°F-2.2°C 18.2°F-7.7°C 66% 7.3 mph SW11.7 kmh SW 11.0 mph17.7 kmh 30.05 in1017.6 mb 0.00 in0.0 mm 0.00 in0.0 mm 0.00 in0.0 mm
12:11 PM 28.1°F-2.2°C 18.2°F-7.7°C 66% 6.4 mph SW10.3 kmh SW 10.0 mph16.1 kmh 30.05 in1017.6 mb 0.00 in0.0 mm 0.00 in0.0 mm 0.00 in0.0 mm
12:12 PM 28.2°F-2.1°C 18.3°F-7.6°C 66% 6.2 mph SW10.0 kmh SW 8.0 mph12.9 kmh 30.05 in1017.6 mb 0.00 in0.0 mm 0.00 in0.0 mm 0.00 in0.0 mm
12:13 PM 28.1°F-2.2°C 17.9°F-7.8°C 65% 6.6 mph SW10.6 kmh SW 10.0 mph16.1 kmh 30.05 in1017.6 mb 0.00 in0.0 mm 0.00 in0.0 mm 0.00 in0.0 mm
12:14 PM 28.1°F-2.2°C 17.9°F-7.8°C 65% 7.1 mph SW11.4 kmh SW 10.0 mph16.1 kmh 30.05 in1017.6 mb 0.00 in0.0 mm 0.00 in0.0 mm 0.00 in0.0 mm
12:15 PM 28.2°F-2.1°C 18.0°F-7.8°C 65% 6.3 mph SW10.1 kmh SW 10.0 mph16.1 kmh 30.05 in1017.6 mb 0.00 in0.0 mm 0.00 in0.0 mm 0.00 in0.0 mm
12:16 PM 28.2°F-2.1°C 18.3°F-7.6°C 66% 6.8 mph SW10.9 kmh SW 9.0 mph14.5 kmh 30.05 in1017.6 mb 0.00 in0.0 mm 0.00 in0.0 mm 0.00 in0.0 mm
12:17 PM 28.1°F-2.2°C 17.5°F-8.1°C 64% 7.9 mph SW12.7 kmh SW 9.0 mph14.5 kmh 30.05 in1017.6 mb 0.00 in0.0 mm 0.00 in0.0 mm 0.00 in0.0 mm
12:18 PM 28.1°F-2.2°C 17.2°F-8.2°C 63% 7.7 mph SW12.4 kmh SW 10.0 mph16.1 kmh 30.05 in1017.6 mb 0.00 in0.0 mm 0.00 in0.0 mm 0.00 in0.0 mm
12:19 PM 28.0°F-2.2°C 17.1°F-8.3°C 63% 7.2 mph SW11.6 kmh SW 10.0 mph16.1 kmh 30.05 in1017.6 mb 0.00 in0.0 mm 0.00 in0.0 mm 0.00 in0.0 mm
12:20 PM 28.1°F-2.2°C 17.5°F-8.1°C 64% 6.0 mph SW9.7 kmh SW 9.0 mph14.5 kmh 30.05 in1017.6 mb 0.00 in0.0 mm 0.00 in0.0 mm 0.00 in0.0 mm
12:21 PM 28.1°F-2.2°C 17.5°F-8.1°C 64% 7.7 mph SW12.4 kmh SW 11.0 mph17.7 kmh 30.05 in1017.6 mb 0.00 in0.0 mm 0.00 in0.0 mm 0.00 in0.0 mm
12:22 PM 28.2°F-2.1°C 18.0°F-7.8°C 65% 6.0 mph SW9.7 kmh SW 11.0 mph17.7 kmh 30.05 in1017.6 mb 0.00 in0.0 mm 0.00 in0.0 mm 0.00 in0.0 mm
12:23 PM 28.2°F-2.1°C 18.0°F-7.8°C 65% 6.7 mph SW10.8 kmh SW 9.0 mph14.5 kmh 30.05 in1017.6 mb 0.00 in0.0 mm 0.00 in0.0 mm 0.00 in0.0 mm
12:24 PM 28.2°F-2.1°C 17.6°F-8.0°C 64% 4.8 mph SW7.7 kmh SW 8.0 mph12.9 kmh 30.05 in1017.6 mb 0.00 in0.0 mm 0.00 in0.0 mm 0.00 in0.0 mm
12:25 PM 28.1°F-2.2°C 17.5°F-8.1°C 64% 5.2 mph SW8.4 kmh SW 7.0 mph11.3 kmh 30.05 in1017.6 mb 0.00 in0.0 mm 0.00 in0.0 mm 0.00 in0.0 mm
12:26 PM 28.1°F-2.2°C 17.9°F-7.8°C 65% 5.2 mph SW8.4 kmh SW 7.0 mph11.3 kmh 30.04 in1017.3 mb 0.00 in0.0 mm 0.00 in0.0 mm 0.00 in0.0 mm
12:27 PM 28.2°F-2.1°C 17.6°F-8.0°C 64% 5.1 mph SW8.2 kmh SW 7.0 mph11.3 kmh 30.04 in1017.3 mb 0.00 in0.0 mm 0.00 in0.0 mm 0.00 in0.0 mm
12:28 PM 28.1°F-2.2°C 17.2°F-8.2°C 63% 8.0 mph SW12.9 kmh SW 10.0 mph16.1 kmh 30.04 in1017.3 mb 0.00 in0.0 mm 0.00 in0.0 mm 0.00 in0.0 mm
12:29 PM 28.1°F-2.2°C 17.5°F-8.1°C 64% 6.5 mph SW10.5 kmh SW 10.0 mph16.1 kmh 30.04 in1017.3 mb 0.00 in0.0 mm 0.00 in0.0 mm 0.00 in0.0 mm
12:30 PM 28.1°F-2.2°C 17.9°F-7.8°C 65% 6.5 mph SW10.5 kmh SW 9.0 mph14.5 kmh 30.04 in1017.3 mb 0.00 in0.0 mm 0.00 in0.0 mm 0.00 in0.0 mm
12:31 PM 28.1°F-2.2°C 17.5°F-8.1°C 64% 6.1 mph SW9.8 kmh SW 8.0 mph12.9 kmh 30.04 in1017.3 mb 0.00 in0.0 mm 0.00 in0.0 mm 0.00 in0.0 mm
12:32 PM 28.1°F-2.2°C 17.2°F-8.2°C 63% 5.9 mph SW9.5 kmh SW 8.0 mph12.9 kmh 30.05 in1017.6 mb 0.00 in0.0 mm 0.00 in0.0 mm 0.00 in0.0 mm
12:33 PM 28.1°F-2.2°C 17.2°F-8.2°C 63% 5.5 mph SW8.9 kmh SW 8.0 mph12.9 kmh 30.05 in1017.6 mb 0.00 in0.0 mm 0.00 in0.0 mm 0.00 in0.0 mm
12:34 PM 28.2°F-2.1°C 17.2°F-8.2°C 63% 5.1 mph SW8.2 kmh SW 7.0 mph11.3 kmh 30.05 in1017.6 mb 0.00 in0.0 mm 0.00 in0.0 mm 0.00 in0.0 mm
12:35 PM 28.2°F-2.1°C 17.2°F-8.2°C 63% 5.1 mph SW8.2 kmh SW 6.0 mph9.7 kmh 30.05 in1017.6 mb 0.00 in0.0 mm 0.00 in0.0 mm 0.00 in0.0 mm
12:36 PM 28.2°F-2.1°C 17.2°F-8.2°C 63% 4.4 mph SW7.1 kmh SW 6.0 mph9.7 kmh 30.05 in1017.6 mb 0.00 in0.0 mm 0.00 in0.0 mm 0.00 in0.0 mm
12:37 PM 28.3°F-2.1°C 17.3°F-8.2°C 63% 4.7 mph SSW7.6 kmh SSW 6.0 mph9.7 kmh 30.04 in1017.3 mb 0.00 in0.0 mm 0.00 in0.0 mm 0.00 in0.0 mm
12:38 PM 28.3°F-2.1°C 17.3°F-8.2°C 63% 3.7 mph S6.0 kmh S 6.0 mph9.7 kmh 30.05 in1017.6 mb 0.00 in0.0 mm 0.00 in0.0 mm 0.00 in0.0 mm
12:39 PM 28.4°F-2.0°C 17.4°F-8.1°C 63% 4.3 mph S6.9 kmh S 7.0 mph11.3 kmh 30.04 in1017.3 mb 0.00 in0.0 mm 0.00 in0.0 mm 0.00 in0.0 mm
12:40 PM 28.4°F-2.0°C 17.1°F-8.3°C 62% 5.3 mph S8.5 kmh S 7.0 mph11.3 kmh 30.04 in1017.3 mb 0.00 in0.0 mm 0.00 in0.0 mm 0.00 in0.0 mm
12:41 PM 28.4°F-2.0°C 17.1°F-8.3°C 62% 4.5 mph S7.2 kmh S 6.0 mph9.7 kmh 30.04 in1017.3 mb 0.00 in0.0 mm 0.00 in0.0 mm 0.00 in0.0 mm
12:42 PM 28.5°F-1.9°C 17.2°F-8.2°C 62% 3.2 mph S5.1 kmh S 6.0 mph9.7 kmh 30.04 in1017.3 mb 0.00 in0.0 mm 0.00 in0.0 mm 0.00 in0.0 mm
12:43 PM 28.5°F-1.9°C 17.2°F-8.2°C 62% 4.1 mph SSW6.6 kmh SSW 6.0 mph9.7 kmh 30.04 in1017.3 mb 0.00 in0.0 mm 0.00 in0.0 mm 0.00 in0.0 mm
12:44 PM 28.5°F-1.9°C 17.2°F-8.2°C 62% 3.4 mph S5.5 kmh S 6.0 mph9.7 kmh 30.04 in1017.3 mb 0.00 in0.0 mm 0.00 in0.0 mm 0.00 in0.0 mm
12:45 PM 28.6°F-1.9°C 17.6°F-8.0°C 63% 4.7 mph SSW7.6 kmh SSW 6.0 mph9.7 kmh 30.04 in1017.3 mb 0.00 in0.0 mm 0.00 in0.0 mm 0.00 in0.0 mm
12:46 PM 28.6°F-1.9°C 17.6°F-8.0°C 63% 4.1 mph SSW6.6 kmh SSW 6.0 mph9.7 kmh 30.04 in1017.3 mb 0.00 in0.0 mm 0.00 in0.0 mm 0.00 in0.0 mm
12:47 PM 28.7°F-1.8°C 17.7°F-7.9°C 63% 5.6 mph SSW9.0 kmh SSW 6.0 mph9.7 kmh 30.04 in1017.3 mb 0.00 in0.0 mm 0.00 in0.0 mm 0.00 in0.0 mm
12:48 PM 28.6°F-1.9°C 17.6°F-8.0°C 63% 3.8 mph S6.1 kmh S 6.0 mph9.7 kmh 30.04 in1017.3 mb 0.00 in0.0 mm 0.00 in0.0 mm 0.00 in0.0 mm
12:49 PM 28.7°F-1.8°C 17.7°F-7.9°C 63% 5.7 mph S9.2 kmh S 9.0 mph14.5 kmh 30.04 in1017.3 mb 0.00 in0.0 mm 0.00 in0.0 mm 0.00 in0.0 mm
12:50 PM 28.7°F-1.8°C 17.7°F-7.9°C 63% 7.3 mph S11.7 kmh S 9.0 mph14.5 kmh 30.04 in1017.3 mb 0.00 in0.0 mm 0.00 in0.0 mm 0.00 in0.0 mm
12:51 PM 28.7°F-1.8°C 17.7°F-7.9°C 63% 6.0 mph S9.7 kmh S 9.0 mph14.5 kmh 30.03 in1016.9 mb 0.00 in0.0 mm 0.00 in0.0 mm 0.00 in0.0 mm
12:52 PM 28.7°F-1.8°C 17.7°F-7.9°C 63% 4.7 mph S7.6 kmh S 7.0 mph11.3 kmh 30.04 in1017.3 mb 0.00 in0.0 mm 0.00 in0.0 mm 0.00 in0.0 mm
12:53 PM 28.7°F-1.8°C 17.7°F-7.9°C 63% 5.7 mph S9.2 kmh S 7.0 mph11.3 kmh 30.03 in1016.9 mb 0.00 in0.0 mm 0.00 in0.0 mm 0.00 in0.0 mm
12:54 PM 28.8°F-1.8°C 17.8°F-7.9°C 63% 5.5 mph SW8.9 kmh SW 7.0 mph11.3 kmh 30.03 in1016.9 mb 0.00 in0.0 mm 0.00 in0.0 mm 0.00 in0.0 mm
12:55 PM 28.8°F-1.8°C 17.8°F-7.9°C 63% 5.2 mph SW8.4 kmh SW 7.0 mph11.3 kmh 30.03 in1016.9 mb 0.00 in0.0 mm 0.00 in0.0 mm 0.00 in0.0 mm
12:56 PM 28.8°F-1.8°C 17.8°F-7.9°C 63% 4.3 mph S6.9 kmh S 7.0 mph11.3 kmh 30.03 in1016.9 mb 0.00 in0.0 mm 0.00 in0.0 mm 0.00 in0.0 mm
12:57 PM 28.8°F-1.8°C 17.8°F-7.9°C 63% 5.1 mph S8.2 kmh S 6.0 mph9.7 kmh 30.03 in1016.9 mb 0.00 in0.0 mm 0.00 in0.0 mm 0.00 in0.0 mm
12:58 PM 28.9°F-1.7°C 17.9°F-7.8°C 63% 4.5 mph SSE7.2 kmh SSE 6.0 mph9.7 kmh 30.03 in1016.9 mb 0.00 in0.0 mm 0.00 in0.0 mm 0.00 in0.0 mm
12:59 PM 28.9°F-1.7°C 17.9°F-7.8°C 63% 5.5 mph SSW8.9 kmh SSW 8.0 mph12.9 kmh 30.03 in1016.9 mb 0.00 in0.0 mm 0.00 in0.0 mm 0.00 in0.0 mm
01:00 PM 28.9°F-1.7°C 17.5°F-8.1°C 62% 6.7 mph SW10.8 kmh SW 8.0 mph12.9 kmh 30.03 in1016.9 mb 0.00 in0.0 mm 0.00 in0.0 mm 0.00 in0.0 mm
01:01 PM 28.9°F-1.7°C 17.5°F-8.1°C 62% 4.4 mph S7.1 kmh S 8.0 mph12.9 kmh 30.03 in1016.9 mb 0.00 in0.0 mm 0.00 in0.0 mm 0.00 in0.0 mm
01:02 PM 28.9°F-1.7°C 17.9°F-7.8°C 63% 5.8 mph S9.3 kmh S 9.0 mph14.5 kmh 30.03 in1016.9 mb 0.00 in0.0 mm 0.00 in0.0 mm 0.00 in0.0 mm
01:03 PM 28.8°F-1.8°C 17.8°F-7.9°C 63% 7.0 mph SSE11.3 kmh SSE 10.0 mph16.1 kmh 30.03 in1016.9 mb 0.00 in0.0 mm 0.00 in0.0 mm 0.00 in0.0 mm
01:04 PM 28.9°F-1.7°C 17.9°F-7.8°C 63% 4.6 mph SSE7.4 kmh SSE 10.0 mph16.1 kmh 30.03 in1016.9 mb 0.00 in0.0 mm 0.00 in0.0 mm 0.00 in0.0 mm
01:05 PM 28.9°F-1.7°C 17.9°F-7.8°C 63% 4.9 mph S7.9 kmh S 7.0 mph11.3 kmh 30.04 in1017.3 mb 0.00 in0.0 mm 0.00 in0.0 mm 0.00 in0.0 mm
01:06 PM 29.0°F-1.7°C 18.0°F-7.8°C 63% 4.9 mph S7.9 kmh S 7.0 mph11.3 kmh 30.04 in1017.3 mb 0.00 in0.0 mm 0.00 in0.0 mm 0.00 in0.0 mm
01:07 PM 29.0°F-1.7°C 18.0°F-7.8°C 63% 6.8 mph S10.9 kmh S 8.0 mph12.9 kmh 30.04 in1017.3 mb 0.00 in0.0 mm 0.00 in0.0 mm 0.00 in0.0 mm
01:08 PM 29.0°F-1.7°C 18.0°F-7.8°C 63% 6.0 mph S9.7 kmh S 8.0 mph12.9 kmh 30.04 in1017.3 mb 0.00 in0.0 mm 0.00 in0.0 mm 0.00 in0.0 mm
01:09 PM 29.0°F-1.7°C 18.0°F-7.8°C 63% 5.3 mph S8.5 kmh S 8.0 mph12.9 kmh 30.03 in1016.9 mb 0.00 in0.0 mm 0.00 in0.0 mm 0.00 in0.0 mm
01:10 PM 29.0°F-1.7°C 18.0°F-7.8°C 63% 4.5 mph SSW7.2 kmh SSW 7.0 mph11.3 kmh 30.03 in1016.9 mb 0.00 in0.0 mm 0.00 in0.0 mm 0.00 in0.0 mm
01:11 PM 29.0°F-1.7°C 18.0°F-7.8°C 63% 4.7 mph SW7.6 kmh SW 7.0 mph11.3 kmh 30.03 in1016.9 mb 0.00 in0.0 mm 0.00 in0.0 mm 0.00 in0.0 mm
01:12 PM 28.9°F-1.7°C 17.5°F-8.1°C 62% 5.2 mph SW8.4 kmh SW 7.0 mph11.3 kmh 30.03 in1016.9 mb 0.00 in0.0 mm 0.00 in0.0 mm 0.00 in0.0 mm
01:13 PM 28.8°F-1.8°C 17.8°F-7.9°C 63% 4.5 mph SSW7.2 kmh SSW 7.0 mph11.3 kmh 30.03 in1016.9 mb 0.00 in0.0 mm 0.00 in0.0 mm 0.00 in0.0 mm
01:14 PM 28.9°F-1.7°C 17.9°F-7.8°C 63% 5.9 mph S9.5 kmh S 9.0 mph14.5 kmh 30.03 in1016.9 mb 0.00 in0.0 mm 0.00 in0.0 mm 0.00 in0.0 mm
01:15 PM 28.9°F-1.7°C 17.9°F-7.8°C 63% 4.8 mph S7.7 kmh S 9.0 mph14.5 kmh 30.03 in1016.9 mb 0.00 in0.0 mm 0.00 in0.0 mm 0.00 in0.0 mm
01:16 PM 28.9°F-1.7°C 17.9°F-7.8°C 63% 6.3 mph S10.1 kmh S 8.0 mph12.9 kmh 30.03 in1016.9 mb 0.00 in0.0 mm 0.00 in0.0 mm 0.00 in0.0 mm
01:17 PM 28.9°F-1.7°C 17.9°F-7.8°C 63% 6.2 mph S10.0 kmh S 8.0 mph12.9 kmh 30.03 in1016.9 mb 0.00 in0.0 mm 0.00 in0.0 mm 0.00 in0.0 mm
01:18 PM 28.9°F-1.7°C 17.9°F-7.8°C 63% 4.9 mph S7.9 kmh S 7.0 mph11.3 kmh 30.03 in1016.9 mb 0.00 in0.0 mm 0.00 in0.0 mm 0.00 in0.0 mm
01:19 PM 28.9°F-1.7°C 17.9°F-7.8°C 63% 5.0 mph SSW8.0 kmh SSW 7.0 mph11.3 kmh 30.03 in1016.9 mb 0.00 in0.0 mm 0.00 in0.0 mm 0.00 in0.0 mm
01:20 PM 28.9°F-1.7°C 17.9°F-7.8°C 63% 5.3 mph S8.5 kmh S 7.0 mph11.3 kmh 30.03 in1016.9 mb 0.00 in0.0 mm 0.00 in0.0 mm 0.00 in0.0 mm
01:21 PM 29.0°F-1.7°C 18.0°F-7.8°C 63% 5.5 mph SW8.9 kmh SW 6.0 mph9.7 kmh 30.03 in1016.9 mb 0.00 in0.0 mm 0.00 in0.0 mm 0.00 in0.0 mm
01:22 PM 29.0°F-1.7°C 18.4°F-7.6°C 64% 5.8 mph SW9.3 kmh SW 9.0 mph14.5 kmh 30.03 in1016.9 mb 0.00 in0.0 mm 0.00 in0.0 mm 0.00 in0.0 mm
01:23 PM 28.9°F-1.7°C 18.3°F-7.6°C 64% 5.3 mph WSW8.5 kmh WSW 9.0 mph14.5 kmh 30.03 in1016.9 mb 0.00 in0.0 mm 0.00 in0.0 mm 0.00 in0.0 mm
01:24 PM 29.0°F-1.7°C 18.7°F-7.4°C 65% 4.5 mph SW7.2 kmh SW 6.0 mph9.7 kmh 30.03 in1016.9 mb 0.00 in0.0 mm 0.00 in0.0 mm 0.00 in0.0 mm
01:25 PM 29.0°F-1.7°C 18.7°F-7.4°C 65% 3.8 mph SW6.1 kmh SW 6.0 mph9.7 kmh 30.03 in1016.9 mb 0.00 in0.0 mm 0.00 in0.0 mm 0.00 in0.0 mm
01:26 PM 29.1°F-1.6°C 18.8°F-7.3°C 65% 3.0 mph SW4.8 kmh SW 5.0 mph8.0 kmh 30.03 in1016.9 mb 0.00 in0.0 mm 0.00 in0.0 mm 0.00 in0.0 mm
01:27 PM 29.1°F-1.6°C 18.8°F-7.3°C 65% 5.2 mph SW8.4 kmh SW 6.0 mph9.7 kmh 30.03 in1016.9 mb 0.00 in0.0 mm 0.00 in0.0 mm 0.00 in0.0 mm
01:28 PM 29.2°F-1.6°C 18.9°F-7.3°C 65% 4.4 mph WSW7.1 kmh WSW 6.0 mph9.7 kmh 30.03 in1016.9 mb 0.00 in0.0 mm 0.00 in0.0 mm 0.00 in0.0 mm
01:29 PM 29.1°F-1.6°C 18.5°F-7.5°C 64% 3.8 mph WSW6.1 kmh WSW 6.0 mph9.7 kmh 30.03 in1016.9 mb 0.00 in0.0 mm 0.00 in0.0 mm 0.00 in0.0 mm
01:30 PM 29.2°F-1.6°C 18.6°F-7.4°C 64% 5.5 mph SW8.9 kmh SW 6.0 mph9.7 kmh 30.03 in1016.9 mb 0.00 in0.0 mm 0.00 in0.0 mm 0.00 in0.0 mm
01:31 PM 29.0°F-1.7°C 18.0°F-7.8°C 63% 3.8 mph SSW6.1 kmh SSW 6.0 mph9.7 kmh 30.03 in1016.9 mb 0.00 in0.0 mm 0.00 in0.0 mm 0.00 in0.0 mm
01:32 PM 29.1°F-1.6°C 18.1°F-7.7°C 63% 4.1 mph SW6.6 kmh SW 8.0 mph12.9 kmh 30.03 in1016.9 mb 0.00 in0.0 mm 0.00 in0.0 mm 0.00 in0.0 mm
01:33 PM 29.0°F-1.7°C 18.7°F-7.4°C 65% 7.4 mph WSW11.9 kmh WSW 9.0 mph14.5 kmh 30.03 in1016.9 mb 0.00 in0.0 mm 0.00 in0.0 mm 0.00 in0.0 mm
01:34 PM 29.0°F-1.7°C 18.7°F-7.4°C 65% 7.3 mph WSW11.7 kmh WSW 9.0 mph14.5 kmh 30.03 in1016.9 mb 0.00 in0.0 mm 0.00 in0.0 mm 0.00 in0.0 mm
01:35 PM 29.0°F-1.7°C 19.1°F-7.2°C 66% 5.4 mph SW8.7 kmh SW 9.0 mph14.5 kmh 30.03 in1016.9 mb 0.00 in0.0 mm 0.00 in0.0 mm 0.00 in0.0 mm
01:36 PM 29.0°F-1.7°C 19.1°F-7.2°C 66% 5.4 mph SW8.7 kmh SW 8.0 mph12.9 kmh 30.03 in1016.9 mb 0.00 in0.0 mm 0.00 in0.0 mm 0.00 in0.0 mm
01:37 PM 29.0°F-1.7°C 19.4°F-7.0°C 67% 6.3 mph WSW10.1 kmh WSW 9.0 mph14.5 kmh 30.03 in1016.9 mb 0.00 in0.0 mm 0.00 in0.0 mm 0.00 in0.0 mm
01:38 PM 28.9°F-1.7°C 19.3°F-7.1°C 67% 7.7 mph SW12.4 kmh SW 10.0 mph16.1 kmh 30.03 in1016.9 mb 0.00 in0.0 mm 0.00 in0.0 mm 0.00 in0.0 mm
01:39 PM 28.8°F-1.8°C 18.9°F-7.3°C 66% 7.8 mph WSW12.6 kmh WSW 10.0 mph16.1 kmh 30.03 in1016.9 mb 0.00 in0.0 mm 0.00 in0.0 mm 0.00 in0.0 mm
01:40 PM 28.7°F-1.8°C 18.8°F-7.3°C 66% 7.3 mph WSW11.7 kmh WSW 9.0 mph14.5 kmh 30.03 in1016.9 mb 0.00 in0.0 mm 0.00 in0.0 mm 0.00 in0.0 mm
01:41 PM 28.7°F-1.8°C 18.8°F-7.3°C 66% 6.5 mph SW10.5 kmh SW 9.0 mph14.5 kmh 30.03 in1016.9 mb 0.00 in0.0 mm 0.00 in0.0 mm 0.00 in0.0 mm
01:42 PM 28.7°F-1.8°C 18.8°F-7.3°C 66% 6.6 mph WSW10.6 kmh WSW 9.0 mph14.5 kmh 30.03 in1016.9 mb 0.00 in0.0 mm 0.00 in0.0 mm 0.00 in0.0 mm
01:43 PM 28.6°F-1.9°C 19.1°F-7.2°C 67% 7.7 mph WSW12.4 kmh WSW 9.0 mph14.5 kmh 30.02 in1016.6 mb 0.00 in0.0 mm 0.00 in0.0 mm 0.00 in0.0 mm
01:44 PM 28.6°F-1.9°C 18.7°F-7.4°C 66% 7.0 mph SW11.3 kmh SW 9.0 mph14.5 kmh 30.02 in1016.6 mb 0.00 in0.0 mm 0.00 in0.0 mm 0.00 in0.0 mm
01:45 PM 28.6°F-1.9°C 18.4°F-7.6°C 65% 5.9 mph SW9.5 kmh SW 9.0 mph14.5 kmh 30.02 in1016.6 mb 0.00 in0.0 mm 0.00 in0.0 mm 0.00 in0.0 mm
01:46 PM 28.5°F-1.9°C 17.9°F-7.8°C 64% 4.3 mph SW6.9 kmh SW 7.0 mph11.3 kmh 30.02 in1016.6 mb 0.00 in0.0 mm 0.00 in0.0 mm 0.00 in0.0 mm
01:47 PM 28.5°F-1.9°C 17.9°F-7.8°C 64% 2.5 mph SW4.0 kmh SW 5.0 mph8.0 kmh 30.02 in1016.6 mb 0.00 in0.0 mm 0.00 in0.0 mm 0.00 in0.0 mm
01:48 PM 28.5°F-1.9°C 17.5°F-8.1°C 63% 3.1 mph SW5.0 kmh SW 4.0 mph6.4 kmh 30.02 in1016.6 mb 0.00 in0.0 mm 0.00 in0.0 mm 0.00 in0.0 mm
01:49 PM 28.5°F-1.9°C 17.5°F-8.1°C 63% 2.0 mph SW3.2 kmh SW 4.0 mph6.4 kmh 30.02 in1016.6 mb 0.00 in0.0 mm 0.00 in0.0 mm 0.00 in0.0 mm
01:50 PM 28.6°F-1.9°C 17.6°F-8.0°C 63% 3.7 mph SW6.0 kmh SW 8.0 mph12.9 kmh 30.03 in1016.9 mb 0.00 in0.0 mm 0.00 in0.0 mm 0.00 in0.0 mm
01:51 PM 28.6°F-1.9°C 18.0°F-7.8°C 64% 5.8 mph SW9.3 kmh SW 8.0 mph12.9 kmh 30.03 in1016.9 mb 0.00 in0.0 mm 0.00 in0.0 mm 0.00 in0.0 mm
01:52 PM 28.7°F-1.8°C 18.1°F-7.7°C 64% 4.6 mph WSW7.4 kmh WSW 8.0 mph12.9 kmh 30.03 in1016.9 mb 0.00 in0.0 mm 0.00 in0.0 mm 0.00 in0.0 mm
01:53 PM 28.7°F-1.8°C 18.4°F-7.6°C 65% 4.9 mph WSW7.9 kmh WSW 6.0 mph9.7 kmh 30.02 in1016.6 mb 0.00 in0.0 mm 0.00 in0.0 mm 0.00 in0.0 mm
01:54 PM 28.7°F-1.8°C 18.1°F-7.7°C 64% 5.5 mph WSW8.9 kmh WSW 7.0 mph11.3 kmh 30.02 in1016.6 mb 0.00 in0.0 mm 0.00 in0.0 mm 0.00 in0.0 mm
01:55 PM 28.6°F-1.9°C 18.4°F-7.6°C 65% 7.0 mph WSW11.3 kmh WSW 8.0 mph12.9 kmh 30.02 in1016.6 mb 0.00 in0.0 mm 0.00 in0.0 mm 0.00 in0.0 mm
01:56 PM 28.6°F-1.9°C 18.4°F-7.6°C 65% 5.6 mph WSW9.0 kmh WSW 8.0 mph12.9 kmh 30.02 in1016.6 mb 0.00 in0.0 mm 0.00 in0.0 mm 0.00 in0.0 mm
01:57 PM 28.6°F-1.9°C 18.4°F-7.6°C 65% 5.5 mph SW8.9 kmh SW 8.0 mph12.9 kmh 30.02 in1016.6 mb 0.00 in0.0 mm 0.00 in0.0 mm 0.00 in0.0 mm
01:58 PM 28.6°F-1.9°C 18.0°F-7.8°C 64% 5.5 mph SW8.9 kmh SW 7.0 mph11.3 kmh 30.02 in1016.6 mb 0.00 in0.0 mm 0.00 in0.0 mm 0.00 in0.0 mm
01:59 PM 28.6°F-1.9°C 18.0°F-7.8°C 64% 3.2 mph SW5.1 kmh SW 7.0 mph11.3 kmh 30.02 in1016.6 mb 0.00 in0.0 mm 0.00 in0.0 mm 0.00 in0.0 mm
02:00 PM 28.6°F-1.9°C 17.6°F-8.0°C 63% 4.1 mph SW6.6 kmh SW 5.0 mph8.0 kmh 30.02 in1016.6 mb 0.00 in0.0 mm 0.00 in0.0 mm 0.00 in0.0 mm
02:01 PM 28.6°F-1.9°C 17.6°F-8.0°C 63% 4.3 mph SSW6.9 kmh SSW 6.0 mph9.7 kmh 30.02 in1016.6 mb 0.00 in0.0 mm 0.00 in0.0 mm 0.00 in0.0 mm
02:02 PM 28.6°F-1.9°C 17.6°F-8.0°C 63% 3.9 mph S6.3 kmh S 5.0 mph8.0 kmh 30.02 in1016.6 mb 0.00 in0.0 mm 0.00 in0.0 mm 0.00 in0.0 mm
02:03 PM 28.6°F-1.9°C 17.6°F-8.0°C 63% 2.4 mph SSW3.9 kmh SSW 5.0 mph8.0 kmh 30.02 in1016.6 mb 0.00 in0.0 mm 0.00 in0.0 mm 0.00 in0.0 mm
02:04 PM 28.6°F-1.9°C 17.6°F-8.0°C 63% 3.5 mph S5.6 kmh S 5.0 mph8.0 kmh 30.02 in1016.6 mb 0.00 in0.0 mm 0.00 in0.0 mm 0.00 in0.0 mm
02:05 PM 28.6°F-1.9°C 17.6°F-8.0°C 63% 3.7 mph SSW6.0 kmh SSW 5.0 mph8.0 kmh 30.02 in1016.6 mb 0.00 in0.0 mm 0.00 in0.0 mm 0.00 in0.0 mm
02:06 PM 28.6°F-1.9°C 17.6°F-8.0°C 63% 3.5 mph SSW5.6 kmh SSW 5.0 mph8.0 kmh 30.02 in1016.6 mb 0.00 in0.0 mm 0.00 in0.0 mm 0.00 in0.0 mm
02:07 PM 28.6°F-1.9°C 17.6°F-8.0°C 63% 4.6 mph SSW7.4 kmh SSW 7.0 mph11.3 kmh 30.02 in1016.6 mb 0.00 in0.0 mm 0.00 in0.0 mm 0.00 in0.0 mm
02:08 PM 28.6°F-1.9°C 17.6°F-8.0°C 63% 5.9 mph SSW9.5 kmh SSW 7.0 mph11.3 kmh 30.02 in1016.6 mb 0.00 in0.0 mm 0.00 in0.0 mm 0.00 in0.0 mm
02:09 PM 28.6°F-1.9°C 17.3°F-8.2°C 62% 5.6 mph SSW9.0 kmh SSW 7.0 mph11.3 kmh 30.02 in1016.6 mb 0.00 in0.0 mm 0.00 in0.0 mm 0.00 in0.0 mm
02:10 PM 28.6°F-1.9°C 17.6°F-8.0°C 63% 4.8 mph SW7.7 kmh SW 7.0 mph11.3 kmh 30.02 in1016.6 mb 0.00 in0.0 mm 0.00 in0.0 mm 0.00 in0.0 mm
02:11 PM 28.6°F-1.9°C 17.6°F-8.0°C 63% 3.0 mph SSW4.8 kmh SSW 6.0 mph9.7 kmh 30.02 in1016.6 mb 0.00 in0.0 mm 0.00 in0.0 mm 0.00 in0.0 mm
02:12 PM 28.7°F-1.8°C 17.7°F-7.9°C 63% 3.4 mph SSW5.5 kmh SSW 4.0 mph6.4 kmh 30.02 in1016.6 mb 0.00 in0.0 mm 0.00 in0.0 mm 0.00 in0.0 mm
02:13 PM 28.8°F-1.8°C 17.8°F-7.9°C 63% 2.7 mph SSW4.3 kmh SSW 4.0 mph6.4 kmh 30.02 in1016.6 mb 0.00 in0.0 mm 0.00 in0.0 mm 0.00 in0.0 mm
02:14 PM 28.8°F-1.8°C 17.8°F-7.9°C 63% 2.5 mph SSW4.0 kmh SSW 4.0 mph6.4 kmh 30.02 in1016.6 mb 0.00 in0.0 mm 0.00 in0.0 mm 0.00 in0.0 mm
02:15 PM 28.9°F-1.7°C 17.9°F-7.8°C 63% 2.7 mph SSW4.3 kmh SSW 3.0 mph4.8 kmh 30.02 in1016.6 mb 0.00 in0.0 mm 0.00 in0.0 mm 0.00 in0.0 mm
02:16 PM 29.0°F-1.7°C 18.0°F-7.8°C 63% 4.3 mph S6.9 kmh S 8.0 mph12.9 kmh 30.02 in1016.6 mb 0.00 in0.0 mm 0.00 in0.0 mm 0.00 in0.0 mm
02:17 PM 29.0°F-1.7°C 17.6°F-8.0°C 62% 4.9 mph S7.9 kmh S 8.0 mph12.9 kmh 30.02 in1016.6 mb 0.00 in0.0 mm 0.00 in0.0 mm 0.00 in0.0 mm
02:18 PM 29.0°F-1.7°C 17.6°F-8.0°C 62% 4.2 mph S6.8 kmh S 6.0 mph9.7 kmh 30.02 in1016.6 mb 0.00 in0.0 mm 0.00 in0.0 mm 0.00 in0.0 mm
02:19 PM 29.0°F-1.7°C 17.6°F-8.0°C 62% 3.4 mph S5.5 kmh S 6.0 mph9.7 kmh 30.02 in1016.6 mb 0.00 in0.0 mm 0.00 in0.0 mm 0.00 in0.0 mm
02:20 PM 28.9°F-1.7°C 17.5°F-8.1°C 62% 3.3 mph S5.3 kmh S 5.0 mph8.0 kmh 30.02 in1016.6 mb 0.00 in0.0 mm 0.00 in0.0 mm 0.00 in0.0 mm
02:21 PM 29.0°F-1.7°C 17.6°F-8.0°C 62% 4.3 mph S6.9 kmh S 6.0 mph9.7 kmh 30.02 in1016.6 mb 0.00 in0.0 mm 0.00 in0.0 mm 0.00 in0.0 mm
02:22 PM 29.0°F-1.7°C 17.6°F-8.0°C 62% 2.9 mph S4.7 kmh S 6.0 mph9.7 kmh 30.02 in1016.6 mb 0.00 in0.0 mm 0.00 in0.0 mm 0.00 in0.0 mm
02:23 PM 29.0°F-1.7°C 17.6°F-8.0°C 62% 4.0 mph S6.4 kmh S 6.0 mph9.7 kmh 30.02 in1016.6 mb 0.00 in0.0 mm 0.00 in0.0 mm 0.00 in0.0 mm
02:24 PM 29.0°F-1.7°C 17.6°F-8.0°C 62% 5.0 mph SSW8.0 kmh SSW 6.0 mph9.7 kmh 30.02 in1016.6 mb 0.00 in0.0 mm 0.00 in0.0 mm 0.00 in0.0 mm
02:25 PM 29.0°F-1.7°C 18.0°F-7.8°C 63% 4.7 mph S7.6 kmh S 6.0 mph9.7 kmh 30.02 in1016.6 mb 0.00 in0.0 mm 0.00 in0.0 mm 0.00 in0.0 mm
02:26 PM 29.0°F-1.7°C 18.0°F-7.8°C 63% 4.4 mph S7.1 kmh S 5.0 mph8.0 kmh 30.02 in1016.6 mb 0.00 in0.0 mm 0.00 in0.0 mm 0.00 in0.0 mm
02:27 PM 29.0°F-1.7°C 18.0°F-7.8°C 63% 2.9 mph SSW4.7 kmh SSW 5.0 mph8.0 kmh 30.02 in1016.6 mb 0.00 in0.0 mm 0.00 in0.0 mm 0.00 in0.0 mm
02:28 PM 29.0°F-1.7°C 18.0°F-7.8°C 63% 3.5 mph SSW5.6 kmh SSW 5.0 mph8.0 kmh 30.02 in1016.6 mb 0.00 in0.0 mm 0.00 in0.0 mm 0.00 in0.0 mm
02:29 PM 29.0°F-1.7°C 18.0°F-7.8°C 63% 5.0 mph SSW8.0 kmh SSW 6.0 mph9.7 kmh 30.02 in1016.6 mb 0.00 in0.0 mm 0.00 in0.0 mm 0.00 in0.0 mm
02:30 PM 29.0°F-1.7°C 18.0°F-7.8°C 63% 4.2 mph SSW6.8 kmh SSW 6.0 mph9.7 kmh 30.01 in1016.3 mb 0.00 in0.0 mm 0.00 in0.0 mm 0.00 in0.0 mm
02:31 PM 29.0°F-1.7°C 18.0°F-7.8°C 63% 5.5 mph SSW8.9 kmh SSW 6.0 mph9.7 kmh 30.01 in1016.3 mb 0.00 in0.0 mm 0.00 in0.0 mm 0.00 in0.0 mm
02:32 PM 28.9°F-1.7°C 17.9°F-7.8°C 63% 5.1 mph SSW8.2 kmh SSW 6.0 mph9.7 kmh 30.01 in1016.3 mb 0.00 in0.0 mm 0.00 in0.0 mm 0.00 in0.0 mm
02:33 PM 28.9°F-1.7°C 17.9°F-7.8°C 63% 4.4 mph SSW7.1 kmh SSW 6.0 mph9.7 kmh 30.01 in1016.3 mb 0.00 in0.0 mm 0.00 in0.0 mm 0.00 in0.0 mm
02:34 PM 28.9°F-1.7°C 17.9°F-7.8°C 63% 4.7 mph S7.6 kmh S 6.0 mph9.7 kmh 30.01 in1016.3 mb 0.00 in0.0 mm 0.00 in0.0 mm 0.00 in0.0 mm
02:35 PM 28.8°F-1.8°C 18.2°F-7.7°C 64% 5.3 mph SW8.5 kmh SW 7.0 mph11.3 kmh 30.01 in1016.3 mb 0.00 in0.0 mm 0.00 in0.0 mm 0.00 in0.0 mm
02:36 PM 28.9°F-1.7°C 17.9°F-7.8°C 63% 4.2 mph SW6.8 kmh SW 7.0 mph11.3 kmh 30.01 in1016.3 mb 0.00 in0.0 mm 0.00 in0.0 mm 0.00 in0.0 mm
02:37 PM 28.9°F-1.7°C 17.5°F-8.1°C 62% 2.8 mph SW4.5 kmh SW 6.0 mph9.7 kmh 30.01 in1016.3 mb 0.00 in0.0 mm 0.00 in0.0 mm 0.00 in0.0 mm
02:38 PM 29.0°F-1.7°C 18.0°F-7.8°C 63% 3.9 mph SW6.3 kmh SW 7.0 mph11.3 kmh 30.01 in1016.3 mb 0.00 in0.0 mm 0.00 in0.0 mm 0.00 in0.0 mm
02:39 PM 29.0°F-1.7°C 18.4°F-7.6°C 64% 3.5 mph SW5.6 kmh SW 7.0 mph11.3 kmh 30.01 in1016.3 mb 0.00 in0.0 mm 0.00 in0.0 mm 0.00 in0.0 mm
02:40 PM 29.1°F-1.6°C 18.5°F-7.5°C 64% 4.4 mph SW7.1 kmh SW 5.0 mph8.0 kmh 30.01 in1016.3 mb 0.00 in0.0 mm 0.00 in0.0 mm 0.00 in0.0 mm
02:41 PM 29.1°F-1.6°C 18.1°F-7.7°C 63% 3.9 mph SW6.3 kmh SW 5.0 mph8.0 kmh 30.01 in1016.3 mb 0.00 in0.0 mm 0.00 in0.0 mm 0.00 in0.0 mm
02:42 PM 29.2°F-1.6°C 18.6°F-7.4°C 64% 3.1 mph SW5.0 kmh SW 5.0 mph8.0 kmh 30.01 in1016.3 mb 0.00 in0.0 mm 0.00 in0.0 mm 0.00 in0.0 mm
02:43 PM 29.3°F-1.5°C 18.3°F-7.6°C 63% 2.9 mph SW4.7 kmh SW 4.0 mph6.4 kmh 30.01 in1016.3 mb 0.00 in0.0 mm 0.00 in0.0 mm 0.00 in0.0 mm
02:44 PM 29.4°F-1.4°C 18.4°F-7.6°C 63% 2.8 mph SW4.5 kmh SW 4.0 mph6.4 kmh 30.01 in1016.3 mb 0.00 in0.0 mm 0.00 in0.0 mm 0.00 in0.0 mm
02:45 PM 29.5°F-1.4°C 18.5°F-7.5°C 63% 2.7 mph SW4.3 kmh SW 4.0 mph6.4 kmh 30.01 in1016.3 mb 0.00 in0.0 mm 0.00 in0.0 mm 0.00 in0.0 mm
02:46 PM 29.5°F-1.4°C 18.5°F-7.5°C 63% 2.5 mph SW4.0 kmh SW 3.0 mph4.8 kmh 30.01 in1016.3 mb 0.00 in0.0 mm 0.00 in0.0 mm 0.00 in0.0 mm
02:47 PM 29.6°F-1.3°C 18.6°F-7.4°C 63% 2.2 mph SSW3.5 kmh SSW 5.0 mph8.0 kmh 30.01 in1016.3 mb 0.00 in0.0 mm 0.00 in0.0 mm 0.00 in0.0 mm
02:48 PM 29.6°F-1.3°C 18.6°F-7.4°C 63% 1.9 mph SSE3.1 kmh SSE 5.0 mph8.0 kmh 30.01 in1016.3 mb 0.00 in0.0 mm 0.00 in0.0 mm 0.00 in0.0 mm
02:49 PM 29.6°F-1.3°C 18.6°F-7.4°C 63% 3.9 mph S6.3 kmh S 5.0 mph8.0 kmh 30.01 in1016.3 mb 0.00 in0.0 mm 0.00 in0.0 mm 0.00 in0.0 mm
02:50 PM 29.6°F-1.3°C 18.6°F-7.4°C 63% 3.6 mph SSW5.8 kmh SSW 5.0 mph8.0 kmh 30.01 in1016.3 mb 0.00 in0.0 mm 0.00 in0.0 mm 0.00 in0.0 mm
02:51 PM 29.6°F-1.3°C 18.2°F-7.7°C 62% 3.7 mph SSW6.0 kmh SSW 5.0 mph8.0 kmh 30.01 in1016.3 mb 0.00 in0.0 mm 0.00 in0.0 mm 0.00 in0.0 mm
02:52 PM 29.6°F-1.3°C 18.2°F-7.7°C 62% 2.5 mph SSW4.0 kmh SSW 5.0 mph8.0 kmh 30.01 in1016.3 mb 0.00 in0.0 mm 0.00 in0.0 mm 0.00 in0.0 mm
02:53 PM 29.5°F-1.4°C 18.1°F-7.7°C 62% 3.9 mph SSW6.3 kmh SSW 5.0 mph8.0 kmh 30.01 in1016.3 mb 0.00 in0.0 mm 0.00 in0.0 mm 0.00 in0.0 mm
02:54 PM 29.4°F-1.4°C 18.0°F-7.8°C 62% 3.1 mph SSW5.0 kmh SSW 5.0 mph8.0 kmh 30.01 in1016.3 mb 0.00 in0.0 mm 0.00 in0.0 mm 0.00 in0.0 mm
02:55 PM 29.4°F-1.4°C 18.4°F-7.6°C 63% 2.1 mph SSW3.4 kmh SSW 4.0 mph6.4 kmh 30.01 in1016.3 mb 0.00 in0.0 mm 0.00 in0.0 mm 0.00 in0.0 mm
02:56 PM 29.4°F-1.4°C 18.4°F-7.6°C 63% 2.4 mph SSW3.9 kmh SSW 3.0 mph4.8 kmh 30.01 in1016.3 mb 0.00 in0.0 mm 0.00 in0.0 mm 0.00 in0.0 mm
02:57 PM 29.4°F-1.4°C 18.4°F-7.6°C 63% 2.1 mph S3.4 kmh S 4.0 mph6.4 kmh 30.00 in1015.9 mb 0.00 in0.0 mm 0.00 in0.0 mm 0.00 in0.0 mm
02:58 PM 29.3°F-1.5°C 18.3°F-7.6°C 63% 4.4 mph SSW7.1 kmh SSW 6.0 mph9.7 kmh 30.01 in1016.3 mb 0.00 in0.0 mm 0.00 in0.0 mm 0.00 in0.0 mm
02:59 PM 29.3°F-1.5°C 18.3°F-7.6°C 63% 3.3 mph SSW5.3 kmh SSW 6.0 mph9.7 kmh 30.01 in1016.3 mb 0.00 in0.0 mm 0.00 in0.0 mm 0.00 in0.0 mm
03:00 PM 29.3°F-1.5°C 18.3°F-7.6°C 63% 3.5 mph SSW5.6 kmh SSW 5.0 mph8.0 kmh 30.01 in1016.3 mb 0.00 in0.0 mm 0.00 in0.0 mm 0.00 in0.0 mm
03:01 PM 29.4°F-1.4°C 18.4°F-7.6°C 63% 4.1 mph SW6.6 kmh SW 5.0 mph8.0 kmh 30.01 in1016.3 mb 0.00 in0.0 mm 0.00 in0.0 mm 0.00 in0.0 mm
03:02 PM 29.4°F-1.4°C 18.8°F-7.3°C 64% 4.4 mph SW7.1 kmh SW 5.0 mph8.0 kmh 30.01 in1016.3 mb 0.00 in0.0 mm 0.00 in0.0 mm 0.00 in0.0 mm
03:03 PM 29.4°F-1.4°C 18.8°F-7.3°C 64% 5.0 mph SW8.0 kmh SW 7.0 mph11.3 kmh 30.00 in1015.9 mb 0.00 in0.0 mm 0.00 in0.0 mm 0.00 in0.0 mm
03:04 PM 29.4°F-1.4°C 18.4°F-7.6°C 63% 4.6 mph SW7.4 kmh SW 7.0 mph11.3 kmh 30.00 in1015.9 mb 0.00 in0.0 mm 0.00 in0.0 mm 0.00 in0.0 mm
03:05 PM 29.4°F-1.4°C 18.4°F-7.6°C 63% 5.1 mph SSW8.2 kmh SSW 6.0 mph9.7 kmh 30.00 in1015.9 mb 0.00 in0.0 mm 0.00 in0.0 mm 0.00 in0.0 mm
03:06 PM 29.3°F-1.5°C 18.3°F-7.6°C 63% 3.4 mph S5.5 kmh S 6.0 mph9.7 kmh 30.00 in1015.9 mb 0.00 in0.0 mm 0.00 in0.0 mm 0.00 in0.0 mm
03:07 PM 29.3°F-1.5°C 18.3°F-7.6°C 63% 3.2 mph S5.1 kmh S 5.0 mph8.0 kmh 30.00 in1015.9 mb 0.00 in0.0 mm 0.00 in0.0 mm 0.00 in0.0 mm
03:08 PM 29.3°F-1.5°C 18.3°F-7.6°C 63% 3.2 mph S5.1 kmh S 4.0 mph6.4 kmh 30.00 in1015.9 mb 0.00 in0.0 mm 0.00 in0.0 mm 0.00 in0.0 mm
03:09 PM 29.3°F-1.5°C 18.3°F-7.6°C 63% 2.1 mph S3.4 kmh S 4.0 mph6.4 kmh 30.00 in1015.9 mb 0.00 in0.0 mm 0.00 in0.0 mm 0.00 in0.0 mm
03:10 PM 29.3°F-1.5°C 18.7°F-7.4°C 64% 1.8 mph S2.9 kmh S 4.0 mph6.4 kmh 30.00 in1015.9 mb 0.00 in0.0 mm 0.00 in0.0 mm 0.00 in0.0 mm
03:11 PM 29.3°F-1.5°C 18.3°F-7.6°C 63% 3.2 mph S5.1 kmh S 5.0 mph8.0 kmh 30.00 in1015.9 mb 0.00 in0.0 mm 0.00 in0.0 mm 0.00 in0.0 mm
03:12 PM 29.3°F-1.5°C 18.3°F-7.6°C 63% 2.5 mph S4.0 kmh S 5.0 mph8.0 kmh 30.00 in1015.9 mb 0.00 in0.0 mm 0.00 in0.0 mm 0.00 in0.0 mm
03:13 PM 29.2°F-1.6°C 18.6°F-7.4°C 64% 2.6 mph S4.2 kmh S 5.0 mph8.0 kmh 30.00 in1015.9 mb 0.00 in0.0 mm 0.00 in0.0 mm 0.00 in0.0 mm
03:14 PM 29.2°F-1.6°C 18.6°F-7.4°C 64% 4.0 mph S6.4 kmh S 5.0 mph8.0 kmh 30.00 in1015.9 mb 0.00 in0.0 mm 0.00 in0.0 mm 0.00 in0.0 mm
03:15 PM 29.2°F-1.6°C 18.6°F-7.4°C 64% 2.9 mph S4.7 kmh S 5.0 mph8.0 kmh 30.00 in1015.9 mb 0.00 in0.0 mm 0.00 in0.0 mm 0.00 in0.0 mm
03:16 PM 29.1°F-1.6°C 18.5°F-7.5°C 64% 2.0 mph S3.2 kmh S 5.0 mph8.0 kmh 30.00 in1015.9 mb 0.00 in0.0 mm 0.00 in0.0 mm 0.00 in0.0 mm
03:17 PM 29.2°F-1.6°C 18.6°F-7.4°C 64% 2.9 mph S4.7 kmh S 4.0 mph6.4 kmh 30.00 in1015.9 mb 0.00 in0.0 mm 0.00 in0.0 mm 0.00 in0.0 mm
03:18 PM 29.2°F-1.6°C 18.6°F-7.4°C 64% 1.8 mph S2.9 kmh S 4.0 mph6.4 kmh 30.00 in1015.9 mb 0.00 in0.0 mm 0.00 in0.0 mm 0.00 in0.0 mm
03:19 PM 29.1°F-1.6°C 18.5°F-7.5°C 64% 1.1 mph S1.8 kmh S 4.0 mph6.4 kmh 30.00 in1015.9 mb 0.00 in0.0 mm 0.00 in0.0 mm 0.00 in0.0 mm
03:20 PM 29.1°F-1.6°C 18.5°F-7.5°C 64% 1.8 mph S2.9 kmh S 4.0 mph6.4 kmh 30.00 in1015.9 mb 0.00 in0.0 mm 0.00 in0.0 mm 0.00 in0.0 mm
03:21 PM 29.2°F-1.6°C 18.6°F-7.4°C 64% 2.6 mph S4.2 kmh S 4.0 mph6.4 kmh 30.00 in1015.9 mb 0.00 in0.0 mm 0.00 in0.0 mm 0.00 in0.0 mm
03:22 PM 29.2°F-1.6°C 18.6°F-7.4°C 64% 2.4 mph S3.9 kmh S 4.0 mph6.4 kmh 30.00 in1015.9 mb 0.00 in0.0 mm 0.00 in0.0 mm 0.00 in0.0 mm
03:23 PM 29.2°F-1.6°C 18.6°F-7.4°C 64% 1.9 mph S3.1 kmh S 3.0 mph4.8 kmh 30.00 in1015.9 mb 0.00 in0.0 mm 0.00 in0.0 mm 0.00 in0.0 mm
03:24 PM 29.1°F-1.6°C 18.5°F-7.5°C 64% 3.0 mph S4.8 kmh S 4.0 mph6.4 kmh 30.00 in1015.9 mb 0.00 in0.0 mm 0.00 in0.0 mm 0.00 in0.0 mm
03:25 PM 29.1°F-1.6°C 18.5°F-7.5°C 64% 3.1 mph S5.0 kmh S 5.0 mph8.0 kmh 30.00 in1015.9 mb 0.00 in0.0 mm 0.00 in0.0 mm 0.00 in0.0 mm
03:26 PM 29.1°F-1.6°C 18.5°F-7.5°C 64% 2.4 mph S3.9 kmh S 5.0 mph8.0 kmh 30.00 in1015.9 mb 0.00 in0.0 mm 0.00 in0.0 mm 0.00 in0.0 mm
03:27 PM 29.1°F-1.6°C 18.5°F-7.5°C 64% 2.8 mph S4.5 kmh S 5.0 mph8.0 kmh 30.00 in1015.9 mb 0.00 in0.0 mm 0.00 in0.0 mm 0.00 in0.0 mm
03:28 PM 29.1°F-1.6°C 18.5°F-7.5°C 64% 2.3 mph S3.7 kmh S 5.0 mph8.0 kmh 29.99 in1015.6 mb 0.00 in0.0 mm 0.00 in0.0 mm 0.00 in0.0 mm
03:29 PM 29.1°F-1.6°C 18.5°F-7.5°C 64% 4.2 mph S6.8 kmh S 6.0 mph9.7 kmh 30.00 in1015.9 mb 0.00 in0.0 mm 0.00 in0.0 mm 0.00 in0.0 mm
03:30 PM 29.1°F-1.6°C 18.5°F-7.5°C 64% 4.0 mph S6.4 kmh S 6.0 mph9.7 kmh 29.99 in1015.6 mb 0.00 in0.0 mm 0.00 in0.0 mm 0.00 in0.0 mm
03:31 PM 29.0°F-1.7°C 18.4°F-7.6°C 64% 2.3 mph S3.7 kmh S 5.0 mph8.0 kmh 29.99 in1015.6 mb 0.00 in0.0 mm 0.00 in0.0 mm 0.00 in0.0 mm
03:32 PM 29.1°F-1.6°C 18.5°F-7.5°C 64% 3.6 mph S5.8 kmh S 5.0 mph8.0 kmh 29.99 in1015.6 mb 0.00 in0.0 mm 0.00 in0.0 mm 0.00 in0.0 mm
03:33 PM 29.0°F-1.7°C 18.4°F-7.6°C 64% 4.2 mph S6.8 kmh S 5.0 mph8.0 kmh 29.99 in1015.6 mb 0.00 in0.0 mm 0.00 in0.0 mm 0.00 in0.0 mm
03:34 PM 29.0°F-1.7°C 18.4°F-7.6°C 64% 3.6 mph S5.8 kmh S 5.0 mph8.0 kmh 29.99 in1015.6 mb 0.00 in0.0 mm 0.00 in0.0 mm 0.00 in0.0 mm
03:35 PM 28.9°F-1.7°C 18.3°F-7.6°C 64% 1.8 mph S2.9 kmh S 5.0 mph8.0 kmh 29.99 in1015.6 mb 0.00 in0.0 mm 0.00 in0.0 mm 0.00 in0.0 mm
03:36 PM 28.9°F-1.7°C 18.3°F-7.6°C 64% 1.6 mph S2.6 kmh S 4.0 mph6.4 kmh 29.99 in1015.6 mb 0.00 in0.0 mm 0.00 in0.0 mm 0.00 in0.0 mm
03:37 PM 28.9°F-1.7°C 18.3°F-7.6°C 64% 2.5 mph S4.0 kmh S 4.0 mph6.4 kmh 29.99 in1015.6 mb 0.00 in0.0 mm 0.00 in0.0 mm 0.00 in0.0 mm
03:38 PM 28.9°F-1.7°C 18.3°F-7.6°C 64% 3.9 mph S6.3 kmh S 5.0 mph8.0 kmh 29.99 in1015.6 mb 0.00 in0.0 mm 0.00 in0.0 mm 0.00 in0.0 mm
03:39 PM 28.9°F-1.7°C 18.3°F-7.6°C 64% 2.7 mph S4.3 kmh S 5.0 mph8.0 kmh 30.00 in1015.9 mb 0.00 in0.0 mm 0.00 in0.0 mm 0.00 in0.0 mm
03:40 PM 28.9°F-1.7°C 18.3°F-7.6°C 64% 2.1 mph S3.4 kmh S 4.0 mph6.4 kmh 30.00 in1015.9 mb 0.00 in0.0 mm 0.00 in0.0 mm 0.00 in0.0 mm
03:41 PM 28.8°F-1.8°C 18.2°F-7.7°C 64% 2.0 mph S3.2 kmh S 3.0 mph4.8 kmh 30.00 in1015.9 mb 0.00 in0.0 mm 0.00 in0.0 mm 0.00 in0.0 mm
03:42 PM 28.8°F-1.8°C 18.2°F-7.7°C 64% 1.9 mph S3.1 kmh S 3.0 mph4.8 kmh 29.99 in1015.6 mb 0.00 in0.0 mm 0.00 in0.0 mm 0.00 in0.0 mm
03:43 PM 28.8°F-1.8°C 18.2°F-7.7°C 64% 2.7 mph S4.3 kmh S 4.0 mph6.4 kmh 30.00 in1015.9 mb 0.00 in0.0 mm 0.00 in0.0 mm 0.00 in0.0 mm
03:44 PM 28.8°F-1.8°C 18.2°F-7.7°C 64% 2.4 mph S3.9 kmh S 4.0 mph6.4 kmh 29.99 in1015.6 mb 0.00 in0.0 mm 0.00 in0.0 mm 0.00 in0.0 mm
03:45 PM 28.8°F-1.8°C 18.2°F-7.7°C 64% 2.2 mph S3.5 kmh S 3.0 mph4.8 kmh 29.99 in1015.6 mb 0.00 in0.0 mm 0.00 in0.0 mm 0.00 in0.0 mm
03:46 PM 28.8°F-1.8°C 18.2°F-7.7°C 64% 3.0 mph S4.8 kmh S 4.0 mph6.4 kmh 29.99 in1015.6 mb 0.00 in0.0 mm 0.00 in0.0 mm 0.00 in0.0 mm
03:47 PM 28.8°F-1.8°C 18.2°F-7.7°C 64% 2.5 mph S4.0 kmh S 4.0 mph6.4 kmh 29.99 in1015.6 mb 0.00 in0.0 mm 0.00 in0.0 mm 0.00 in0.0 mm
03:48 PM 28.8°F-1.8°C 18.5°F-7.5°C 65% 1.8 mph S2.9 kmh S 3.0 mph4.8 kmh 29.99 in1015.6 mb 0.00 in0.0 mm 0.00 in0.0 mm 0.00 in0.0 mm
03:49 PM 28.7°F-1.8°C 18.4°F-7.6°C 65% 1.6 mph S2.6 kmh S 3.0 mph4.8 kmh 29.99 in1015.6 mb 0.00 in0.0 mm 0.00 in0.0 mm 0.00 in0.0 mm
03:50 PM 28.8°F-1.8°C 18.5°F-7.5°C 65% 1.6 mph S2.6 kmh S 3.0 mph4.8 kmh 29.99 in1015.6 mb 0.00 in0.0 mm 0.00 in0.0 mm 0.00 in0.0 mm
03:51 PM 28.7°F-1.8°C 18.4°F-7.6°C 65% 1.4 mph S2.3 kmh S 2.0 mph3.2 kmh 29.99 in1015.6 mb 0.00 in0.0 mm 0.00 in0.0 mm 0.00 in0.0 mm
03:52 PM 28.8°F-1.8°C 18.5°F-7.5°C 65% 1.8 mph S2.9 kmh S 2.0 mph3.2 kmh 29.99 in1015.6 mb 0.00 in0.0 mm 0.00 in0.0 mm 0.00 in0.0 mm
03:53 PM 28.8°F-1.8°C 18.5°F-7.5°C 65% 1.6 mph S2.6 kmh S 2.0 mph3.2 kmh 30.00 in1015.9 mb 0.00 in0.0 mm 0.00 in0.0 mm 0.00 in0.0 mm
03:54 PM 28.7°F-1.8°C 18.4°F-7.6°C 65% 1.3 mph S2.1 kmh S 2.0 mph3.2 kmh 30.00 in1015.9 mb 0.00 in0.0 mm 0.00 in0.0 mm 0.00 in0.0 mm
03:55 PM 28.7°F-1.8°C 18.4°F-7.6°C 65% 2.3 mph S3.7 kmh S 3.0 mph4.8 kmh 29.99 in1015.6 mb 0.00 in0.0 mm 0.00 in0.0 mm 0.00 in0.0 mm
03:56 PM 28.8°F-1.8°C 18.5°F-7.5°C 65% 2.4 mph S3.9 kmh S 3.0 mph4.8 kmh 30.00 in1015.9 mb 0.00 in0.0 mm 0.00 in0.0 mm 0.00 in0.0 mm
03:57 PM 28.8°F-1.8°C 18.5°F-7.5°C 65% 2.4 mph S3.9 kmh S 3.0 mph4.8 kmh 30.00 in1015.9 mb 0.00 in0.0 mm 0.00 in0.0 mm 0.00 in0.0 mm
03:58 PM 28.7°F-1.8°C 18.4°F-7.6°C 65% 2.5 mph S4.0 kmh S 4.0 mph6.4 kmh 30.00 in1015.9 mb 0.00 in0.0 mm 0.00 in0.0 mm 0.00 in0.0 mm
03:59 PM 28.7°F-1.8°C 18.1°F-7.7°C 64% 1.7 mph S2.7 kmh S 4.0 mph6.4 kmh 30.00 in1015.9 mb 0.00 in0.0 mm 0.00 in0.0 mm 0.00 in0.0 mm
04:00 PM 28.7°F-1.8°C 18.4°F-7.6°C 65% 1.0 mph S1.6 kmh S 2.0 mph3.2 kmh 30.00 in1015.9 mb 0.00 in0.0 mm 0.00 in0.0 mm 0.00 in0.0 mm
04:01 PM 28.7°F-1.8°C 18.4°F-7.6°C 65% Calm Calm 2.0 mph3.2 kmh 30.00 in1015.9 mb 0.00 in0.0 mm 0.00 in0.0 mm 0.00 in0.0 mm
04:02 PM 28.7°F-1.8°C 18.4°F-7.6°C 65% 1.5 mph S2.4 kmh S 3.0 mph4.8 kmh 29.99 in1015.6 mb 0.00 in0.0 mm 0.00 in0.0 mm 0.00 in0.0 mm
04:03 PM 28.7°F-1.8°C 18.4°F-7.6°C 65% 2.0 mph S3.2 kmh S 3.0 mph4.8 kmh 29.99 in1015.6 mb 0.00 in0.0 mm 0.00 in0.0 mm 0.00 in0.0 mm
04:04 PM 28.7°F-1.8°C 18.4°F-7.6°C 65% 1.8 mph S2.9 kmh S 3.0 mph4.8 kmh 29.99 in1015.6 mb 0.00 in0.0 mm 0.00 in0.0 mm 0.00 in0.0 mm
04:05 PM 28.7°F-1.8°C 18.1°F-7.7°C 64% 2.1 mph S3.4 kmh S 3.0 mph4.8 kmh 29.99 in1015.6 mb 0.00 in0.0 mm 0.00 in0.0 mm 0.00 in0.0 mm
04:06 PM 28.7°F-1.8°C 18.1°F-7.7°C 64% 3.2 mph S5.1 kmh S 4.0 mph6.4 kmh 29.99 in1015.6 mb 0.00 in0.0 mm 0.00 in0.0 mm 0.00 in0.0 mm
04:07 PM 28.7°F-1.8°C 18.1°F-7.7°C 64% 3.2 mph S5.1 kmh S 4.0 mph6.4 kmh 29.99 in1015.6 mb 0.00 in0.0 mm 0.00 in0.0 mm 0.00 in0.0 mm
04:08 PM 28.7°F-1.8°C 18.1°F-7.7°C 64% 2.8 mph S4.5 kmh S 4.0 mph6.4 kmh 29.99 in1015.6 mb 0.00 in0.0 mm 0.00 in0.0 mm 0.00 in0.0 mm
04:09 PM 28.7°F-1.8°C 18.1°F-7.7°C 64% 2.3 mph S3.7 kmh S 4.0 mph6.4 kmh 29.99 in1015.6 mb 0.00 in0.0 mm 0.00 in0.0 mm 0.00 in0.0 mm
04:10 PM 28.7°F-1.8°C 18.4°F-7.6°C 65% 1.6 mph S2.6 kmh S 3.0 mph4.8 kmh 29.99 in1015.6 mb 0.00 in0.0 mm 0.00 in0.0 mm 0.00 in0.0 mm
04:11 PM 28.7°F-1.8°C 18.1°F-7.7°C 64% 2.0 mph S3.2 kmh S 3.0 mph4.8 kmh 29.99 in1015.6 mb 0.00 in0.0 mm 0.00 in0.0 mm 0.00 in0.0 mm
04:12 PM 28.7°F-1.8°C 18.1°F-7.7°C 64% 1.6 mph S2.6 kmh S 3.0 mph4.8 kmh 29.99 in1015.6 mb 0.00 in0.0 mm 0.00 in0.0 mm 0.00 in0.0 mm
04:13 PM 28.7°F-1.8°C 18.1°F-7.7°C 64% 1.8 mph S2.9 kmh S 3.0 mph4.8 kmh 29.99 in1015.6 mb 0.00 in0.0 mm 0.00 in0.0 mm 0.00 in0.0 mm
04:14 PM 28.6°F-1.9°C 18.4°F-7.6°C 65% 1.3 mph S2.1 kmh S 3.0 mph4.8 kmh 29.99 in1015.6 mb 0.00 in0.0 mm 0.00 in0.0 mm 0.00 in0.0 mm
04:15 PM 28.7°F-1.8°C 18.4°F-7.6°C 65% 1.2 mph S1.9 kmh S 2.0 mph3.2 kmh 29.99 in1015.6 mb 0.00 in0.0 mm 0.00 in0.0 mm 0.00 in0.0 mm
04:16 PM 28.7°F-1.8°C 18.4°F-7.6°C 65% 1.4 mph S2.3 kmh S 2.0 mph3.2 kmh 29.99 in1015.6 mb 0.00 in0.0 mm 0.00 in0.0 mm 0.00 in0.0 mm
04:17 PM 28.6°F-1.9°C 18.0°F-7.8°C 64% 2.2 mph S3.5 kmh S 3.0 mph4.8 kmh 29.99 in1015.6 mb 0.00 in0.0 mm 0.00 in0.0 mm 0.00 in0.0 mm
04:18 PM 28.7°F-1.8°C 18.1°F-7.7°C 64% 2.7 mph S4.3 kmh S 4.0 mph6.4 kmh 29.99 in1015.6 mb 0.00 in0.0 mm 0.00 in0.0 mm 0.00 in0.0 mm
04:19 PM 28.6°F-1.9°C 18.0°F-7.8°C 64% 2.5 mph S4.0 kmh S 3.0 mph4.8 kmh 29.99 in1015.6 mb 0.00 in0.0 mm 0.00 in0.0 mm 0.00 in0.0 mm
04:20 PM 28.6°F-1.9°C 18.0°F-7.8°C 64% 1.9 mph S3.1 kmh S 3.0 mph4.8 kmh 29.99 in1015.6 mb 0.00 in0.0 mm 0.00 in0.0 mm 0.00 in0.0 mm
04:21 PM 28.6°F-1.9°C 18.0°F-7.8°C 64% 1.6 mph S2.6 kmh S 2.0 mph3.2 kmh 29.99 in1015.6 mb 0.00 in0.0 mm 0.00 in0.0 mm 0.00 in0.0 mm
04:22 PM 28.6°F-1.9°C 18.0°F-7.8°C 64% 1.5 mph S2.4 kmh S 2.0 mph3.2 kmh 29.99 in1015.6 mb 0.00 in0.0 mm 0.00 in0.0 mm 0.00 in0.0 mm
04:23 PM 28.6°F-1.9°C 18.0°F-7.8°C 64% 1.8 mph S2.9 kmh S 2.0 mph3.2 kmh 29.99 in1015.6 mb 0.00 in0.0 mm 0.00 in0.0 mm 0.00 in0.0 mm
04:24 PM 28.6°F-1.9°C 18.4°F-7.6°C 65% 1.1 mph S1.8 kmh S 2.0 mph3.2 kmh 29.99 in1015.6 mb 0.00 in0.0 mm 0.00 in0.0 mm 0.00 in0.0 mm
04:25 PM 28.6°F-1.9°C 18.4°F-7.6°C 65% 0.9 mph S1.4 kmh S 2.0 mph3.2 kmh 29.99 in1015.6 mb 0.00 in0.0 mm 0.00 in0.0 mm 0.00 in0.0 mm
04:26 PM 28.6°F-1.9°C 18.4°F-7.6°C 65% 0.6 mph S1.0 kmh S 2.0 mph3.2 kmh 29.99 in1015.6 mb 0.00 in0.0 mm 0.00 in0.0 mm 0.00 in0.0 mm
04:27 PM 28.6°F-1.9°C 18.4°F-7.6°C 65% 1.3 mph S2.1 kmh S 3.0 mph4.8 kmh 29.99 in1015.6 mb 0.00 in0.0 mm 0.00 in0.0 mm 0.00 in0.0 mm
04:28 PM 28.6°F-1.9°C 18.4°F-7.6°C 65% 1.9 mph S3.1 kmh S 3.0 mph4.8 kmh 29.99 in1015.6 mb 0.00 in0.0 mm 0.00 in0.0 mm 0.00 in0.0 mm
04:29 PM 28.5°F-1.9°C 18.3°F-7.6°C 65% 1.8 mph S2.9 kmh S 3.0 mph4.8 kmh 29.99 in1015.6 mb 0.00 in0.0 mm 0.00 in0.0 mm 0.00 in0.0 mm
04:30 PM 28.6°F-1.9°C 18.4°F-7.6°C 65% 2.1 mph S3.4 kmh S 3.0 mph4.8 kmh 29.99 in1015.6 mb 0.00 in0.0 mm 0.00 in0.0 mm 0.00 in0.0 mm
04:31 PM 28.5°F-1.9°C 18.3°F-7.6°C 65% 2.2 mph S3.5 kmh S 3.0 mph4.8 kmh 29.99 in1015.6 mb 0.00 in0.0 mm 0.00 in0.0 mm 0.00 in0.0 mm
04:32 PM 28.5°F-1.9°C 18.3°F-7.6°C 65% 1.6 mph S2.6 kmh S 3.0 mph4.8 kmh 29.99 in1015.6 mb 0.00 in0.0 mm 0.00 in0.0 mm 0.00 in0.0 mm
04:33 PM 28.5°F-1.9°C 18.3°F-7.6°C 65% 1.5 mph S2.4 kmh S 2.0 mph3.2 kmh 29.99 in1015.6 mb 0.00 in0.0 mm 0.00 in0.0 mm 0.00 in0.0 mm
04:34 PM 28.5°F-1.9°C 18.3°F-7.6°C 65% 1.5 mph S2.4 kmh S 2.0 mph3.2 kmh 29.99 in1015.6 mb 0.00 in0.0 mm 0.00 in0.0 mm 0.00 in0.0 mm
04:35 PM 28.6°F-1.9°C 18.4°F-7.6°C 65% 1.5 mph S2.4 kmh S 2.0 mph3.2 kmh 29.99 in1015.6 mb 0.00 in0.0 mm 0.00 in0.0 mm 0.00 in0.0 mm
04:36 PM 28.5°F-1.9°C 18.3°F-7.6°C 65% 1.3 mph S2.1 kmh S 3.0 mph4.8 kmh 29.99 in1015.6 mb 0.00 in0.0 mm 0.00 in0.0 mm 0.00 in0.0 mm
04:37 PM 28.5°F-1.9°C 18.3°F-7.6°C 65% 2.4 mph S3.9 kmh S 3.0 mph4.8 kmh 29.99 in1015.6 mb 0.00 in0.0 mm 0.00 in0.0 mm 0.00 in0.0 mm
04:38 PM 28.5°F-1.9°C 18.3°F-7.6°C 65% 1.7 mph S2.7 kmh S 3.0 mph4.8 kmh 29.99 in1015.6 mb 0.00 in0.0 mm 0.00 in0.0 mm 0.00 in0.0 mm
04:39 PM 28.5°F-1.9°C 18.3°F-7.6°C 65% 2.0 mph S3.2 kmh S 3.0 mph4.8 kmh 29.99 in1015.6 mb 0.00 in0.0 mm 0.00 in0.0 mm 0.00 in0.0 mm
04:40 PM 28.5°F-1.9°C 18.6°F-7.4°C 66% 1.8 mph S2.9 kmh S 3.0 mph4.8 kmh 29.98 in1015.2 mb 0.00 in0.0 mm 0.00 in0.0 mm 0.00 in0.0 mm
04:41 PM 28.5°F-1.9°C 18.6°F-7.4°C 66% 2.0 mph S3.2 kmh S 3.0 mph4.8 kmh 29.98 in1015.2 mb 0.00 in0.0 mm 0.00 in0.0 mm 0.00 in0.0 mm
04:42 PM 28.4°F-2.0°C 18.5°F-7.5°C 66% 2.2 mph S3.5 kmh S 3.0 mph4.8 kmh 29.98 in1015.2 mb 0.00 in0.0 mm 0.00 in0.0 mm 0.00 in0.0 mm
04:43 PM 28.5°F-1.9°C 18.6°F-7.4°C 66% 1.9 mph S3.1 kmh S 3.0 mph4.8 kmh 29.98 in1015.2 mb 0.00 in0.0 mm 0.00 in0.0 mm 0.00 in0.0 mm
04:44 PM 28.4°F-2.0°C 18.5°F-7.5°C 66% 2.1 mph S3.4 kmh S 3.0 mph4.8 kmh 29.98 in1015.2 mb 0.00 in0.0 mm 0.00 in0.0 mm 0.00 in0.0 mm
04:45 PM 28.4°F-2.0°C 18.5°F-7.5°C 66% 2.4 mph S3.9 kmh S 3.0 mph4.8 kmh 29.98 in1015.2 mb 0.00 in0.0 mm 0.00 in0.0 mm 0.00 in0.0 mm
04:46 PM 28.3°F-2.1°C 18.4°F-7.6°C 66% 2.6 mph S4.2 kmh S 3.0 mph4.8 kmh 29.98 in1015.2 mb 0.00 in0.0 mm 0.00 in0.0 mm 0.00 in0.0 mm
04:47 PM 28.3°F-2.1°C 18.4°F-7.6°C 66% 2.1 mph S3.4 kmh S 3.0 mph4.8 kmh 29.98 in1015.2 mb 0.00 in0.0 mm 0.00 in0.0 mm 0.00 in0.0 mm
04:48 PM 28.3°F-2.1°C 18.8°F-7.3°C 67% 2.1 mph S3.4 kmh S 3.0 mph4.8 kmh 29.98 in1015.2 mb 0.00 in0.0 mm 0.00 in0.0 mm 0.00 in0.0 mm
04:49 PM 28.3°F-2.1°C 18.8°F-7.3°C 67% 2.0 mph S3.2 kmh S 3.0 mph4.8 kmh 29.98 in1015.2 mb 0.00 in0.0 mm 0.00 in0.0 mm 0.00 in0.0 mm
04:50 PM 28.3°F-2.1°C 18.8°F-7.3°C 67% 2.3 mph S3.7 kmh S 3.0 mph4.8 kmh 29.98 in1015.2 mb 0.00 in0.0 mm 0.00 in0.0 mm 0.00 in0.0 mm
04:51 PM 28.3°F-2.1°C 18.8°F-7.3°C 67% 2.0 mph S3.2 kmh S 3.0 mph4.8 kmh 29.98 in1015.2 mb 0.00 in0.0 mm 0.00 in0.0 mm 0.00 in0.0 mm
04:52 PM 28.3°F-2.1°C 18.8°F-7.3°C 67% 1.9 mph S3.1 kmh S 3.0 mph4.8 kmh 29.98 in1015.2 mb 0.00 in0.0 mm 0.00 in0.0 mm 0.00 in0.0 mm
04:53 PM 28.2°F-2.1°C 18.7°F-7.4°C 67% 2.0 mph S3.2 kmh S 3.0 mph4.8 kmh 29.98 in1015.2 mb 0.00 in0.0 mm 0.00 in0.0 mm 0.00 in0.0 mm
04:54 PM 28.2°F-2.1°C 18.7°F-7.4°C 67% 1.6 mph S2.6 kmh S 3.0 mph4.8 kmh 29.98 in1015.2 mb 0.00 in0.0 mm 0.00 in0.0 mm 0.00 in0.0 mm
04:55 PM 28.2°F-2.1°C 18.7°F-7.4°C 67% 1.6 mph S2.6 kmh S 2.0 mph3.2 kmh 29.98 in1015.2 mb 0.00 in0.0 mm 0.00 in0.0 mm 0.00 in0.0 mm
04:56 PM 28.2°F-2.1°C 18.7°F-7.4°C 67% 1.2 mph S1.9 kmh S 2.0 mph3.2 kmh 29.98 in1015.2 mb 0.00 in0.0 mm 0.00 in0.0 mm 0.00 in0.0 mm
04:57 PM 28.2°F-2.1°C 18.7°F-7.4°C 67% 0.6 mph S1.0 kmh S 2.0 mph3.2 kmh 29.98 in1015.2 mb 0.00 in0.0 mm 0.00 in0.0 mm 0.00 in0.0 mm
04:58 PM 28.1°F-2.2°C 18.6°F-7.4°C 67% 0.2 mph S0.3 kmh S 2.0 mph3.2 kmh 29.98 in1015.2 mb 0.00 in0.0 mm 0.00 in0.0 mm 0.00 in0.0 mm
04:59 PM 28.1°F-2.2°C 18.6°F-7.4°C 67% 0.1 mph S0.2 kmh S 1.0 mph1.6 kmh 29.98 in1015.2 mb 0.00 in0.0 mm 0.00 in0.0 mm 0.00 in0.0 mm
05:00 PM 28.1°F-2.2°C 18.6°F-7.4°C 67% 0.2 mph S0.3 kmh S 1.0 mph1.6 kmh 29.98 in1015.2 mb 0.00 in0.0 mm 0.00 in0.0 mm 0.00 in0.0 mm
05:01 PM 28.1°F-2.2°C 18.6°F-7.4°C 67% 0.3 mph S0.5 kmh S 1.0 mph1.6 kmh 29.98 in1015.2 mb 0.00 in0.0 mm 0.00 in0.0 mm 0.00 in0.0 mm
05:02 PM 28.1°F-2.2°C 18.6°F-7.4°C 67% 0.1 mph S0.2 kmh S 1.0 mph1.6 kmh 29.98 in1015.2 mb 0.00 in0.0 mm 0.00 in0.0 mm 0.00 in0.0 mm
05:03 PM 28.1°F-2.2°C 18.6°F-7.4°C 67% 0.2 mph S0.3 kmh S 1.0 mph1.6 kmh 29.98 in1015.2 mb 0.00 in0.0 mm 0.00 in0.0 mm 0.00 in0.0 mm
05:04 PM 28.1°F-2.2°C 18.6°F-7.4°C 67% 0.2 mph S0.3 kmh S 1.0 mph1.6 kmh 29.98 in1015.2 mb 0.00 in0.0 mm 0.00 in0.0 mm 0.00 in0.0 mm
05:05 PM 28.0°F-2.2°C 18.5°F-7.5°C 67% 0.1 mph S0.2 kmh S 1.0 mph1.6 kmh 29.98 in1015.2 mb 0.00 in0.0 mm 0.00 in0.0 mm 0.00 in0.0 mm
05:06 PM 28.0°F-2.2°C 18.5°F-7.5°C 67% 0.4 mph S0.6 kmh S 1.0 mph1.6 kmh 29.98 in1015.2 mb 0.00 in0.0 mm 0.00 in0.0 mm 0.00 in0.0 mm
05:07 PM 28.0°F-2.2°C 18.5°F-7.5°C 67% 0.5 mph S0.8 kmh S 1.0 mph1.6 kmh 29.98 in1015.2 mb 0.00 in0.0 mm 0.00 in0.0 mm 0.00 in0.0 mm
05:08 PM 28.0°F-2.2°C 18.5°F-7.5°C 67% 0.7 mph S1.1 kmh S 1.0 mph1.6 kmh 29.98 in1015.2 mb 0.00 in0.0 mm 0.00 in0.0 mm 0.00 in0.0 mm
05:09 PM 28.0°F-2.2°C 18.5°F-7.5°C 67% 1.0 mph S1.6 kmh S 2.0 mph3.2 kmh 29.98 in1015.2 mb 0.00 in0.0 mm 0.00 in0.0 mm 0.00 in0.0 mm
05:10 PM 27.9°F-2.3°C 18.4°F-7.6°C 67% 0.2 mph S0.3 kmh S 2.0 mph3.2 kmh 29.98 in1015.2 mb 0.00 in0.0 mm 0.00 in0.0 mm 0.00 in0.0 mm
05:11 PM 27.9°F-2.3°C 18.4°F-7.6°C 67% 0.6 mph S1.0 kmh S 1.0 mph1.6 kmh 29.98 in1015.2 mb 0.00 in0.0 mm 0.00 in0.0 mm 0.00 in0.0 mm
05:12 PM 27.9°F-2.3°C 18.7°F-7.4°C 68% 1.4 mph S2.3 kmh S 2.0 mph3.2 kmh 29.98 in1015.2 mb 0.00 in0.0 mm 0.00 in0.0 mm 0.00 in0.0 mm
05:13 PM 27.9°F-2.3°C 18.7°F-7.4°C 68% 1.2 mph S1.9 kmh S 2.0 mph3.2 kmh 29.98 in1015.2 mb 0.00 in0.0 mm 0.00 in0.0 mm 0.00 in0.0 mm
05:14 PM 27.8°F-2.3°C 18.6°F-7.4°C 68% 1.0 mph S1.6 kmh S 2.0 mph3.2 kmh 29.98 in1015.2 mb 0.00 in0.0 mm 0.00 in0.0 mm 0.00 in0.0 mm
05:15 PM 27.8°F-2.3°C 18.6°F-7.4°C 68% 1.2 mph S1.9 kmh S 2.0 mph3.2 kmh 29.98 in1015.2 mb 0.00 in0.0 mm 0.00 in0.0 mm 0.00 in0.0 mm
05:16 PM 27.9°F-2.3°C 18.7°F-7.4°C 68% 1.5 mph S2.4 kmh S 3.0 mph4.8 kmh 29.98 in1015.2 mb 0.00 in0.0 mm 0.00 in0.0 mm 0.00 in0.0 mm
05:17 PM 27.9°F-2.3°C 18.7°F-7.4°C 68% 2.2 mph S3.5 kmh S 3.0 mph4.8 kmh 29.98 in1015.2 mb 0.00 in0.0 mm 0.00 in0.0 mm 0.00 in0.0 mm
05:18 PM 27.8°F-2.3°C 18.6°F-7.4°C 68% 1.2 mph S1.9 kmh S 3.0 mph4.8 kmh 29.98 in1015.2 mb 0.00 in0.0 mm 0.00 in0.0 mm 0.00 in0.0 mm
05:19 PM 27.8°F-2.3°C 18.6°F-7.4°C 68% 0.6 mph S1.0 kmh S 2.0 mph3.2 kmh 29.98 in1015.2 mb 0.00 in0.0 mm 0.00 in0.0 mm 0.00 in0.0 mm
05:20 PM 27.8°F-2.3°C 18.6°F-7.4°C 68% 0.8 mph S1.3 kmh S 1.0 mph1.6 kmh 29.98 in1015.2 mb 0.00 in0.0 mm 0.00 in0.0 mm 0.00 in0.0 mm
05:21 PM 27.8°F-2.3°C 18.6°F-7.4°C 68% 0.6 mph S1.0 kmh S 1.0 mph1.6 kmh 29.98 in1015.2 mb 0.00 in0.0 mm 0.00 in0.0 mm 0.00 in0.0 mm
05:22 PM 27.8°F-2.3°C 18.6°F-7.4°C 68% 0.5 mph S0.8 kmh S 1.0 mph1.6 kmh 29.98 in1015.2 mb 0.00 in0.0 mm 0.00 in0.0 mm 0.00 in0.0 mm
05:23 PM 27.8°F-2.3°C 18.6°F-7.4°C 68% 0.4 mph S0.6 kmh S 1.0 mph1.6 kmh 29.98 in1015.2 mb 0.00 in0.0 mm 0.00 in0.0 mm 0.00 in0.0 mm
05:24 PM 27.8°F-2.3°C 18.6°F-7.4°C 68% 0.4 mph S0.6 kmh S 1.0 mph1.6 kmh 29.98 in1015.2 mb 0.00 in0.0 mm 0.00 in0.0 mm 0.00 in0.0 mm
05:25 PM 27.8°F-2.3°C 18.6°F-7.4°C 68% 0.5 mph S0.8 kmh S 1.0 mph1.6 kmh 29.98 in1015.2 mb 0.00 in0.0 mm 0.00 in0.0 mm 0.00 in0.0 mm
05:26 PM 27.7°F-2.4°C 18.5°F-7.5°C 68% 0.8 mph S1.3 kmh S 1.0 mph1.6 kmh 29.98 in1015.2 mb 0.00 in0.0 mm 0.00 in0.0 mm 0.00 in0.0 mm
05:27 PM 27.8°F-2.3°C 18.6°F-7.4°C 68% 0.7 mph S1.1 kmh S 1.0 mph1.6 kmh 29.98 in1015.2 mb 0.00 in0.0 mm 0.00 in0.0 mm 0.00 in0.0 mm
05:28 PM 27.8°F-2.3°C 18.6°F-7.4°C 68% 0.5 mph S0.8 kmh S 1.0 mph1.6 kmh 29.98 in1015.2 mb 0.00 in0.0 mm 0.00 in0.0 mm 0.00 in0.0 mm
05:29 PM 27.8°F-2.3°C 18.6°F-7.4°C 68% 0.6 mph S1.0 kmh S 1.0 mph1.6 kmh 29.98 in1015.2 mb 0.00 in0.0 mm 0.00 in0.0 mm 0.00 in0.0 mm
05:30 PM 27.8°F-2.3°C 18.6°F-7.4°C 68% 0.1 mph S0.2 kmh S 1.0 mph1.6 kmh 29.98 in1015.2 mb 0.00 in0.0 mm 0.00 in0.0 mm 0.00 in0.0 mm
05:31 PM 27.8°F-2.3°C 18.6°F-7.4°C 68% 0.7 mph S1.1 kmh S 1.0 mph1.6 kmh 29.98 in1015.2 mb 0.00 in0.0 mm 0.00 in0.0 mm 0.00 in0.0 mm
05:32 PM 27.8°F-2.3°C 19.0°F-7.2°C 69% 0.6 mph S1.0 kmh S 1.0 mph1.6 kmh 29.98 in1015.2 mb 0.00 in0.0 mm 0.00 in0.0 mm 0.00 in0.0 mm
05:33 PM 27.8°F-2.3°C 19.0°F-7.2°C 69% 0.9 mph S1.4 kmh S 1.0 mph1.6 kmh 29.98 in1015.2 mb 0.00 in0.0 mm 0.00 in0.0 mm 0.00 in0.0 mm
05:34 PM 27.8°F-2.3°C 19.0°F-7.2°C 69% 0.6 mph S1.0 kmh S 1.0 mph1.6 kmh 29.98 in1015.2 mb 0.00 in0.0 mm 0.00 in0.0 mm 0.00 in0.0 mm
05:35 PM 27.8°F-2.3°C 19.0°F-7.2°C 69% 0.4 mph S0.6 kmh S 1.0 mph1.6 kmh 29.98 in1015.2 mb 0.00 in0.0 mm 0.00 in0.0 mm 0.00 in0.0 mm
05:36 PM 27.8°F-2.3°C 19.0°F-7.2°C 69% 0.2 mph S0.3 kmh S 1.0 mph1.6 kmh 29.98 in1015.2 mb 0.00 in0.0 mm 0.00 in0.0 mm 0.00 in0.0 mm
05:37 PM 27.7°F-2.4°C 18.9°F-7.3°C 69% 0.3 mph S0.5 kmh S 1.0 mph1.6 kmh 29.98 in1015.2 mb 0.00 in0.0 mm 0.00 in0.0 mm 0.00 in0.0 mm
05:38 PM 27.8°F-2.3°C 19.0°F-7.2°C 69% 0.5 mph S0.8 kmh S 1.0 mph1.6 kmh 29.98 in1015.2 mb 0.00 in0.0 mm 0.00 in0.0 mm 0.00 in0.0 mm
05:39 PM 27.7°F-2.4°C 18.9°F-7.3°C 69% 0.7 mph S1.1 kmh S 1.0 mph1.6 kmh 29.98 in1015.2 mb 0.00 in0.0 mm 0.00 in0.0 mm 0.00 in0.0 mm
05:40 PM 27.7°F-2.4°C 18.9°F-7.3°C 69% 0.8 mph S1.3 kmh S 1.0 mph1.6 kmh 29.98 in1015.2 mb 0.00 in0.0 mm 0.00 in0.0 mm 0.00 in0.0 mm
05:41 PM 27.7°F-2.4°C 18.9°F-7.3°C 69% 1.2 mph S1.9 kmh S 2.0 mph3.2 kmh 29.98 in1015.2 mb 0.00 in0.0 mm 0.00 in0.0 mm 0.00 in0.0 mm
05:42 PM 27.7°F-2.4°C 18.9°F-7.3°C 69% 1.6 mph S2.6 kmh S 2.0 mph3.2 kmh 29.98 in1015.2 mb 0.00 in0.0 mm 0.00 in0.0 mm 0.00 in0.0 mm
05:43 PM 27.7°F-2.4°C 18.9°F-7.3°C 69% 1.4 mph S2.3 kmh S 2.0 mph3.2 kmh 29.98 in1015.2 mb 0.00 in0.0 mm 0.00 in0.0 mm 0.00 in0.0 mm
05:44 PM 27.7°F-2.4°C 18.9°F-7.3°C 69% 1.4 mph S2.3 kmh S 2.0 mph3.2 kmh 29.98 in1015.2 mb 0.00 in0.0 mm 0.00 in0.0 mm 0.00 in0.0 mm
05:45 PM 27.6°F-2.4°C 19.1°F-7.2°C 70% 1.5 mph S2.4 kmh S 2.0 mph3.2 kmh 29.98 in1015.2 mb 0.00 in0.0 mm 0.00 in0.0 mm 0.00 in0.0 mm
05:46 PM 27.6°F-2.4°C 19.1°F-7.2°C 70% 1.6 mph S2.6 kmh S 2.0 mph3.2 kmh 29.98 in1015.2 mb 0.00 in0.0 mm 0.00 in0.0 mm 0.00 in0.0 mm
05:47 PM 27.6°F-2.4°C 19.4°F-7.0°C 71% 1.3 mph S2.1 kmh S 2.0 mph3.2 kmh 29.98 in1015.2 mb 0.00 in0.0 mm 0.00 in0.0 mm 0.00 in0.0 mm
05:48 PM 27.6°F-2.4°C 19.4°F-7.0°C 71% 1.4 mph S2.3 kmh S 2.0 mph3.2 kmh 29.98 in1015.2 mb 0.00 in0.0 mm 0.00 in0.0 mm 0.00 in0.0 mm
05:49 PM 27.6°F-2.4°C 19.1°F-7.2°C 70% 1.5 mph S2.4 kmh S 2.0 mph3.2 kmh 29.98 in1015.2 mb 0.00 in0.0 mm 0.00 in0.0 mm 0.00 in0.0 mm
05:50 PM 27.6°F-2.4°C 19.1°F-7.2°C 70% 1.6 mph S2.6 kmh S 2.0 mph3.2 kmh 29.98 in1015.2 mb 0.00 in0.0 mm 0.00 in0.0 mm 0.00 in0.0 mm
05:51 PM 27.5°F-2.5°C 19.0°F-7.2°C 70% 1.4 mph S2.3 kmh S 2.0 mph3.2 kmh 29.98 in1015.2 mb 0.00 in0.0 mm 0.00 in0.0 mm 0.00 in0.0 mm
05:52 PM 27.6°F-2.4°C 19.1°F-7.2°C 70% 1.3 mph S2.1 kmh S 2.0 mph3.2 kmh 29.98 in1015.2 mb 0.00 in0.0 mm 0.00 in0.0 mm 0.00 in0.0 mm
05:53 PM 27.5°F-2.5°C 19.0°F-7.2°C 70% 0.9 mph S1.4 kmh S 2.0 mph3.2 kmh 29.98 in1015.2 mb 0.00 in0.0 mm 0.00 in0.0 mm 0.00 in0.0 mm
05:54 PM 27.5°F-2.5°C 19.0°F-7.2°C 70% 1.0 mph S1.6 kmh S 2.0 mph3.2 kmh 29.98 in1015.2 mb 0.00 in0.0 mm 0.00 in0.0 mm 0.00 in0.0 mm
05:55 PM 27.5°F-2.5°C 19.0°F-7.2°C 70% 1.0 mph S1.6 kmh S 2.0 mph3.2 kmh 29.98 in1015.2 mb 0.00 in0.0 mm 0.00 in0.0 mm 0.00 in0.0 mm
05:56 PM 27.5°F-2.5°C 19.0°F-7.2°C 70% 0.8 mph S1.3 kmh S 2.0 mph3.2 kmh 29.98 in1015.2 mb 0.00 in0.0 mm 0.00 in0.0 mm 0.00 in0.0 mm
05:57 PM 27.4°F-2.6°C 18.9°F-7.3°C 70% 1.2 mph S1.9 kmh S 2.0 mph3.2 kmh 29.98 in1015.2 mb 0.00 in0.0 mm 0.00 in0.0 mm 0.00 in0.0 mm
05:58 PM 27.4°F-2.6°C 18.9°F-7.3°C 70% 1.7 mph S2.7 kmh S 2.0 mph3.2 kmh 29.98 in1015.2 mb 0.00 in0.0 mm 0.00 in0.0 mm 0.00 in0.0 mm
05:59 PM 27.4°F-2.6°C 18.9°F-7.3°C 70% 1.3 mph S2.1 kmh S 2.0 mph3.2 kmh 29.98 in1015.2 mb 0.00 in0.0 mm 0.00 in0.0 mm 0.00 in0.0 mm
06:00 PM 27.4°F-2.6°C 18.9°F-7.3°C 70% 0.6 mph S1.0 kmh S 2.0 mph3.2 kmh 29.98 in1015.2 mb 0.00 in0.0 mm 0.00 in0.0 mm 0.00 in0.0 mm
06:01 PM 27.4°F-2.6°C 18.9°F-7.3°C 70% 1.5 mph S2.4 kmh S 2.0 mph3.2 kmh 29.98 in1015.2 mb 0.00 in0.0 mm 0.00 in0.0 mm 0.00 in0.0 mm
06:02 PM 27.4°F-2.6°C 18.9°F-7.3°C 70% 2.1 mph S3.4 kmh S 3.0 mph4.8 kmh 29.98 in1015.2 mb 0.00 in0.0 mm 0.00 in0.0 mm 0.00 in0.0 mm
06:03 PM 27.4°F-2.6°C 18.6°F-7.4°C 69% 1.4 mph S2.3 kmh S 3.0 mph4.8 kmh 29.98 in1015.2 mb 0.00 in0.0 mm 0.00 in0.0 mm 0.00 in0.0 mm
06:04 PM 27.4°F-2.6°C 18.9°F-7.3°C 70% 1.8 mph S2.9 kmh S 2.0 mph3.2 kmh 29.98 in1015.2 mb 0.00 in0.0 mm 0.00 in0.0 mm 0.00 in0.0 mm
06:05 PM 27.5°F-2.5°C 19.0°F-7.2°C 70% 2.6 mph S4.2 kmh S 4.0 mph6.4 kmh 29.98 in1015.2 mb 0.00 in0.0 mm 0.00 in0.0 mm 0.00 in0.0 mm
06:06 PM 27.5°F-2.5°C 19.0°F-7.2°C 70% 2.5 mph S4.0 kmh S 4.0 mph6.4 kmh 29.98 in1015.2 mb 0.00 in0.0 mm 0.00 in0.0 mm 0.00 in0.0 mm
06:07 PM 27.5°F-2.5°C 19.0°F-7.2°C 70% 2.4 mph S3.9 kmh S 4.0 mph6.4 kmh 29.98 in1015.2 mb 0.00 in0.0 mm 0.00 in0.0 mm 0.00 in0.0 mm
06:08 PM 27.5°F-2.5°C 19.0°F-7.2°C 70% 2.6 mph S4.2 kmh S 4.0 mph6.4 kmh 29.98 in1015.2 mb 0.00 in0.0 mm 0.00 in0.0 mm 0.00 in0.0 mm
06:09 PM 27.4°F-2.6°C 18.6°F-7.4°C 69% 2.5 mph S4.0 kmh S 4.0 mph6.4 kmh 29.98 in1015.2 mb 0.00 in0.0 mm 0.00 in0.0 mm 0.00 in0.0 mm
06:10 PM 27.5°F-2.5°C 18.7°F-7.4°C 69% 1.8 mph S2.9 kmh S 3.0 mph4.8 kmh 29.98 in1015.2 mb 0.00 in0.0 mm 0.00 in0.0 mm 0.00 in0.0 mm
06:11 PM 27.5°F-2.5°C 18.7°F-7.4°C 69% 2.1 mph S3.4 kmh S 4.0 mph6.4 kmh 29.98 in1015.2 mb 0.00 in0.0 mm 0.00 in0.0 mm 0.00 in0.0 mm
06:12 PM 27.6°F-2.4°C 18.8°F-7.3°C 69% 1.5 mph S2.4 kmh S 4.0 mph6.4 kmh 29.98 in1015.2 mb 0.00 in0.0 mm 0.00 in0.0 mm 0.00 in0.0 mm
06:13 PM 27.5°F-2.5°C 18.7°F-7.4°C 69% 1.7 mph S2.7 kmh S 2.0 mph3.2 kmh 29.98 in1015.2 mb 0.00 in0.0 mm 0.00 in0.0 mm 0.00 in0.0 mm
06:14 PM 27.6°F-2.4°C 18.8°F-7.3°C 69% 2.8 mph S4.5 kmh S 6.0 mph9.7 kmh 29.98 in1015.2 mb 0.00 in0.0 mm 0.00 in0.0 mm 0.00 in0.0 mm
06:15 PM 27.6°F-2.4°C 18.8°F-7.3°C 69% 2.8 mph S4.5 kmh S 6.0 mph9.7 kmh 29.98 in1015.2 mb 0.00 in0.0 mm 0.00 in0.0 mm 0.00 in0.0 mm
06:16 PM 27.6°F-2.4°C 18.8°F-7.3°C 69% 2.5 mph S4.0 kmh S 3.0 mph4.8 kmh 29.98 in1015.2 mb 0.00 in0.0 mm 0.00 in0.0 mm 0.00 in0.0 mm
06:17 PM 27.6°F-2.4°C 18.8°F-7.3°C 69% 2.5 mph S4.0 kmh S 3.0 mph4.8 kmh 29.98 in1015.2 mb 0.00 in0.0 mm 0.00 in0.0 mm 0.00 in0.0 mm
06:18 PM 27.6°F-2.4°C 18.8°F-7.3°C 69% 2.5 mph S4.0 kmh S 3.0 mph4.8 kmh 29.98 in1015.2 mb 0.00 in0.0 mm 0.00 in0.0 mm 0.00 in0.0 mm
06:19 PM 27.6°F-2.4°C 18.8°F-7.3°C 69% 2.2 mph S3.5 kmh S 3.0 mph4.8 kmh 29.98 in1015.2 mb 0.00 in0.0 mm 0.00 in0.0 mm 0.00 in0.0 mm
06:20 PM 27.6°F-2.4°C 18.8°F-7.3°C 69% 2.4 mph S3.9 kmh S 4.0 mph6.4 kmh 29.98 in1015.2 mb 0.00 in0.0 mm 0.00 in0.0 mm 0.00 in0.0 mm
06:21 PM 27.6°F-2.4°C 18.8°F-7.3°C 69% 3.2 mph S5.1 kmh S 4.0 mph6.4 kmh 29.98 in1015.2 mb 0.00 in0.0 mm 0.00 in0.0 mm 0.00 in0.0 mm
06:22 PM 27.6°F-2.4°C 19.1°F-7.2°C 70% 3.7 mph S6.0 kmh S 4.0 mph6.4 kmh 29.98 in1015.2 mb 0.00 in0.0 mm 0.00 in0.0 mm 0.00 in0.0 mm
06:23 PM 27.6°F-2.4°C 19.1°F-7.2°C 70% 3.3 mph S5.3 kmh S 5.0 mph8.0 kmh 29.98 in1015.2 mb 0.00 in0.0 mm 0.00 in0.0 mm 0.00 in0.0 mm
06:24 PM 27.6°F-2.4°C 19.1°F-7.2°C 70% 3.9 mph S6.3 kmh S 5.0 mph8.0 kmh 29.98 in1015.2 mb 0.00 in0.0 mm 0.00 in0.0 mm 0.00 in0.0 mm
06:25 PM 27.5°F-2.5°C 19.0°F-7.2°C 70% 3.6 mph S5.8 kmh S 5.0 mph8.0 kmh 29.98 in1015.2 mb 0.00 in0.0 mm 0.00 in0.0 mm 0.00 in0.0 mm
06:26 PM 27.5°F-2.5°C 19.0°F-7.2°C 70% 3.7 mph S6.0 kmh S 4.0 mph6.4 kmh 29.98 in1015.2 mb 0.00 in0.0 mm 0.00 in0.0 mm 0.00 in0.0 mm
06:27 PM 27.5°F-2.5°C 19.0°F-7.2°C 70% 3.3 mph S5.3 kmh S 4.0 mph6.4 kmh 29.97 in1014.9 mb 0.00 in0.0 mm 0.00 in0.0 mm 0.00 in0.0 mm
06:28 PM 27.4°F-2.6°C 18.9°F-7.3°C 70% 3.5 mph S5.6 kmh S 4.0 mph6.4 kmh 29.98 in1015.2 mb 0.00 in0.0 mm 0.00 in0.0 mm 0.00 in0.0 mm
06:29 PM 27.4°F-2.6°C 18.9°F-7.3°C 70% 3.5 mph S5.6 kmh S 4.0 mph6.4 kmh 29.98 in1015.2 mb 0.00 in0.0 mm 0.00 in0.0 mm 0.00 in0.0 mm
06:30 PM 27.3°F-2.6°C 18.8°F-7.3°C 70% 3.3 mph S5.3 kmh S 4.0 mph6.4 kmh 29.98 in1015.2 mb 0.00 in0.0 mm 0.00 in0.0 mm 0.00 in0.0 mm
06:31 PM 27.3°F-2.6°C 18.8°F-7.3°C 70% 3.0 mph S4.8 kmh S 4.0 mph6.4 kmh 29.98 in1015.2 mb 0.00 in0.0 mm 0.00 in0.0 mm 0.00 in0.0 mm
06:32 PM 27.3°F-2.6°C 18.8°F-7.3°C 70% 2.9 mph S4.7 kmh S 4.0 mph6.4 kmh 29.98 in1015.2 mb 0.00 in0.0 mm 0.00 in0.0 mm 0.00 in0.0 mm
06:33 PM 27.2°F-2.7°C 18.7°F-7.4°C 70% 3.1 mph S5.0 kmh S 4.0 mph6.4 kmh 29.98 in1015.2 mb 0.00 in0.0 mm 0.00 in0.0 mm 0.00 in0.0 mm
06:34 PM 27.3°F-2.6°C 18.8°F-7.3°C 70% 3.4 mph S5.5 kmh S 4.0 mph6.4 kmh 29.98 in1015.2 mb 0.00 in0.0 mm 0.00 in0.0 mm 0.00 in0.0 mm
06:35 PM 27.2°F-2.7°C 18.7°F-7.4°C 70% 3.4 mph S5.5 kmh S 4.0 mph6.4 kmh 29.98 in1015.2 mb 0.00 in0.0 mm 0.00 in0.0 mm 0.00 in0.0 mm
06:36 PM 27.2°F-2.7°C 18.7°F-7.4°C 70% 3.4 mph S5.5 kmh S 4.0 mph6.4 kmh 29.98 in1015.2 mb 0.00 in0.0 mm 0.00 in0.0 mm 0.00 in0.0 mm
06:37 PM 27.1°F-2.7°C 18.6°F-7.4°C 70% 3.9 mph S6.3 kmh S 5.0 mph8.0 kmh 29.98 in1015.2 mb 0.00 in0.0 mm 0.00 in0.0 mm 0.00 in0.0 mm
06:38 PM 27.1°F-2.7°C 18.6°F-7.4°C 70% 3.8 mph S6.1 kmh S 5.0 mph8.0 kmh 29.97 in1014.9 mb 0.00 in0.0 mm 0.00 in0.0 mm 0.00 in0.0 mm
06:39 PM 27.1°F-2.7°C 18.6°F-7.4°C 70% 3.7 mph S6.0 kmh S 5.0 mph8.0 kmh 29.97 in1014.9 mb 0.00 in0.0 mm 0.00 in0.0 mm 0.00 in0.0 mm
06:40 PM 27.1°F-2.7°C 19.0°F-7.2°C 71% 3.8 mph S6.1 kmh S 5.0 mph8.0 kmh 29.97 in1014.9 mb 0.00 in0.0 mm 0.00 in0.0 mm 0.00 in0.0 mm
06:41 PM 27.1°F-2.7°C 19.0°F-7.2°C 71% 4.1 mph S6.6 kmh S 5.0 mph8.0 kmh 29.97 in1014.9 mb 0.00 in0.0 mm 0.00 in0.0 mm 0.00 in0.0 mm
06:42 PM 27.0°F-2.8°C 18.9°F-7.3°C 71% 4.0 mph S6.4 kmh S 5.0 mph8.0 kmh 29.97 in1014.9 mb 0.00 in0.0 mm 0.00 in0.0 mm 0.00 in0.0 mm
06:43 PM 27.0°F-2.8°C 18.9°F-7.3°C 71% 4.0 mph S6.4 kmh S 5.0 mph8.0 kmh 29.97 in1014.9 mb 0.00 in0.0 mm 0.00 in0.0 mm 0.00 in0.0 mm
06:44 PM 27.0°F-2.8°C 18.9°F-7.3°C 71% 3.8 mph S6.1 kmh S 5.0 mph8.0 kmh 29.97 in1014.9 mb 0.00 in0.0 mm 0.00 in0.0 mm 0.00 in0.0 mm
06:45 PM 26.9°F-2.8°C 18.8°F-7.3°C 71% 4.0 mph S6.4 kmh S 5.0 mph8.0 kmh 29.97 in1014.9 mb 0.00 in0.0 mm 0.00 in0.0 mm 0.00 in0.0 mm
06:46 PM 26.9°F-2.8°C 18.8°F-7.3°C 71% 3.8 mph S6.1 kmh S 5.0 mph8.0 kmh 29.97 in1014.9 mb 0.00 in0.0 mm 0.00 in0.0 mm 0.00 in0.0 mm
06:47 PM 26.9°F-2.8°C 18.8°F-7.3°C 71% 4.3 mph S6.9 kmh S 5.0 mph8.0 kmh 29.97 in1014.9 mb 0.00 in0.0 mm 0.00 in0.0 mm 0.00 in0.0 mm
06:48 PM 26.9°F-2.8°C 18.8°F-7.3°C 71% 4.0 mph S6.4 kmh S 5.0 mph8.0 kmh 29.97 in1014.9 mb 0.00 in0.0 mm 0.00 in0.0 mm 0.00 in0.0 mm
06:49 PM 26.9°F-2.8°C 18.8°F-7.3°C 71% 3.6 mph S5.8 kmh S 5.0 mph8.0 kmh 29.97 in1014.9 mb 0.00 in0.0 mm 0.00 in0.0 mm 0.00 in0.0 mm
06:50 PM 26.9°F-2.8°C 18.8°F-7.3°C 71% 4.3 mph S6.9 kmh S 6.0 mph9.7 kmh 29.97 in1014.9 mb 0.00 in0.0 mm 0.00 in0.0 mm 0.00 in0.0 mm
06:51 PM 26.9°F-2.8°C 18.8°F-7.3°C 71% 4.3 mph SSW6.9 kmh SSW 6.0 mph9.7 kmh 29.97 in1014.9 mb 0.00 in0.0 mm 0.00 in0.0 mm 0.00 in0.0 mm
06:52 PM 26.9°F-2.8°C 18.8°F-7.3°C 71% 3.6 mph SSW5.8 kmh SSW 5.0 mph8.0 kmh 29.97 in1014.9 mb 0.00 in0.0 mm 0.00 in0.0 mm 0.00 in0.0 mm
06:53 PM 26.8°F-2.9°C 18.7°F-7.4°C 71% 3.8 mph SSW6.1 kmh SSW 5.0 mph8.0 kmh 29.97 in1014.9 mb 0.00 in0.0 mm 0.00 in0.0 mm 0.00 in0.0 mm
06:54 PM 26.9°F-2.8°C 18.8°F-7.3°C 71% 3.9 mph SSW6.3 kmh SSW 5.0 mph8.0 kmh 29.96 in1014.6 mb 0.00 in0.0 mm 0.00 in0.0 mm 0.00 in0.0 mm
06:55 PM 26.8°F-2.9°C 18.7°F-7.4°C 71% 4.3 mph SSW6.9 kmh SSW 5.0 mph8.0 kmh 29.97 in1014.9 mb 0.00 in0.0 mm 0.00 in0.0 mm 0.00 in0.0 mm
06:56 PM 26.8°F-2.9°C 18.7°F-7.4°C 71% 3.8 mph SSW6.1 kmh SSW 5.0 mph8.0 kmh 29.97 in1014.9 mb 0.00 in0.0 mm 0.00 in0.0 mm 0.00 in0.0 mm
06:57 PM 26.8°F-2.9°C 19.0°F-7.2°C 72% 3.7 mph SSW6.0 kmh SSW 5.0 mph8.0 kmh 29.97 in1014.9 mb 0.00 in0.0 mm 0.00 in0.0 mm 0.00 in0.0 mm
06:58 PM 26.8°F-2.9°C 19.0°F-7.2°C 72% 3.5 mph SSW5.6 kmh SSW 5.0 mph8.0 kmh 29.97 in1014.9 mb 0.00 in0.0 mm 0.00 in0.0 mm 0.00 in0.0 mm
06:59 PM 26.8°F-2.9°C 19.0°F-7.2°C 72% 3.9 mph SSW6.3 kmh SSW 5.0 mph8.0 kmh 29.97 in1014.9 mb 0.00 in0.0 mm 0.00 in0.0 mm 0.00 in0.0 mm
07:00 PM 26.8°F-2.9°C 19.0°F-7.2°C 72% 3.5 mph SSW5.6 kmh SSW 5.0 mph8.0 kmh 29.97 in1014.9 mb 0.00 in0.0 mm 0.00 in0.0 mm 0.00 in0.0 mm
07:01 PM 26.8°F-2.9°C 19.0°F-7.2°C 72% 2.7 mph SSW4.3 kmh SSW 5.0 mph8.0 kmh 29.97 in1014.9 mb 0.00 in0.0 mm 0.00 in0.0 mm 0.00 in0.0 mm
07:02 PM 26.8°F-2.9°C 19.0°F-7.2°C 72% 2.8 mph SSW4.5 kmh SSW 4.0 mph6.4 kmh 29.96 in1014.6 mb 0.00 in0.0 mm 0.00 in0.0 mm 0.00 in0.0 mm
07:03 PM 26.8°F-2.9°C 19.0°F-7.2°C 72% 3.1 mph SSW5.0 kmh SSW 5.0 mph8.0 kmh 29.96 in1014.6 mb 0.00 in0.0 mm 0.00 in0.0 mm 0.00 in0.0 mm
07:04 PM 26.7°F-2.9°C 18.9°F-7.3°C 72% 3.5 mph SSW5.6 kmh SSW 5.0 mph8.0 kmh 29.97 in1014.9 mb 0.00 in0.0 mm 0.00 in0.0 mm 0.00 in0.0 mm
07:05 PM 26.7°F-2.9°C 18.9°F-7.3°C 72% 3.6 mph SSW5.8 kmh SSW 5.0 mph8.0 kmh 29.96 in1014.6 mb 0.00 in0.0 mm 0.00 in0.0 mm 0.00 in0.0 mm
07:06 PM 26.7°F-2.9°C 18.9°F-7.3°C 72% 2.9 mph SSW4.7 kmh SSW 5.0 mph8.0 kmh 29.96 in1014.6 mb 0.00 in0.0 mm 0.00 in0.0 mm 0.00 in0.0 mm
07:07 PM 26.6°F-3.0°C 18.8°F-7.3°C 72% 3.3 mph SSW5.3 kmh SSW 4.0 mph6.4 kmh 29.96 in1014.6 mb 0.00 in0.0 mm 0.00 in0.0 mm 0.00 in0.0 mm
07:08 PM 26.6°F-3.0°C 18.8°F-7.3°C 72% 2.4 mph SSW3.9 kmh SSW 4.0 mph6.4 kmh 29.96 in1014.6 mb 0.00 in0.0 mm 0.00 in0.0 mm 0.00 in0.0 mm
07:09 PM 26.6°F-3.0°C 18.8°F-7.3°C 72% 3.2 mph SSW5.1 kmh SSW 4.0 mph6.4 kmh 29.96 in1014.6 mb 0.00 in0.0 mm 0.00 in0.0 mm 0.00 in0.0 mm
07:10 PM 26.5°F-3.1°C 18.7°F-7.4°C 72% 4.0 mph S6.4 kmh S 5.0 mph8.0 kmh 29.96 in1014.6 mb 0.00 in0.0 mm 0.00 in0.0 mm 0.00 in0.0 mm
07:11 PM 26.5°F-3.1°C 18.7°F-7.4°C 72% 3.5 mph S5.6 kmh S 5.0 mph8.0 kmh 29.96 in1014.6 mb 0.00 in0.0 mm 0.00 in0.0 mm 0.00 in0.0 mm
07:12 PM 26.5°F-3.1°C 18.7°F-7.4°C 72% 3.8 mph S6.1 kmh S 5.0 mph8.0 kmh 29.96 in1014.6 mb 0.00 in0.0 mm 0.00 in0.0 mm 0.00 in0.0 mm
07:13 PM 26.4°F-3.1°C 18.9°F-7.3°C 73% 3.4 mph S5.5 kmh S 5.0 mph8.0 kmh 29.96 in1014.6 mb 0.00 in0.0 mm 0.00 in0.0 mm 0.00 in0.0 mm
07:14 PM 26.5°F-3.1°C 19.0°F-7.2°C 73% 3.8 mph S6.1 kmh S 5.0 mph8.0 kmh 29.96 in1014.6 mb 0.00 in0.0 mm 0.00 in0.0 mm 0.00 in0.0 mm
07:15 PM 26.5°F-3.1°C 19.0°F-7.2°C 73% 3.7 mph S6.0 kmh S 5.0 mph8.0 kmh 29.96 in1014.6 mb 0.00 in0.0 mm 0.00 in0.0 mm 0.00 in0.0 mm
07:16 PM 26.4°F-3.1°C 18.9°F-7.3°C 73% 4.2 mph S6.8 kmh S 5.0 mph8.0 kmh 29.96 in1014.6 mb 0.00 in0.0 mm 0.00 in0.0 mm 0.00 in0.0 mm
07:17 PM 26.4°F-3.1°C 18.9°F-7.3°C 73% 4.4 mph S7.1 kmh S 5.0 mph8.0 kmh 29.96 in1014.6 mb 0.00 in0.0 mm 0.00 in0.0 mm 0.00 in0.0 mm
07:18 PM 26.4°F-3.1°C 18.9°F-7.3°C 73% 3.8 mph S6.1 kmh S 5.0 mph8.0 kmh 29.96 in1014.6 mb 0.00 in0.0 mm 0.00 in0.0 mm 0.00 in0.0 mm
07:19 PM 26.4°F-3.1°C 18.9°F-7.3°C 73% 3.4 mph S5.5 kmh S 5.0 mph8.0 kmh 29.96 in1014.6 mb 0.00 in0.0 mm 0.00 in0.0 mm 0.00 in0.0 mm
07:20 PM 26.4°F-3.1°C 18.9°F-7.3°C 73% 4.8 mph S7.7 kmh S 6.0 mph9.7 kmh 29.96 in1014.6 mb 0.00 in0.0 mm 0.00 in0.0 mm 0.00 in0.0 mm
07:21 PM 26.3°F-3.2°C 18.8°F-7.3°C 73% 4.5 mph S7.2 kmh S 6.0 mph9.7 kmh 29.96 in1014.6 mb 0.00 in0.0 mm 0.00 in0.0 mm 0.00 in0.0 mm
07:22 PM 26.4°F-3.1°C 18.9°F-7.3°C 73% 3.6 mph S5.8 kmh S 6.0 mph9.7 kmh 29.96 in1014.6 mb 0.00 in0.0 mm 0.00 in0.0 mm 0.00 in0.0 mm
07:23 PM 26.4°F-3.1°C 18.6°F-7.4°C 72% 3.8 mph S6.1 kmh S 6.0 mph9.7 kmh 29.96 in1014.6 mb 0.00 in0.0 mm 0.00 in0.0 mm 0.00 in0.0 mm
07:24 PM 26.4°F-3.1°C 18.9°F-7.3°C 73% 3.6 mph S5.8 kmh S 6.0 mph9.7 kmh 29.96 in1014.6 mb 0.00 in0.0 mm 0.00 in0.0 mm 0.00 in0.0 mm
07:25 PM 26.3°F-3.2°C 18.5°F-7.5°C 72% 3.4 mph S5.5 kmh S 5.0 mph8.0 kmh 29.96 in1014.6 mb 0.00 in0.0 mm 0.00 in0.0 mm 0.00 in0.0 mm
07:26 PM 26.3°F-3.2°C 18.5°F-7.5°C 72% 3.3 mph S5.3 kmh S 5.0 mph8.0 kmh 29.96 in1014.6 mb 0.00 in0.0 mm 0.00 in0.0 mm 0.00 in0.0 mm
07:27 PM 26.3°F-3.2°C 18.5°F-7.5°C 72% 3.0 mph S4.8 kmh S 5.0 mph8.0 kmh 29.96 in1014.6 mb 0.00 in0.0 mm 0.00 in0.0 mm 0.00 in0.0 mm
07:28 PM 26.3°F-3.2°C 18.8°F-7.3°C 73% 3.1 mph S5.0 kmh S 4.0 mph6.4 kmh 29.96 in1014.6 mb 0.00 in0.0 mm 0.00 in0.0 mm 0.00 in0.0 mm
07:29 PM 26.3°F-3.2°C 18.8°F-7.3°C 73% 3.0 mph S4.8 kmh S 4.0 mph6.4 kmh 29.96 in1014.6 mb 0.00 in0.0 mm 0.00 in0.0 mm 0.00 in0.0 mm
07:30 PM 26.3°F-3.2°C 18.5°F-7.5°C 72% 2.9 mph S4.7 kmh S 4.0 mph6.4 kmh 29.96 in1014.6 mb 0.00 in0.0 mm 0.00 in0.0 mm 0.00 in0.0 mm
07:31 PM 26.3°F-3.2°C 18.8°F-7.3°C 73% 2.2 mph S3.5 kmh S 4.0 mph6.4 kmh 29.96 in1014.6 mb 0.00 in0.0 mm 0.00 in0.0 mm 0.00 in0.0 mm
07:32 PM 26.3°F-3.2°C 18.8°F-7.3°C 73% 2.8 mph S4.5 kmh S 3.0 mph4.8 kmh 29.96 in1014.6 mb 0.00 in0.0 mm 0.00 in0.0 mm 0.00 in0.0 mm
07:33 PM 26.2°F-3.2°C 18.7°F-7.4°C 73% 3.0 mph S4.8 kmh S 4.0 mph6.4 kmh 29.96 in1014.6 mb 0.00 in0.0 mm 0.00 in0.0 mm 0.00 in0.0 mm
07:34 PM 26.2°F-3.2°C 18.7°F-7.4°C 73% 2.8 mph S4.5 kmh S 4.0 mph6.4 kmh 29.96 in1014.6 mb 0.00 in0.0 mm 0.00 in0.0 mm 0.00 in0.0 mm
07:35 PM 26.1°F-3.3°C 18.3°F-7.6°C 72% 3.6 mph S5.8 kmh S 5.0 mph8.0 kmh 29.96 in1014.6 mb 0.00 in0.0 mm 0.00 in0.0 mm 0.00 in0.0 mm
07:36 PM 26.1°F-3.3°C 18.7°F-7.4°C 73% 3.9 mph S6.3 kmh S 5.0 mph8.0 kmh 29.96 in1014.6 mb 0.00 in0.0 mm